PWSweather.com
Personal Weather Stations
Station Observations

Enon Chester, VA 23836

Lat: 37.3609267, Lon: -77.31545840000001

Elevation: 89

Station Type: Acurite

http://www.wunderground.com/personal-weather-station/dashboard?ID=KVACHEST67

High Low Average
Temperature 67.3°F19.6°C 34.5°F1.4°C 50.2°F10.1°C
Dew Point 62.6°F17.0°C 33.1°F0.6°C 47.0°F8.3°C
Winds 18.1 mph 29.1 kmh Calm Calm 4.0 mph S6.4 kmh S
Wind Gusts 18.1 mph29.1 kmh -- 7.0 mph11.3 kmh
Humidity 97% 78% 89%
Pressure 30.66 in1038.3 mb 30.03 in1016.9 mb -
Precipitation 0.40 in10.2 mm - -
Hour Temp Dew Point Humidity Winds Wind Gusts Pressure Precip Precip Rate Daily Precip Total
12:00 AM 67.3°F19.6°C 62.6°F17.0°C 85% 2.7 mph SSE4.3 kmh SSE 6.8 mph10.9 kmh 30.03 in1016.9 mb 0.00 in0.0 mm 0.00 in0.0 mm 0.00 in0.0 mm
12:01 AM 67.3°F19.6°C 62.6°F17.0°C 85% 1.7 mph SE2.7 kmh SE 5.8 mph9.3 kmh 30.03 in1016.9 mb 0.00 in0.0 mm 0.00 in0.0 mm 0.00 in0.0 mm
12:02 AM 67.1°F19.5°C 62.4°F16.9°C 85% 2.2 mph ESE3.5 kmh ESE 5.8 mph9.3 kmh 30.03 in1016.9 mb 0.00 in0.0 mm 0.00 in0.0 mm 0.00 in0.0 mm
12:03 AM 67.1°F19.5°C 62.4°F16.9°C 85% 2.7 mph ESE4.3 kmh ESE 5.8 mph9.3 kmh 30.03 in1016.9 mb 0.00 in0.0 mm 0.00 in0.0 mm 0.00 in0.0 mm
12:04 AM 67.1°F19.5°C 62.4°F16.9°C 85% 1.7 mph E2.7 kmh E 5.8 mph9.3 kmh 30.03 in1016.9 mb 0.00 in0.0 mm 0.00 in0.0 mm 0.00 in0.0 mm
12:05 AM 67.1°F19.5°C 62.4°F16.9°C 85% 2.2 mph NW3.5 kmh NW 5.8 mph9.3 kmh 30.03 in1016.9 mb 0.00 in0.0 mm 0.00 in0.0 mm 0.00 in0.0 mm
12:06 AM 67.1°F19.5°C 62.4°F16.9°C 85% 2.7 mph NW4.3 kmh NW 5.8 mph9.3 kmh 30.03 in1016.9 mb 0.00 in0.0 mm 0.00 in0.0 mm 0.00 in0.0 mm
12:07 AM 67.1°F19.5°C 62.4°F16.9°C 85% 3.2 mph W5.1 kmh W 5.8 mph9.3 kmh 30.03 in1016.9 mb 0.00 in0.0 mm 0.00 in0.0 mm 0.00 in0.0 mm
12:08 AM 67.1°F19.5°C 62.4°F16.9°C 85% 3.2 mph NW5.1 kmh NW 5.8 mph9.3 kmh 30.03 in1016.9 mb 0.00 in0.0 mm 0.00 in0.0 mm 0.00 in0.0 mm
12:09 AM 67.1°F19.5°C 62.4°F16.9°C 85% 1.1 mph ESE1.8 kmh ESE 5.8 mph9.3 kmh 30.03 in1016.9 mb 0.00 in0.0 mm 0.00 in0.0 mm 0.00 in0.0 mm
12:10 AM 67.1°F19.5°C 62.4°F16.9°C 85% 1.1 mph W1.8 kmh W 4.7 mph7.6 kmh 30.03 in1016.9 mb 0.00 in0.0 mm 0.00 in0.0 mm 0.00 in0.0 mm
12:11 AM 67.1°F19.5°C 62.4°F16.9°C 85% 1.7 mph S2.7 kmh S 4.7 mph7.6 kmh 30.03 in1016.9 mb 0.00 in0.0 mm 0.00 in0.0 mm 0.00 in0.0 mm
12:12 AM 67.1°F19.5°C 62.4°F16.9°C 85% 3.2 mph S5.1 kmh S 4.7 mph7.6 kmh 30.03 in1016.9 mb 0.00 in0.0 mm 0.00 in0.0 mm 0.00 in0.0 mm
12:13 AM 67.1°F19.5°C 62.4°F16.9°C 85% 1.7 mph W2.7 kmh W 4.7 mph7.6 kmh 30.03 in1016.9 mb 0.00 in0.0 mm 0.00 in0.0 mm 0.00 in0.0 mm
12:14 AM 67.1°F19.5°C 62.4°F16.9°C 85% 1.7 mph NE2.7 kmh NE 4.7 mph7.6 kmh 30.03 in1016.9 mb 0.00 in0.0 mm 0.00 in0.0 mm 0.00 in0.0 mm
12:15 AM 67.1°F19.5°C 62.4°F16.9°C 85% 3.2 mph W5.1 kmh W 4.7 mph7.6 kmh 30.03 in1016.9 mb 0.00 in0.0 mm 0.00 in0.0 mm 0.00 in0.0 mm
12:16 AM 67.1°F19.5°C 62.4°F16.9°C 85% 2.2 mph ESE3.5 kmh ESE 4.7 mph7.6 kmh 30.03 in1016.9 mb 0.00 in0.0 mm 0.00 in0.0 mm 0.00 in0.0 mm
12:17 AM 67.1°F19.5°C 62.4°F16.9°C 85% 1.7 mph ESE2.7 kmh ESE 4.7 mph7.6 kmh 30.03 in1016.9 mb 0.00 in0.0 mm 0.00 in0.0 mm 0.00 in0.0 mm
12:18 AM 66.9°F19.4°C 62.2°F16.8°C 85% 2.2 mph SE3.5 kmh SE 4.7 mph7.6 kmh 30.03 in1016.9 mb 0.00 in0.0 mm 0.00 in0.0 mm 0.00 in0.0 mm
12:19 AM 66.9°F19.4°C 62.2°F16.8°C 85% 2.2 mph W3.5 kmh W 4.7 mph7.6 kmh 30.03 in1016.9 mb 0.00 in0.0 mm 0.00 in0.0 mm 0.00 in0.0 mm
12:20 AM 66.9°F19.4°C 62.2°F16.8°C 85% 3.7 mph W6.0 kmh W 4.7 mph7.6 kmh 30.03 in1016.9 mb 0.00 in0.0 mm 0.00 in0.0 mm 0.00 in0.0 mm
12:21 AM 66.9°F19.4°C 62.2°F16.8°C 85% 2.7 mph WNW4.3 kmh WNW 4.7 mph7.6 kmh 30.03 in1016.9 mb 0.00 in0.0 mm 0.00 in0.0 mm 0.00 in0.0 mm
12:22 AM 66.9°F19.4°C 62.2°F16.8°C 85% 3.2 mph ENE5.1 kmh ENE 4.7 mph7.6 kmh 30.03 in1016.9 mb 0.00 in0.0 mm 0.00 in0.0 mm 0.00 in0.0 mm
12:23 AM 66.9°F19.4°C 62.2°F16.8°C 85% 1.7 mph ESE2.7 kmh ESE 4.7 mph7.6 kmh 30.03 in1016.9 mb 0.00 in0.0 mm 0.00 in0.0 mm 0.00 in0.0 mm
12:24 AM 66.9°F19.4°C 62.2°F16.8°C 85% 4.2 mph W6.8 kmh W 4.7 mph7.6 kmh 30.03 in1016.9 mb 0.00 in0.0 mm 0.00 in0.0 mm 0.00 in0.0 mm
12:25 AM 66.9°F19.4°C 62.2°F16.8°C 85% 2.7 mph WSW4.3 kmh WSW 4.7 mph7.6 kmh 30.03 in1016.9 mb 0.00 in0.0 mm 0.00 in0.0 mm 0.00 in0.0 mm
12:26 AM 67.1°F19.5°C 62.4°F16.9°C 85% 1.1 mph S1.8 kmh S 4.7 mph7.6 kmh 30.03 in1016.9 mb 0.00 in0.0 mm 0.00 in0.0 mm 0.00 in0.0 mm
12:27 AM 67.1°F19.5°C 62.4°F16.9°C 85% 3.7 mph W6.0 kmh W 4.7 mph7.6 kmh 30.03 in1016.9 mb 0.00 in0.0 mm 0.00 in0.0 mm 0.00 in0.0 mm
12:28 AM 67.1°F19.5°C 62.4°F16.9°C 85% 2.2 mph NNE3.5 kmh NNE 4.7 mph7.6 kmh 30.03 in1016.9 mb 0.00 in0.0 mm 0.00 in0.0 mm 0.00 in0.0 mm
12:29 AM 67.1°F19.5°C 62.4°F16.9°C 85% 3.2 mph W5.1 kmh W 4.7 mph7.6 kmh 30.04 in1017.3 mb 0.00 in0.0 mm 0.00 in0.0 mm 0.00 in0.0 mm
12:30 AM 67.1°F19.5°C 62.4°F16.9°C 85% 2.7 mph SW4.3 kmh SW 4.7 mph7.6 kmh 30.04 in1017.3 mb 0.00 in0.0 mm 0.00 in0.0 mm 0.00 in0.0 mm
12:31 AM 67.1°F19.5°C 62.4°F16.9°C 85% 1.1 mph ESE1.8 kmh ESE 4.7 mph7.6 kmh 30.04 in1017.3 mb 0.00 in0.0 mm 0.00 in0.0 mm 0.00 in0.0 mm
12:32 AM 66.9°F19.4°C 62.2°F16.8°C 85% 2.7 mph NE4.3 kmh NE 4.7 mph7.6 kmh 30.04 in1017.3 mb 0.00 in0.0 mm 0.00 in0.0 mm 0.00 in0.0 mm
12:33 AM 66.9°F19.4°C 62.2°F16.8°C 85% 2.7 mph W4.3 kmh W 4.7 mph7.6 kmh 30.04 in1017.3 mb 0.00 in0.0 mm 0.00 in0.0 mm 0.00 in0.0 mm
12:34 AM 66.9°F19.4°C 62.2°F16.8°C 85% 3.7 mph WSW6.0 kmh WSW 4.7 mph7.6 kmh 30.04 in1017.3 mb 0.00 in0.0 mm 0.00 in0.0 mm 0.00 in0.0 mm
12:35 AM 66.9°F19.4°C 62.2°F16.8°C 85% 1.7 mph NNE2.7 kmh NNE 4.7 mph7.6 kmh 30.04 in1017.3 mb 0.00 in0.0 mm 0.00 in0.0 mm 0.00 in0.0 mm
12:36 AM 66.9°F19.4°C 62.2°F16.8°C 85% 1.7 mph ESE2.7 kmh ESE 4.7 mph7.6 kmh 30.04 in1017.3 mb 0.00 in0.0 mm 0.00 in0.0 mm 0.00 in0.0 mm
12:37 AM 66.9°F19.4°C 62.2°F16.8°C 85% 1.7 mph W2.7 kmh W 4.7 mph7.6 kmh 30.04 in1017.3 mb 0.00 in0.0 mm 0.00 in0.0 mm 0.00 in0.0 mm
12:38 AM 66.9°F19.4°C 62.2°F16.8°C 85% 1.1 mph NNE1.8 kmh NNE 4.7 mph7.6 kmh 30.04 in1017.3 mb 0.00 in0.0 mm 0.00 in0.0 mm 0.00 in0.0 mm
12:39 AM 66.7°F19.3°C 62.0°F16.7°C 85% 4.2 mph SSE6.8 kmh SSE 4.7 mph7.6 kmh 30.04 in1017.3 mb 0.00 in0.0 mm 0.00 in0.0 mm 0.00 in0.0 mm
12:40 AM 66.7°F19.3°C 62.0°F16.7°C 85% 1.1 mph SE1.8 kmh SE 4.7 mph7.6 kmh 30.04 in1017.3 mb 0.00 in0.0 mm 0.00 in0.0 mm 0.00 in0.0 mm
12:41 AM 66.7°F19.3°C 62.0°F16.7°C 85% 2.7 mph ESE4.3 kmh ESE 4.7 mph7.6 kmh 30.04 in1017.3 mb 0.00 in0.0 mm 0.00 in0.0 mm 0.00 in0.0 mm
12:42 AM 66.7°F19.3°C 62.0°F16.7°C 85% 1.7 mph SE2.7 kmh SE 4.7 mph7.6 kmh 30.04 in1017.3 mb 0.00 in0.0 mm 0.00 in0.0 mm 0.00 in0.0 mm
12:43 AM 66.7°F19.3°C 62.0°F16.7°C 85% Calm Calm 4.7 mph7.6 kmh 30.04 in1017.3 mb 0.00 in0.0 mm 0.00 in0.0 mm 0.00 in0.0 mm
12:44 AM 66.6°F19.2°C 61.9°F16.6°C 85% 2.2 mph S3.5 kmh S 4.7 mph7.6 kmh 30.04 in1017.3 mb 0.00 in0.0 mm 0.00 in0.0 mm 0.00 in0.0 mm
12:45 AM 66.6°F19.2°C 61.9°F16.6°C 85% 2.7 mph SE4.3 kmh SE 4.7 mph7.6 kmh 30.04 in1017.3 mb 0.00 in0.0 mm 0.00 in0.0 mm 0.00 in0.0 mm
12:46 AM 66.6°F19.2°C 61.9°F16.6°C 85% 1.1 mph SE1.8 kmh SE 4.7 mph7.6 kmh 30.04 in1017.3 mb 0.00 in0.0 mm 0.00 in0.0 mm 0.00 in0.0 mm
12:47 AM 66.6°F19.2°C 61.9°F16.6°C 85% 1.7 mph SE2.7 kmh SE 4.7 mph7.6 kmh 30.04 in1017.3 mb 0.00 in0.0 mm 0.00 in0.0 mm 0.00 in0.0 mm
12:48 AM 66.6°F19.2°C 61.9°F16.6°C 85% 1.7 mph W2.7 kmh W 4.7 mph7.6 kmh 30.04 in1017.3 mb 0.00 in0.0 mm 0.00 in0.0 mm 0.00 in0.0 mm
12:49 AM 66.6°F19.2°C 61.9°F16.6°C 85% 2.2 mph WNW3.5 kmh WNW 3.2 mph5.1 kmh 30.04 in1017.3 mb 0.00 in0.0 mm 0.00 in0.0 mm 0.00 in0.0 mm
12:50 AM 66.6°F19.2°C 61.9°F16.6°C 85% 1.7 mph ESE2.7 kmh ESE 3.2 mph5.1 kmh 30.04 in1017.3 mb 0.00 in0.0 mm 0.00 in0.0 mm 0.00 in0.0 mm
12:51 AM 66.6°F19.2°C 61.9°F16.6°C 85% 2.7 mph SSE4.3 kmh SSE 2.7 mph4.3 kmh 30.04 in1017.3 mb 0.00 in0.0 mm 0.00 in0.0 mm 0.00 in0.0 mm
12:52 AM 66.6°F19.2°C 61.9°F16.6°C 85% 2.2 mph NE3.5 kmh NE 2.7 mph4.3 kmh 30.04 in1017.3 mb 0.00 in0.0 mm 0.00 in0.0 mm 0.00 in0.0 mm
12:53 AM 66.6°F19.2°C 61.9°F16.6°C 85% 2.7 mph E4.3 kmh E 2.7 mph4.3 kmh 30.04 in1017.3 mb 0.00 in0.0 mm 0.00 in0.0 mm 0.00 in0.0 mm
12:54 AM 66.4°F19.1°C 61.7°F16.5°C 85% Calm Calm 2.7 mph4.3 kmh 30.05 in1017.6 mb 0.00 in0.0 mm 0.00 in0.0 mm 0.00 in0.0 mm
12:55 AM 66.4°F19.1°C 61.7°F16.5°C 85% 3.7 mph W6.0 kmh W 3.7 mph6.0 kmh 30.05 in1017.6 mb 0.00 in0.0 mm 0.00 in0.0 mm 0.00 in0.0 mm
12:56 AM 66.4°F19.1°C 61.7°F16.5°C 85% 2.2 mph ESE3.5 kmh ESE 5.8 mph9.3 kmh 30.05 in1017.6 mb 0.00 in0.0 mm 0.00 in0.0 mm 0.00 in0.0 mm
12:57 AM 66.4°F19.1°C 61.7°F16.5°C 85% 2.2 mph SSE3.5 kmh SSE 5.8 mph9.3 kmh 30.05 in1017.6 mb 0.00 in0.0 mm 0.00 in0.0 mm 0.00 in0.0 mm
12:58 AM 66.4°F19.1°C 61.7°F16.5°C 85% 1.7 mph ESE2.7 kmh ESE 5.8 mph9.3 kmh 30.05 in1017.6 mb 0.00 in0.0 mm 0.00 in0.0 mm 0.00 in0.0 mm
12:59 AM 66.4°F19.1°C 61.7°F16.5°C 85% 1.1 mph ENE1.8 kmh ENE 5.8 mph9.3 kmh 30.05 in1017.6 mb 0.00 in0.0 mm 0.00 in0.0 mm 0.00 in0.0 mm
01:00 AM 66.4°F19.1°C 61.7°F16.5°C 85% 3.7 mph WNW6.0 kmh WNW 5.8 mph9.3 kmh 30.05 in1017.6 mb 0.00 in0.0 mm 0.00 in0.0 mm 0.00 in0.0 mm
01:01 AM 66.4°F19.1°C 61.7°F16.5°C 85% 1.7 mph W2.7 kmh W 5.8 mph9.3 kmh 30.05 in1017.6 mb 0.00 in0.0 mm 0.00 in0.0 mm 0.00 in0.0 mm
01:02 AM 66.4°F19.1°C 61.7°F16.5°C 85% 4.2 mph W6.8 kmh W 5.8 mph9.3 kmh 30.05 in1017.6 mb 0.00 in0.0 mm 0.00 in0.0 mm 0.00 in0.0 mm
01:03 AM 66.4°F19.1°C 61.7°F16.5°C 85% 2.7 mph SSE4.3 kmh SSE 5.8 mph9.3 kmh 30.05 in1017.6 mb 0.00 in0.0 mm 0.00 in0.0 mm 0.00 in0.0 mm
01:04 AM 66.4°F19.1°C 61.7°F16.5°C 85% 3.2 mph W5.1 kmh W 5.8 mph9.3 kmh 30.05 in1017.6 mb 0.00 in0.0 mm 0.00 in0.0 mm 0.00 in0.0 mm
01:05 AM 66.4°F19.1°C 61.7°F16.5°C 85% 2.7 mph ESE4.3 kmh ESE 5.8 mph9.3 kmh 30.05 in1017.6 mb 0.00 in0.0 mm 0.00 in0.0 mm 0.00 in0.0 mm
01:06 AM 66.4°F19.1°C 61.7°F16.5°C 85% 4.2 mph W6.8 kmh W 4.7 mph7.6 kmh 30.05 in1017.6 mb 0.00 in0.0 mm 0.00 in0.0 mm 0.00 in0.0 mm
01:07 AM 66.4°F19.1°C 61.7°F16.5°C 85% 1.1 mph NE1.8 kmh NE 4.7 mph7.6 kmh 30.05 in1017.6 mb 0.00 in0.0 mm 0.00 in0.0 mm 0.00 in0.0 mm
01:08 AM 66.4°F19.1°C 61.7°F16.5°C 85% 2.2 mph NNE3.5 kmh NNE 4.7 mph7.6 kmh 30.05 in1017.6 mb 0.00 in0.0 mm 0.00 in0.0 mm 0.00 in0.0 mm
01:09 AM 66.4°F19.1°C 61.7°F16.5°C 85% 2.7 mph ESE4.3 kmh ESE 4.7 mph7.6 kmh 30.05 in1017.6 mb 0.00 in0.0 mm 0.00 in0.0 mm 0.00 in0.0 mm
01:10 AM 66.4°F19.1°C 61.7°F16.5°C 85% 1.7 mph S2.7 kmh S 4.7 mph7.6 kmh 30.05 in1017.6 mb 0.00 in0.0 mm 0.00 in0.0 mm 0.00 in0.0 mm
01:11 AM 66.4°F19.1°C 61.7°F16.5°C 85% 2.7 mph NE4.3 kmh NE 4.7 mph7.6 kmh 30.05 in1017.6 mb 0.00 in0.0 mm 0.00 in0.0 mm 0.00 in0.0 mm
01:12 AM 66.4°F19.1°C 61.7°F16.5°C 85% 3.2 mph WSW5.1 kmh WSW 6.3 mph10.1 kmh 30.05 in1017.6 mb 0.00 in0.0 mm 0.00 in0.0 mm 0.00 in0.0 mm
01:13 AM 66.4°F19.1°C 61.7°F16.5°C 85% 2.2 mph W3.5 kmh W 6.3 mph10.1 kmh 30.05 in1017.6 mb 0.00 in0.0 mm 0.00 in0.0 mm 0.00 in0.0 mm
01:14 AM 66.4°F19.1°C 61.7°F16.5°C 85% 4.2 mph ENE6.8 kmh ENE 6.3 mph10.1 kmh 30.05 in1017.6 mb 0.00 in0.0 mm 0.00 in0.0 mm 0.00 in0.0 mm
01:15 AM 66.4°F19.1°C 61.7°F16.5°C 85% 3.7 mph W6.0 kmh W 6.3 mph10.1 kmh 30.05 in1017.6 mb 0.00 in0.0 mm 0.00 in0.0 mm 0.00 in0.0 mm
01:16 AM 66.4°F19.1°C 61.7°F16.5°C 85% 5.8 mph SSW9.3 kmh SSW 6.3 mph10.1 kmh 30.05 in1017.6 mb 0.00 in0.0 mm 0.00 in0.0 mm 0.00 in0.0 mm
01:17 AM 66.6°F19.2°C 61.9°F16.6°C 85% 4.2 mph W6.8 kmh W 6.3 mph10.1 kmh 30.05 in1017.6 mb 0.00 in0.0 mm 0.00 in0.0 mm 0.00 in0.0 mm
01:18 AM 66.7°F19.3°C 62.0°F16.7°C 85% 3.7 mph SE6.0 kmh SE 8.9 mph14.3 kmh 30.05 in1017.6 mb 0.00 in0.0 mm 0.00 in0.0 mm 0.00 in0.0 mm
01:19 AM 66.7°F19.3°C 62.0°F16.7°C 85% 4.2 mph WSW6.8 kmh WSW 8.9 mph14.3 kmh 30.05 in1017.6 mb 0.00 in0.0 mm 0.00 in0.0 mm 0.00 in0.0 mm
01:20 AM 66.7°F19.3°C 62.0°F16.7°C 85% 5.3 mph WNW8.5 kmh WNW 8.9 mph14.3 kmh 30.05 in1017.6 mb 0.00 in0.0 mm 0.00 in0.0 mm 0.00 in0.0 mm
01:21 AM 66.7°F19.3°C 62.0°F16.7°C 85% 2.2 mph E3.5 kmh E 8.9 mph14.3 kmh 30.05 in1017.6 mb 0.00 in0.0 mm 0.00 in0.0 mm 0.00 in0.0 mm
01:22 AM 66.7°F19.3°C 62.0°F16.7°C 85% 2.2 mph WNW3.5 kmh WNW 8.9 mph14.3 kmh 30.05 in1017.6 mb 0.00 in0.0 mm 0.00 in0.0 mm 0.00 in0.0 mm
01:23 AM 66.7°F19.3°C 62.0°F16.7°C 85% 7.3 mph W11.7 kmh W 8.9 mph14.3 kmh 30.05 in1017.6 mb 0.00 in0.0 mm 0.00 in0.0 mm 0.00 in0.0 mm
01:24 AM 66.7°F19.3°C 62.0°F16.7°C 85% 3.7 mph NNW6.0 kmh NNW 8.9 mph14.3 kmh 30.05 in1017.6 mb 0.00 in0.0 mm 0.00 in0.0 mm 0.00 in0.0 mm
01:25 AM 66.7°F19.3°C 62.0°F16.7°C 85% 2.7 mph E4.3 kmh E 8.9 mph14.3 kmh 30.05 in1017.6 mb 0.00 in0.0 mm 0.00 in0.0 mm 0.00 in0.0 mm
01:26 AM 66.7°F19.3°C 62.0°F16.7°C 85% 2.2 mph SW3.5 kmh SW 8.9 mph14.3 kmh 30.05 in1017.6 mb 0.00 in0.0 mm 0.00 in0.0 mm 0.00 in0.0 mm
01:27 AM 66.7°F19.3°C 62.0°F16.7°C 85% 1.7 mph NNE2.7 kmh NNE 8.9 mph14.3 kmh 30.05 in1017.6 mb 0.00 in0.0 mm 0.00 in0.0 mm 0.00 in0.0 mm
01:28 AM 66.7°F19.3°C 62.0°F16.7°C 85% 2.7 mph NW4.3 kmh NW 7.3 mph11.7 kmh 30.05 in1017.6 mb 0.00 in0.0 mm 0.00 in0.0 mm 0.00 in0.0 mm
01:29 AM 66.7°F19.3°C 62.0°F16.7°C 85% 2.7 mph ESE4.3 kmh ESE 7.3 mph11.7 kmh 30.06 in1017.9 mb 0.00 in0.0 mm 0.00 in0.0 mm 0.00 in0.0 mm
01:30 AM 66.7°F19.3°C 62.0°F16.7°C 85% 2.7 mph SE4.3 kmh SE 7.3 mph11.7 kmh 30.06 in1017.9 mb 0.00 in0.0 mm 0.00 in0.0 mm 0.00 in0.0 mm
01:31 AM 66.7°F19.3°C 62.0°F16.7°C 85% 2.2 mph S3.5 kmh S 7.3 mph11.7 kmh 30.06 in1017.9 mb 0.00 in0.0 mm 0.00 in0.0 mm 0.00 in0.0 mm
01:32 AM 66.7°F19.3°C 62.0°F16.7°C 85% 2.7 mph N4.3 kmh N 7.3 mph11.7 kmh 30.06 in1017.9 mb 0.00 in0.0 mm 0.00 in0.0 mm 0.00 in0.0 mm
01:33 AM 66.7°F19.3°C 62.0°F16.7°C 85% 2.2 mph W3.5 kmh W 4.2 mph6.8 kmh 30.06 in1017.9 mb 0.00 in0.0 mm 0.00 in0.0 mm 0.00 in0.0 mm
01:34 AM 66.7°F19.3°C 62.0°F16.7°C 85% 1.7 mph NNW2.7 kmh NNW 4.2 mph6.8 kmh 30.06 in1017.9 mb 0.00 in0.0 mm 0.00 in0.0 mm 0.00 in0.0 mm
01:35 AM 66.7°F19.3°C 62.0°F16.7°C 85% 2.2 mph SW3.5 kmh SW 4.2 mph6.8 kmh 30.06 in1017.9 mb 0.00 in0.0 mm 0.00 in0.0 mm 0.00 in0.0 mm
01:36 AM 66.6°F19.2°C 61.9°F16.6°C 85% 2.7 mph WNW4.3 kmh WNW 4.2 mph6.8 kmh 30.06 in1017.9 mb 0.00 in0.0 mm 0.00 in0.0 mm 0.00 in0.0 mm
01:37 AM 66.6°F19.2°C 61.9°F16.6°C 85% 1.7 mph N2.7 kmh N 4.2 mph6.8 kmh 30.06 in1017.9 mb 0.00 in0.0 mm 0.00 in0.0 mm 0.00 in0.0 mm
01:38 AM 66.6°F19.2°C 61.9°F16.6°C 85% 1.7 mph SW2.7 kmh SW 4.2 mph6.8 kmh 30.06 in1017.9 mb 0.00 in0.0 mm 0.00 in0.0 mm 0.00 in0.0 mm
01:39 AM 66.6°F19.2°C 61.9°F16.6°C 85% 2.7 mph NNE4.3 kmh NNE 4.2 mph6.8 kmh 30.06 in1017.9 mb 0.00 in0.0 mm 0.00 in0.0 mm 0.00 in0.0 mm
01:40 AM 66.6°F19.2°C 61.9°F16.6°C 85% 2.7 mph ESE4.3 kmh ESE 4.2 mph6.8 kmh 30.06 in1017.9 mb 0.00 in0.0 mm 0.00 in0.0 mm 0.00 in0.0 mm
01:41 AM 66.6°F19.2°C 61.9°F16.6°C 85% 4.7 mph SW7.6 kmh SW 4.7 mph7.6 kmh 30.06 in1017.9 mb 0.00 in0.0 mm 0.00 in0.0 mm 0.00 in0.0 mm
01:42 AM 66.6°F19.2°C 61.9°F16.6°C 85% 1.7 mph SE2.7 kmh SE 4.7 mph7.6 kmh 30.06 in1017.9 mb 0.00 in0.0 mm 0.00 in0.0 mm 0.00 in0.0 mm
01:43 AM 66.6°F19.2°C 61.9°F16.6°C 85% 2.2 mph E3.5 kmh E 5.8 mph9.3 kmh 30.06 in1017.9 mb 0.00 in0.0 mm 0.00 in0.0 mm 0.00 in0.0 mm
01:44 AM 66.6°F19.2°C 61.9°F16.6°C 85% 2.2 mph W3.5 kmh W 5.8 mph9.3 kmh 30.06 in1017.9 mb 0.00 in0.0 mm 0.00 in0.0 mm 0.00 in0.0 mm
01:45 AM 66.6°F19.2°C 61.9°F16.6°C 85% 2.7 mph ENE4.3 kmh ENE 5.8 mph9.3 kmh 30.06 in1017.9 mb 0.00 in0.0 mm 0.00 in0.0 mm 0.00 in0.0 mm
01:46 AM 66.6°F19.2°C 61.9°F16.6°C 85% 2.7 mph SW4.3 kmh SW 5.8 mph9.3 kmh 30.06 in1017.9 mb 0.00 in0.0 mm 0.00 in0.0 mm 0.00 in0.0 mm
01:47 AM 66.6°F19.2°C 61.9°F16.6°C 85% 1.7 mph SSE2.7 kmh SSE 5.8 mph9.3 kmh 30.06 in1017.9 mb 0.00 in0.0 mm 0.00 in0.0 mm 0.00 in0.0 mm
01:48 AM 66.6°F19.2°C 61.9°F16.6°C 85% 1.7 mph ESE2.7 kmh ESE 5.8 mph9.3 kmh 30.06 in1017.9 mb 0.00 in0.0 mm 0.00 in0.0 mm 0.00 in0.0 mm
01:49 AM 66.6°F19.2°C 61.9°F16.6°C 85% 5.3 mph SSE8.5 kmh SSE 7.3 mph11.7 kmh 30.06 in1017.9 mb 0.00 in0.0 mm 0.00 in0.0 mm 0.00 in0.0 mm
01:50 AM 66.6°F19.2°C 61.9°F16.6°C 85% 1.7 mph WNW2.7 kmh WNW 7.3 mph11.7 kmh 30.06 in1017.9 mb 0.00 in0.0 mm 0.00 in0.0 mm 0.00 in0.0 mm
01:51 AM 66.6°F19.2°C 61.9°F16.6°C 85% 3.2 mph WNW5.1 kmh WNW 7.3 mph11.7 kmh 30.06 in1017.9 mb 0.00 in0.0 mm 0.00 in0.0 mm 0.00 in0.0 mm
01:52 AM 66.6°F19.2°C 61.9°F16.6°C 85% 2.2 mph SE3.5 kmh SE 7.3 mph11.7 kmh 30.06 in1017.9 mb 0.00 in0.0 mm 0.00 in0.0 mm 0.00 in0.0 mm
01:53 AM 66.6°F19.2°C 61.9°F16.6°C 85% 3.7 mph NNE6.0 kmh NNE 7.3 mph11.7 kmh 30.07 in1018.3 mb 0.00 in0.0 mm 0.00 in0.0 mm 0.00 in0.0 mm
01:54 AM 66.4°F19.1°C 61.7°F16.5°C 85% 1.7 mph ESE2.7 kmh ESE 7.3 mph11.7 kmh 30.07 in1018.3 mb 0.00 in0.0 mm 0.00 in0.0 mm 0.00 in0.0 mm
01:55 AM 66.4°F19.1°C 61.7°F16.5°C 85% 3.7 mph W6.0 kmh W 7.3 mph11.7 kmh 30.07 in1018.3 mb 0.00 in0.0 mm 0.00 in0.0 mm 0.00 in0.0 mm
01:56 AM 66.4°F19.1°C 61.7°F16.5°C 85% 1.1 mph SSW1.8 kmh SSW 7.3 mph11.7 kmh 30.07 in1018.3 mb 0.00 in0.0 mm 0.00 in0.0 mm 0.00 in0.0 mm
01:57 AM 66.4°F19.1°C 61.7°F16.5°C 85% 1.7 mph NE2.7 kmh NE 7.3 mph11.7 kmh 30.07 in1018.3 mb 0.00 in0.0 mm 0.00 in0.0 mm 0.00 in0.0 mm
01:58 AM 66.4°F19.1°C 61.7°F16.5°C 85% 3.7 mph SW6.0 kmh SW 7.3 mph11.7 kmh 30.07 in1018.3 mb 0.00 in0.0 mm 0.00 in0.0 mm 0.00 in0.0 mm
01:59 AM 66.4°F19.1°C 61.7°F16.5°C 85% 4.7 mph SSE7.6 kmh SSE 4.7 mph7.6 kmh 30.07 in1018.3 mb 0.00 in0.0 mm 0.00 in0.0 mm 0.00 in0.0 mm
02:00 AM 66.4°F19.1°C 61.7°F16.5°C 85% 2.7 mph S4.3 kmh S 4.7 mph7.6 kmh 30.07 in1018.3 mb 0.00 in0.0 mm 0.00 in0.0 mm 0.00 in0.0 mm
02:01 AM 66.4°F19.1°C 61.7°F16.5°C 85% 1.7 mph SE2.7 kmh SE 4.7 mph7.6 kmh 30.07 in1018.3 mb 0.00 in0.0 mm 0.00 in0.0 mm 0.00 in0.0 mm
02:02 AM 66.2°F19.0°C 61.6°F16.4°C 85% 1.1 mph NNW1.8 kmh NNW 4.7 mph7.6 kmh 30.07 in1018.3 mb 0.00 in0.0 mm 0.00 in0.0 mm 0.00 in0.0 mm
02:03 AM 66.2°F19.0°C 61.6°F16.4°C 85% 2.7 mph NW4.3 kmh NW 4.7 mph7.6 kmh 30.07 in1018.3 mb 0.00 in0.0 mm 0.00 in0.0 mm 0.00 in0.0 mm
02:04 AM 66.0°F18.9°C 61.4°F16.3°C 85% 1.7 mph ESE2.7 kmh ESE 4.7 mph7.6 kmh 30.07 in1018.3 mb 0.00 in0.0 mm 0.00 in0.0 mm 0.00 in0.0 mm
02:05 AM 66.0°F18.9°C 61.4°F16.3°C 85% 2.7 mph W4.3 kmh W 4.7 mph7.6 kmh 30.07 in1018.3 mb 0.00 in0.0 mm 0.00 in0.0 mm 0.00 in0.0 mm
02:06 AM 66.0°F18.9°C 61.4°F16.3°C 85% 2.2 mph W3.5 kmh W 4.7 mph7.6 kmh 30.07 in1018.3 mb 0.00 in0.0 mm 0.00 in0.0 mm 0.00 in0.0 mm
02:07 AM 66.0°F18.9°C 61.4°F16.3°C 85% 2.2 mph ESE3.5 kmh ESE 4.7 mph7.6 kmh 30.07 in1018.3 mb 0.00 in0.0 mm 0.00 in0.0 mm 0.00 in0.0 mm
02:08 AM 66.0°F18.9°C 61.4°F16.3°C 85% 2.7 mph SSE4.3 kmh SSE 4.7 mph7.6 kmh 30.07 in1018.3 mb 0.00 in0.0 mm 0.00 in0.0 mm 0.00 in0.0 mm
02:09 AM 66.0°F18.9°C 61.4°F16.3°C 85% 6.8 mph W10.9 kmh W 6.8 mph10.9 kmh 30.07 in1018.3 mb 0.00 in0.0 mm 0.00 in0.0 mm 0.00 in0.0 mm
02:10 AM 66.0°F18.9°C 61.4°F16.3°C 85% 1.1 mph SSE1.8 kmh SSE 6.8 mph10.9 kmh 30.07 in1018.3 mb 0.00 in0.0 mm 0.00 in0.0 mm 0.00 in0.0 mm
02:11 AM 66.0°F18.9°C 61.4°F16.3°C 85% 2.2 mph ENE3.5 kmh ENE 6.8 mph10.9 kmh 30.07 in1018.3 mb 0.00 in0.0 mm 0.00 in0.0 mm 0.00 in0.0 mm
02:12 AM 66.0°F18.9°C 61.4°F16.3°C 85% 2.7 mph NNE4.3 kmh NNE 6.8 mph10.9 kmh 30.07 in1018.3 mb 0.00 in0.0 mm 0.00 in0.0 mm 0.00 in0.0 mm
02:13 AM 66.0°F18.9°C 61.4°F16.3°C 85% 3.2 mph WNW5.1 kmh WNW 6.8 mph10.9 kmh 30.07 in1018.3 mb 0.00 in0.0 mm 0.00 in0.0 mm 0.00 in0.0 mm
02:14 AM 65.8°F18.8°C 61.5°F16.4°C 86% 3.2 mph W5.1 kmh W 6.8 mph10.9 kmh 30.07 in1018.3 mb 0.00 in0.0 mm 0.00 in0.0 mm 0.00 in0.0 mm
02:15 AM 65.8°F18.8°C 61.5°F16.4°C 86% 3.2 mph WSW5.1 kmh WSW 6.8 mph10.9 kmh 30.07 in1018.3 mb 0.00 in0.0 mm 0.00 in0.0 mm 0.00 in0.0 mm
02:16 AM 65.8°F18.8°C 61.5°F16.4°C 86% 1.7 mph N2.7 kmh N 6.8 mph10.9 kmh 30.07 in1018.3 mb 0.00 in0.0 mm 0.00 in0.0 mm 0.00 in0.0 mm
02:17 AM 65.8°F18.8°C 61.5°F16.4°C 86% 2.7 mph NNE4.3 kmh NNE 6.8 mph10.9 kmh 30.07 in1018.3 mb 0.00 in0.0 mm 0.00 in0.0 mm 0.00 in0.0 mm
02:18 AM 65.8°F18.8°C 61.5°F16.4°C 86% 2.7 mph E4.3 kmh E 6.8 mph10.9 kmh 30.07 in1018.3 mb 0.00 in0.0 mm 0.00 in0.0 mm 0.00 in0.0 mm
02:19 AM 65.8°F18.8°C 61.5°F16.4°C 86% 2.2 mph ENE3.5 kmh ENE 6.8 mph10.9 kmh 30.07 in1018.3 mb 0.00 in0.0 mm 0.00 in0.0 mm 0.00 in0.0 mm
02:20 AM 65.8°F18.8°C 61.5°F16.4°C 86% 2.7 mph SE4.3 kmh SE 5.8 mph9.3 kmh 30.07 in1018.3 mb 0.00 in0.0 mm 0.00 in0.0 mm 0.00 in0.0 mm
02:21 AM 65.8°F18.8°C 61.5°F16.4°C 86% 4.2 mph S6.8 kmh S 7.3 mph11.7 kmh 30.07 in1018.3 mb 0.00 in0.0 mm 0.00 in0.0 mm 0.00 in0.0 mm
02:22 AM 66.0°F18.9°C 61.7°F16.5°C 86% 5.8 mph SW9.3 kmh SW 7.3 mph11.7 kmh 30.07 in1018.3 mb 0.00 in0.0 mm 0.00 in0.0 mm 0.00 in0.0 mm
02:23 AM 66.0°F18.9°C 61.7°F16.5°C 86% 2.7 mph S4.3 kmh S 7.3 mph11.7 kmh 30.07 in1018.3 mb 0.00 in0.0 mm 0.00 in0.0 mm 0.00 in0.0 mm
02:24 AM 66.0°F18.9°C 61.7°F16.5°C 86% 2.7 mph ESE4.3 kmh ESE 7.3 mph11.7 kmh 30.07 in1018.3 mb 0.00 in0.0 mm 0.00 in0.0 mm 0.00 in0.0 mm
02:25 AM 66.0°F18.9°C 61.7°F16.5°C 86% 3.2 mph WSW5.1 kmh WSW 7.3 mph11.7 kmh 30.07 in1018.3 mb 0.00 in0.0 mm 0.00 in0.0 mm 0.00 in0.0 mm
02:26 AM 66.0°F18.9°C 61.7°F16.5°C 86% 3.7 mph ESE6.0 kmh ESE 7.3 mph11.7 kmh 30.07 in1018.3 mb 0.00 in0.0 mm 0.00 in0.0 mm 0.00 in0.0 mm
02:27 AM 66.0°F18.9°C 61.7°F16.5°C 86% 2.2 mph NNE3.5 kmh NNE 7.3 mph11.7 kmh 30.07 in1018.3 mb 0.00 in0.0 mm 0.00 in0.0 mm 0.00 in0.0 mm
02:28 AM 66.0°F18.9°C 61.7°F16.5°C 86% 2.7 mph NNE4.3 kmh NNE 7.3 mph11.7 kmh 30.07 in1018.3 mb 0.00 in0.0 mm 0.00 in0.0 mm 0.00 in0.0 mm
02:29 AM 65.8°F18.8°C 61.5°F16.4°C 86% 3.2 mph NNE5.1 kmh NNE 7.3 mph11.7 kmh 30.07 in1018.3 mb 0.00 in0.0 mm 0.00 in0.0 mm 0.00 in0.0 mm
02:30 AM 65.8°F18.8°C 61.5°F16.4°C 86% 1.7 mph WNW2.7 kmh WNW 7.3 mph11.7 kmh 30.07 in1018.3 mb 0.00 in0.0 mm 0.00 in0.0 mm 0.00 in0.0 mm
02:31 AM 65.8°F18.8°C 61.5°F16.4°C 86% 3.2 mph W5.1 kmh W 5.8 mph9.3 kmh 30.07 in1018.3 mb 0.00 in0.0 mm 0.00 in0.0 mm 0.00 in0.0 mm
02:32 AM 65.8°F18.8°C 61.5°F16.4°C 86% 1.7 mph NW2.7 kmh NW 5.8 mph9.3 kmh 30.07 in1018.3 mb 0.00 in0.0 mm 0.00 in0.0 mm 0.00 in0.0 mm
02:33 AM 65.8°F18.8°C 61.5°F16.4°C 86% 2.2 mph W3.5 kmh W 5.8 mph9.3 kmh 30.07 in1018.3 mb 0.00 in0.0 mm 0.00 in0.0 mm 0.00 in0.0 mm
02:34 AM 65.8°F18.8°C 61.5°F16.4°C 86% 2.2 mph N3.5 kmh N 4.2 mph6.8 kmh 30.07 in1018.3 mb 0.00 in0.0 mm 0.00 in0.0 mm 0.00 in0.0 mm
02:35 AM 65.8°F18.8°C 61.5°F16.4°C 86% 2.2 mph ESE3.5 kmh ESE 4.2 mph6.8 kmh 30.07 in1018.3 mb 0.00 in0.0 mm 0.00 in0.0 mm 0.00 in0.0 mm
02:36 AM 65.8°F18.8°C 61.5°F16.4°C 86% 2.2 mph WNW3.5 kmh WNW 3.7 mph6.0 kmh 30.07 in1018.3 mb 0.00 in0.0 mm 0.00 in0.0 mm 0.00 in0.0 mm
02:37 AM 65.8°F18.8°C 61.5°F16.4°C 86% 2.7 mph N4.3 kmh N 3.7 mph6.0 kmh 30.07 in1018.3 mb 0.00 in0.0 mm 0.00 in0.0 mm 0.00 in0.0 mm
02:38 AM 65.8°F18.8°C 61.5°F16.4°C 86% 4.2 mph WNW6.8 kmh WNW 4.2 mph6.8 kmh 30.07 in1018.3 mb 0.00 in0.0 mm 0.00 in0.0 mm 0.00 in0.0 mm
02:39 AM 65.8°F18.8°C 61.5°F16.4°C 86% 2.7 mph ENE4.3 kmh ENE 5.3 mph8.5 kmh 30.07 in1018.3 mb 0.00 in0.0 mm 0.00 in0.0 mm 0.00 in0.0 mm
02:40 AM 65.8°F18.8°C 61.5°F16.4°C 86% 1.7 mph S2.7 kmh S 5.3 mph8.5 kmh 30.07 in1018.3 mb 0.00 in0.0 mm 0.00 in0.0 mm 0.00 in0.0 mm
02:41 AM 65.8°F18.8°C 61.5°F16.4°C 86% 2.2 mph SSW3.5 kmh SSW 5.3 mph8.5 kmh 30.07 in1018.3 mb 0.00 in0.0 mm 0.00 in0.0 mm 0.00 in0.0 mm
02:42 AM 65.8°F18.8°C 61.5°F16.4°C 86% 2.7 mph NW4.3 kmh NW 5.3 mph8.5 kmh 30.07 in1018.3 mb 0.00 in0.0 mm 0.00 in0.0 mm 0.00 in0.0 mm
02:43 AM 65.8°F18.8°C 61.5°F16.4°C 86% 1.7 mph S2.7 kmh S 5.3 mph8.5 kmh 30.07 in1018.3 mb 0.00 in0.0 mm 0.00 in0.0 mm 0.00 in0.0 mm
02:44 AM 65.8°F18.8°C 61.5°F16.4°C 86% 2.2 mph SE3.5 kmh SE 5.3 mph8.5 kmh 30.07 in1018.3 mb 0.00 in0.0 mm 0.00 in0.0 mm 0.00 in0.0 mm
02:45 AM 65.8°F18.8°C 61.5°F16.4°C 86% 1.7 mph NNE2.7 kmh NNE 5.3 mph8.5 kmh 30.07 in1018.3 mb 0.00 in0.0 mm 0.00 in0.0 mm 0.00 in0.0 mm
02:46 AM 65.8°F18.8°C 61.5°F16.4°C 86% 5.8 mph ESE9.3 kmh ESE 5.8 mph9.3 kmh 30.07 in1018.3 mb 0.00 in0.0 mm 0.00 in0.0 mm 0.00 in0.0 mm
02:47 AM 65.8°F18.8°C 61.5°F16.4°C 86% 3.2 mph ESE5.1 kmh ESE 5.8 mph9.3 kmh 30.07 in1018.3 mb 0.00 in0.0 mm 0.00 in0.0 mm 0.00 in0.0 mm
02:48 AM 65.8°F18.8°C 61.5°F16.4°C 86% 1.7 mph NE2.7 kmh NE 5.8 mph9.3 kmh 30.07 in1018.3 mb 0.00 in0.0 mm 0.00 in0.0 mm 0.00 in0.0 mm
02:49 AM 65.8°F18.8°C 61.5°F16.4°C 86% 1.7 mph NNW2.7 kmh NNW 5.8 mph9.3 kmh 30.07 in1018.3 mb 0.00 in0.0 mm 0.00 in0.0 mm 0.00 in0.0 mm
02:50 AM 65.7°F18.7°C 61.4°F16.3°C 86% 2.2 mph SSE3.5 kmh SSE 5.8 mph9.3 kmh 30.07 in1018.3 mb 0.00 in0.0 mm 0.00 in0.0 mm 0.00 in0.0 mm
02:51 AM 65.7°F18.7°C 61.4°F16.3°C 86% 2.7 mph NE4.3 kmh NE 5.8 mph9.3 kmh 30.07 in1018.3 mb 0.00 in0.0 mm 0.00 in0.0 mm 0.00 in0.0 mm
02:52 AM 65.7°F18.7°C 61.4°F16.3°C 86% 2.2 mph WNW3.5 kmh WNW 5.8 mph9.3 kmh 30.07 in1018.3 mb 0.00 in0.0 mm 0.00 in0.0 mm 0.00 in0.0 mm
02:53 AM 65.7°F18.7°C 61.4°F16.3°C 86% 2.2 mph NNE3.5 kmh NNE 5.8 mph9.3 kmh 30.07 in1018.3 mb 0.00 in0.0 mm 0.00 in0.0 mm 0.00 in0.0 mm
02:54 AM 65.7°F18.7°C 61.4°F16.3°C 86% 2.2 mph S3.5 kmh S 5.8 mph9.3 kmh 30.07 in1018.3 mb 0.00 in0.0 mm 0.00 in0.0 mm 0.00 in0.0 mm
02:55 AM 65.7°F18.7°C 61.4°F16.3°C 86% 2.2 mph NNW3.5 kmh NNW 5.8 mph9.3 kmh 30.07 in1018.3 mb 0.00 in0.0 mm 0.00 in0.0 mm 0.00 in0.0 mm
02:56 AM 65.7°F18.7°C 61.4°F16.3°C 86% 3.2 mph NW5.1 kmh NW 4.2 mph6.8 kmh 30.07 in1018.3 mb 0.00 in0.0 mm 0.00 in0.0 mm 0.00 in0.0 mm
02:57 AM 65.7°F18.7°C 61.4°F16.3°C 86% 1.1 mph W1.8 kmh W 4.2 mph6.8 kmh 30.07 in1018.3 mb 0.00 in0.0 mm 0.00 in0.0 mm 0.00 in0.0 mm
02:58 AM 65.7°F18.7°C 61.4°F16.3°C 86% 1.7 mph N2.7 kmh N 4.2 mph6.8 kmh 30.07 in1018.3 mb 0.00 in0.0 mm 0.00 in0.0 mm 0.00 in0.0 mm
02:59 AM 65.7°F18.7°C 61.7°F16.5°C 87% 1.7 mph W2.7 kmh W 4.2 mph6.8 kmh 30.07 in1018.3 mb 0.00 in0.0 mm 0.00 in0.0 mm 0.00 in0.0 mm
03:00 AM 65.7°F18.7°C 61.7°F16.5°C 87% 2.2 mph ESE3.5 kmh ESE 4.2 mph6.8 kmh 30.07 in1018.3 mb 0.00 in0.0 mm 0.00 in0.0 mm 0.00 in0.0 mm
03:01 AM 65.7°F18.7°C 61.7°F16.5°C 87% 3.2 mph W5.1 kmh W 3.7 mph6.0 kmh 30.07 in1018.3 mb 0.00 in0.0 mm 0.00 in0.0 mm 0.00 in0.0 mm
03:02 AM 65.7°F18.7°C 61.7°F16.5°C 87% 2.2 mph S3.5 kmh S 3.7 mph6.0 kmh 30.07 in1018.3 mb 0.00 in0.0 mm 0.00 in0.0 mm 0.00 in0.0 mm
03:03 AM 65.7°F18.7°C 61.7°F16.5°C 87% 3.7 mph SE6.0 kmh SE 3.7 mph6.0 kmh 30.07 in1018.3 mb 0.00 in0.0 mm 0.00 in0.0 mm 0.00 in0.0 mm
03:04 AM 65.7°F18.7°C 61.7°F16.5°C 87% 2.7 mph SSW4.3 kmh SSW 3.7 mph6.0 kmh 30.07 in1018.3 mb 0.00 in0.0 mm 0.00 in0.0 mm 0.00 in0.0 mm
03:05 AM 65.5°F18.6°C 61.5°F16.4°C 87% 3.7 mph SSW6.0 kmh SSW 3.7 mph6.0 kmh 30.07 in1018.3 mb 0.00 in0.0 mm 0.00 in0.0 mm 0.00 in0.0 mm
03:06 AM 65.5°F18.6°C 61.5°F16.4°C 87% 3.7 mph SSE6.0 kmh SSE 4.2 mph6.8 kmh 30.07 in1018.3 mb 0.00 in0.0 mm 0.00 in0.0 mm 0.00 in0.0 mm
03:07 AM 65.5°F18.6°C 61.5°F16.4°C 87% 4.7 mph SSE7.6 kmh SSE 4.7 mph7.6 kmh 30.07 in1018.3 mb 0.00 in0.0 mm 0.00 in0.0 mm 0.00 in0.0 mm
03:08 AM 65.7°F18.7°C 61.7°F16.5°C 87% 4.2 mph S6.8 kmh S 6.3 mph10.1 kmh 30.07 in1018.3 mb 0.00 in0.0 mm 0.00 in0.0 mm 0.00 in0.0 mm
03:09 AM 65.7°F18.7°C 61.7°F16.5°C 87% 3.7 mph SSE6.0 kmh SSE 6.3 mph10.1 kmh 30.07 in1018.3 mb 0.00 in0.0 mm 0.00 in0.0 mm 0.00 in0.0 mm
03:10 AM 65.7°F18.7°C 61.7°F16.5°C 87% 2.2 mph S3.5 kmh S 6.3 mph10.1 kmh 30.07 in1018.3 mb 0.00 in0.0 mm 0.00 in0.0 mm 0.00 in0.0 mm
03:11 AM 65.7°F18.7°C 61.7°F16.5°C 87% 5.3 mph S8.5 kmh S 6.3 mph10.1 kmh 30.07 in1018.3 mb 0.00 in0.0 mm 0.00 in0.0 mm 0.00 in0.0 mm
03:12 AM 65.7°F18.7°C 61.7°F16.5°C 87% 4.2 mph SW6.8 kmh SW 6.3 mph10.1 kmh 30.07 in1018.3 mb 0.00 in0.0 mm 0.00 in0.0 mm 0.00 in0.0 mm
03:13 AM 65.7°F18.7°C 61.7°F16.5°C 87% 2.7 mph SE4.3 kmh SE 6.3 mph10.1 kmh 30.07 in1018.3 mb 0.00 in0.0 mm 0.00 in0.0 mm 0.00 in0.0 mm
03:14 AM 65.5°F18.6°C 61.5°F16.4°C 87% 2.2 mph SSE3.5 kmh SSE 6.3 mph10.1 kmh 30.07 in1018.3 mb 0.00 in0.0 mm 0.00 in0.0 mm 0.00 in0.0 mm
03:15 AM 65.5°F18.6°C 61.5°F16.4°C 87% 2.2 mph ESE3.5 kmh ESE 6.3 mph10.1 kmh 30.07 in1018.3 mb 0.00 in0.0 mm 0.00 in0.0 mm 0.00 in0.0 mm
03:16 AM 65.5°F18.6°C 61.5°F16.4°C 87% 1.7 mph NW2.7 kmh NW 6.3 mph10.1 kmh 30.07 in1018.3 mb 0.00 in0.0 mm 0.00 in0.0 mm 0.00 in0.0 mm
03:17 AM 65.5°F18.6°C 61.8°F16.6°C 88% 2.2 mph S3.5 kmh S 6.3 mph10.1 kmh 30.06 in1017.9 mb 0.00 in0.0 mm 0.00 in0.0 mm 0.00 in0.0 mm
03:18 AM 65.3°F18.5°C 61.7°F16.5°C 88% 3.7 mph WSW6.0 kmh WSW 5.3 mph8.5 kmh 30.06 in1017.9 mb 0.00 in0.0 mm 0.00 in0.0 mm 0.00 in0.0 mm
03:19 AM 65.3°F18.5°C 61.7°F16.5°C 88% 3.2 mph WNW5.1 kmh WNW 5.3 mph8.5 kmh 30.06 in1017.9 mb 0.00 in0.0 mm 0.00 in0.0 mm 0.00 in0.0 mm
03:20 AM 65.3°F18.5°C 61.7°F16.5°C 88% 2.7 mph NW4.3 kmh NW 5.3 mph8.5 kmh 30.06 in1017.9 mb 0.00 in0.0 mm 0.00 in0.0 mm 0.00 in0.0 mm
03:21 AM 65.3°F18.5°C 61.7°F16.5°C 88% 2.2 mph SSE3.5 kmh SSE 5.3 mph8.5 kmh 30.06 in1017.9 mb 0.00 in0.0 mm 0.00 in0.0 mm 0.00 in0.0 mm
03:22 AM 65.3°F18.5°C 61.7°F16.5°C 88% 2.2 mph SSW3.5 kmh SSW 4.2 mph6.8 kmh 30.06 in1017.9 mb 0.00 in0.0 mm 0.00 in0.0 mm 0.00 in0.0 mm
03:23 AM 65.3°F18.5°C 61.7°F16.5°C 88% 1.1 mph WSW1.8 kmh WSW 4.2 mph6.8 kmh 30.06 in1017.9 mb 0.00 in0.0 mm 0.00 in0.0 mm 0.00 in0.0 mm
03:24 AM 65.3°F18.5°C 61.7°F16.5°C 88% 3.7 mph WSW6.0 kmh WSW 4.2 mph6.8 kmh 30.06 in1017.9 mb 0.00 in0.0 mm 0.00 in0.0 mm 0.00 in0.0 mm
03:25 AM 65.3°F18.5°C 62.0°F16.7°C 89% 3.2 mph S5.1 kmh S 4.7 mph7.6 kmh 30.06 in1017.9 mb 0.00 in0.0 mm 0.00 in0.0 mm 0.00 in0.0 mm
03:26 AM 65.3°F18.5°C 62.0°F16.7°C 89% 2.2 mph SW3.5 kmh SW 4.7 mph7.6 kmh 30.06 in1017.9 mb 0.00 in0.0 mm 0.00 in0.0 mm 0.00 in0.0 mm
03:27 AM 65.3°F18.5°C 62.0°F16.7°C 89% 3.2 mph NNW5.1 kmh NNW 4.7 mph7.6 kmh 30.06 in1017.9 mb 0.00 in0.0 mm 0.00 in0.0 mm 0.00 in0.0 mm
03:28 AM 65.3°F18.5°C 62.0°F16.7°C 89% 4.7 mph S7.6 kmh S 9.4 mph15.1 kmh 30.06 in1017.9 mb 0.00 in0.0 mm 0.00 in0.0 mm 0.00 in0.0 mm
03:29 AM 65.3°F18.5°C 62.0°F16.7°C 89% 3.2 mph ESE5.1 kmh ESE 9.4 mph15.1 kmh 30.07 in1018.3 mb 0.00 in0.0 mm 0.00 in0.0 mm 0.00 in0.0 mm
03:30 AM 65.3°F18.5°C 62.0°F16.7°C 89% 2.7 mph SE4.3 kmh SE 9.4 mph15.1 kmh 30.07 in1018.3 mb 0.00 in0.0 mm 0.00 in0.0 mm 0.00 in0.0 mm
03:31 AM 65.3°F18.5°C 62.0°F16.7°C 89% 1.7 mph SE2.7 kmh SE 9.4 mph15.1 kmh 30.07 in1018.3 mb 0.00 in0.0 mm 0.00 in0.0 mm 0.00 in0.0 mm
03:32 AM 65.3°F18.5°C 62.0°F16.7°C 89% 2.2 mph S3.5 kmh S 9.4 mph15.1 kmh 30.07 in1018.3 mb 0.00 in0.0 mm 0.00 in0.0 mm 0.00 in0.0 mm
03:33 AM 65.3°F18.5°C 62.0°F16.7°C 89% 1.7 mph NNE2.7 kmh NNE 9.4 mph15.1 kmh 30.07 in1018.3 mb 0.00 in0.0 mm 0.00 in0.0 mm 0.00 in0.0 mm
03:34 AM 65.3°F18.5°C 62.0°F16.7°C 89% 1.7 mph NNW2.7 kmh NNW 9.4 mph15.1 kmh 30.07 in1018.3 mb 0.00 in0.0 mm 0.00 in0.0 mm 0.00 in0.0 mm
03:35 AM 65.1°F18.4°C 61.8°F16.6°C 89% 3.7 mph WNW6.0 kmh WNW 9.4 mph15.1 kmh 30.07 in1018.3 mb 0.00 in0.0 mm 0.00 in0.0 mm 0.00 in0.0 mm
03:36 AM 65.1°F18.4°C 61.8°F16.6°C 89% 3.2 mph W5.1 kmh W 9.4 mph15.1 kmh 30.07 in1018.3 mb 0.00 in0.0 mm 0.00 in0.0 mm 0.00 in0.0 mm
03:37 AM 65.1°F18.4°C 61.8°F16.6°C 89% 2.7 mph S4.3 kmh S 9.4 mph15.1 kmh 30.07 in1018.3 mb 0.00 in0.0 mm 0.00 in0.0 mm 0.00 in0.0 mm
03:38 AM 65.1°F18.4°C 61.8°F16.6°C 89% 2.7 mph NNW4.3 kmh NNW 4.7 mph7.6 kmh 30.07 in1018.3 mb 0.00 in0.0 mm 0.00 in0.0 mm 0.00 in0.0 mm
03:39 AM 65.1°F18.4°C 61.8°F16.6°C 89% 2.2 mph NW3.5 kmh NW 4.7 mph7.6 kmh 30.07 in1018.3 mb 0.00 in0.0 mm 0.00 in0.0 mm 0.00 in0.0 mm
03:40 AM 65.1°F18.4°C 61.8°F16.6°C 89% 4.7 mph WSW7.6 kmh WSW 4.7 mph7.6 kmh 30.07 in1018.3 mb 0.00 in0.0 mm 0.00 in0.0 mm 0.00 in0.0 mm
03:41 AM 65.1°F18.4°C 61.8°F16.6°C 89% 2.7 mph SE4.3 kmh SE 4.7 mph7.6 kmh 30.07 in1018.3 mb 0.00 in0.0 mm 0.00 in0.0 mm 0.00 in0.0 mm
03:42 AM 65.1°F18.4°C 61.8°F16.6°C 89% 4.7 mph E7.6 kmh E 4.7 mph7.6 kmh 30.07 in1018.3 mb 0.00 in0.0 mm 0.00 in0.0 mm 0.00 in0.0 mm
03:43 AM 65.1°F18.4°C 61.8°F16.6°C 89% 2.2 mph NNW3.5 kmh NNW 4.7 mph7.6 kmh 30.07 in1018.3 mb 0.00 in0.0 mm 0.00 in0.0 mm 0.00 in0.0 mm
03:44 AM 65.1°F18.4°C 61.8°F16.6°C 89% 2.7 mph NNW4.3 kmh NNW 4.7 mph7.6 kmh 30.07 in1018.3 mb 0.00 in0.0 mm 0.00 in0.0 mm 0.00 in0.0 mm
03:45 AM 65.1°F18.4°C 61.8°F16.6°C 89% 1.7 mph E2.7 kmh E 4.7 mph7.6 kmh 30.07 in1018.3 mb 0.00 in0.0 mm 0.00 in0.0 mm 0.00 in0.0 mm
03:46 AM 65.1°F18.4°C 61.8°F16.6°C 89% 1.7 mph NE2.7 kmh NE 4.7 mph7.6 kmh 30.07 in1018.3 mb 0.00 in0.0 mm 0.00 in0.0 mm 0.00 in0.0 mm
03:47 AM 65.1°F18.4°C 61.8°F16.6°C 89% 2.7 mph W4.3 kmh W 4.7 mph7.6 kmh 30.07 in1018.3 mb 0.00 in0.0 mm 0.00 in0.0 mm 0.00 in0.0 mm
03:48 AM 65.1°F18.4°C 61.8°F16.6°C 89% 2.7 mph NNE4.3 kmh NNE 4.7 mph7.6 kmh 30.07 in1018.3 mb 0.00 in0.0 mm 0.00 in0.0 mm 0.00 in0.0 mm
03:49 AM 65.1°F18.4°C 61.8°F16.6°C 89% 1.7 mph NNE2.7 kmh NNE 4.7 mph7.6 kmh 30.07 in1018.3 mb 0.00 in0.0 mm 0.00 in0.0 mm 0.00 in0.0 mm
03:50 AM 65.1°F18.4°C 61.8°F16.6°C 89% 3.2 mph NNE5.1 kmh NNE 4.7 mph7.6 kmh 30.07 in1018.3 mb 0.00 in0.0 mm 0.00 in0.0 mm 0.00 in0.0 mm
03:51 AM 65.1°F18.4°C 61.8°F16.6°C 89% 3.2 mph S5.1 kmh S 4.7 mph7.6 kmh 30.07 in1018.3 mb 0.00 in0.0 mm 0.00 in0.0 mm 0.00 in0.0 mm
03:52 AM 65.1°F18.4°C 61.8°F16.6°C 89% 2.2 mph NNW3.5 kmh NNW 4.7 mph7.6 kmh 30.07 in1018.3 mb 0.00 in0.0 mm 0.00 in0.0 mm 0.00 in0.0 mm
03:53 AM 65.1°F18.4°C 61.8°F16.6°C 89% 1.1 mph ENE1.8 kmh ENE 4.7 mph7.6 kmh 30.07 in1018.3 mb 0.00 in0.0 mm 0.00 in0.0 mm 0.00 in0.0 mm
03:54 AM 65.1°F18.4°C 61.8°F16.6°C 89% 2.7 mph SSE4.3 kmh SSE 5.3 mph8.5 kmh 30.07 in1018.3 mb 0.00 in0.0 mm 0.00 in0.0 mm 0.00 in0.0 mm
03:55 AM 65.1°F18.4°C 61.8°F16.6°C 89% 2.2 mph NW3.5 kmh NW 5.3 mph8.5 kmh 30.07 in1018.3 mb 0.00 in0.0 mm 0.00 in0.0 mm 0.00 in0.0 mm
03:56 AM 65.1°F18.4°C 62.1°F16.7°C 90% 4.2 mph SSE6.8 kmh SSE 5.3 mph8.5 kmh 30.07 in1018.3 mb 0.00 in0.0 mm 0.00 in0.0 mm 0.00 in0.0 mm
03:57 AM 65.1°F18.4°C 62.1°F16.7°C 90% 3.7 mph W6.0 kmh W 5.3 mph8.5 kmh 30.07 in1018.3 mb 0.00 in0.0 mm 0.00 in0.0 mm 0.00 in0.0 mm
03:58 AM 65.1°F18.4°C 62.1°F16.7°C 90% 2.7 mph SSE4.3 kmh SSE 5.3 mph8.5 kmh 30.07 in1018.3 mb 0.00 in0.0 mm 0.00 in0.0 mm 0.00 in0.0 mm
03:59 AM 65.1°F18.4°C 62.1°F16.7°C 90% 1.1 mph W1.8 kmh W 5.3 mph8.5 kmh 30.07 in1018.3 mb 0.00 in0.0 mm 0.00 in0.0 mm 0.00 in0.0 mm
04:00 AM 65.1°F18.4°C 62.1°F16.7°C 90% 1.7 mph SSE2.7 kmh SSE 5.3 mph8.5 kmh 30.07 in1018.3 mb 0.00 in0.0 mm 0.00 in0.0 mm 0.00 in0.0 mm
04:01 AM 65.1°F18.4°C 62.1°F16.7°C 90% 1.7 mph SSE2.7 kmh SSE 5.3 mph8.5 kmh 30.07 in1018.3 mb 0.00 in0.0 mm 0.00 in0.0 mm 0.00 in0.0 mm
04:06 AM 64.9°F18.3°C 61.9°F16.6°C 90% 3.2 mph SSE5.1 kmh SSE 4.7 mph7.6 kmh 30.07 in1018.3 mb 0.00 in0.0 mm 0.00 in0.0 mm 0.00 in0.0 mm
04:07 AM 64.9°F18.3°C 61.9°F16.6°C 90% 2.2 mph ESE3.5 kmh ESE 4.7 mph7.6 kmh 30.07 in1018.3 mb 0.00 in0.0 mm 0.00 in0.0 mm 0.00 in0.0 mm
04:08 AM 64.9°F18.3°C 61.9°F16.6°C 90% 2.2 mph ESE3.5 kmh ESE 3.2 mph5.1 kmh 30.07 in1018.3 mb 0.00 in0.0 mm 0.00 in0.0 mm 0.00 in0.0 mm
04:09 AM 64.9°F18.3°C 61.9°F16.6°C 90% 2.2 mph S3.5 kmh S 4.2 mph6.8 kmh 30.07 in1018.3 mb 0.00 in0.0 mm 0.00 in0.0 mm 0.00 in0.0 mm
04:10 AM 64.9°F18.3°C 61.9°F16.6°C 90% 2.7 mph W4.3 kmh W 4.2 mph6.8 kmh 30.07 in1018.3 mb 0.00 in0.0 mm 0.00 in0.0 mm 0.00 in0.0 mm
04:11 AM 64.9°F18.3°C 61.9°F16.6°C 90% 1.7 mph W2.7 kmh W 4.2 mph6.8 kmh 30.07 in1018.3 mb 0.00 in0.0 mm 0.00 in0.0 mm 0.00 in0.0 mm
04:12 AM 64.9°F18.3°C 61.9°F16.6°C 90% 6.3 mph SSW10.1 kmh SSW 6.3 mph10.1 kmh 30.07 in1018.3 mb 0.00 in0.0 mm 0.00 in0.0 mm 0.00 in0.0 mm
04:13 AM 64.9°F18.3°C 61.9°F16.6°C 90% 2.2 mph NNW3.5 kmh NNW 6.3 mph10.1 kmh 30.07 in1018.3 mb 0.00 in0.0 mm 0.00 in0.0 mm 0.00 in0.0 mm
04:14 AM 64.9°F18.3°C 61.9°F16.6°C 90% 3.7 mph SSE6.0 kmh SSE 6.3 mph10.1 kmh 30.07 in1018.3 mb 0.00 in0.0 mm 0.00 in0.0 mm 0.00 in0.0 mm
04:15 AM 64.9°F18.3°C 61.9°F16.6°C 90% 1.7 mph SSE2.7 kmh SSE 6.3 mph10.1 kmh 30.07 in1018.3 mb 0.00 in0.0 mm 0.00 in0.0 mm 0.00 in0.0 mm
04:16 AM 64.9°F18.3°C 61.9°F16.6°C 90% 2.2 mph NNW3.5 kmh NNW 6.3 mph10.1 kmh 30.07 in1018.3 mb 0.00 in0.0 mm 0.00 in0.0 mm 0.00 in0.0 mm
04:17 AM 64.9°F18.3°C 61.9°F16.6°C 90% 4.7 mph S7.6 kmh S 6.3 mph10.1 kmh 30.07 in1018.3 mb 0.00 in0.0 mm 0.00 in0.0 mm 0.00 in0.0 mm
04:18 AM 64.9°F18.3°C 61.9°F16.6°C 90% 2.2 mph ENE3.5 kmh ENE 6.3 mph10.1 kmh 30.08 in1018.6 mb 0.00 in0.0 mm 0.00 in0.0 mm 0.00 in0.0 mm
04:19 AM 64.9°F18.3°C 61.9°F16.6°C 90% 2.7 mph W4.3 kmh W 6.3 mph10.1 kmh 30.08 in1018.6 mb 0.00 in0.0 mm 0.00 in0.0 mm 0.00 in0.0 mm
04:20 AM 64.9°F18.3°C 61.9°F16.6°C 90% 6.3 mph W10.1 kmh W 6.3 mph10.1 kmh 30.08 in1018.6 mb 0.00 in0.0 mm 0.00 in0.0 mm 0.00 in0.0 mm
04:21 AM 64.9°F18.3°C 61.9°F16.6°C 90% 1.7 mph SW2.7 kmh SW 6.3 mph10.1 kmh 30.08 in1018.6 mb 0.00 in0.0 mm 0.00 in0.0 mm 0.00 in0.0 mm
04:22 AM 64.9°F18.3°C 61.9°F16.6°C 90% 1.7 mph SSE2.7 kmh SSE 6.3 mph10.1 kmh 30.08 in1018.6 mb 0.00 in0.0 mm 0.00 in0.0 mm 0.00 in0.0 mm
04:23 AM 64.9°F18.3°C 61.9°F16.6°C 90% 2.7 mph SSE4.3 kmh SSE 6.3 mph10.1 kmh 30.08 in1018.6 mb 0.00 in0.0 mm 0.00 in0.0 mm 0.00 in0.0 mm
04:24 AM 64.9°F18.3°C 61.9°F16.6°C 90% 1.7 mph S2.7 kmh S 6.3 mph10.1 kmh 30.08 in1018.6 mb 0.00 in0.0 mm 0.00 in0.0 mm 0.00 in0.0 mm
04:25 AM 64.9°F18.3°C 61.9°F16.6°C 90% 2.7 mph W4.3 kmh W 6.3 mph10.1 kmh 30.08 in1018.6 mb 0.00 in0.0 mm 0.00 in0.0 mm 0.00 in0.0 mm
04:26 AM 64.9°F18.3°C 61.9°F16.6°C 90% 2.2 mph WNW3.5 kmh WNW 6.3 mph10.1 kmh 30.08 in1018.6 mb 0.00 in0.0 mm 0.00 in0.0 mm 0.00 in0.0 mm
04:27 AM 64.9°F18.3°C 61.9°F16.6°C 90% 3.2 mph ESE5.1 kmh ESE 6.3 mph10.1 kmh 30.08 in1018.6 mb 0.00 in0.0 mm 0.00 in0.0 mm 0.00 in0.0 mm
04:28 AM 64.9°F18.3°C 61.9°F16.6°C 90% 2.2 mph W3.5 kmh W 6.3 mph10.1 kmh 30.08 in1018.6 mb 0.00 in0.0 mm 0.00 in0.0 mm 0.00 in0.0 mm
04:29 AM 64.9°F18.3°C 61.9°F16.6°C 90% 2.2 mph ESE3.5 kmh ESE 6.3 mph10.1 kmh 30.08 in1018.6 mb 0.00 in0.0 mm 0.00 in0.0 mm 0.00 in0.0 mm
04:30 AM 64.9°F18.3°C 61.9°F16.6°C 90% 2.2 mph WNW3.5 kmh WNW 6.3 mph10.1 kmh 30.08 in1018.6 mb 0.00 in0.0 mm 0.00 in0.0 mm 0.00 in0.0 mm
04:31 AM 64.9°F18.3°C 61.9°F16.6°C 90% 2.7 mph N4.3 kmh N 4.2 mph6.8 kmh 30.08 in1018.6 mb 0.00 in0.0 mm 0.00 in0.0 mm 0.00 in0.0 mm
04:32 AM 64.8°F18.2°C 61.8°F16.6°C 90% 2.7 mph NNE4.3 kmh NNE 4.2 mph6.8 kmh 30.08 in1018.6 mb 0.00 in0.0 mm 0.00 in0.0 mm 0.00 in0.0 mm
04:33 AM 64.8°F18.2°C 61.8°F16.6°C 90% 2.7 mph N4.3 kmh N 4.2 mph6.8 kmh 30.08 in1018.6 mb 0.00 in0.0 mm 0.00 in0.0 mm 0.00 in0.0 mm
04:34 AM 64.8°F18.2°C 61.8°F16.6°C 90% 4.2 mph W6.8 kmh W 4.2 mph6.8 kmh 30.08 in1018.6 mb 0.00 in0.0 mm 0.00 in0.0 mm 0.00 in0.0 mm
04:35 AM 64.8°F18.2°C 61.8°F16.6°C 90% 1.1 mph ESE1.8 kmh ESE 4.2 mph6.8 kmh 30.08 in1018.6 mb 0.00 in0.0 mm 0.00 in0.0 mm 0.00 in0.0 mm
04:36 AM 64.8°F18.2°C 61.8°F16.6°C 90% 2.2 mph SSE3.5 kmh SSE 4.2 mph6.8 kmh 30.08 in1018.6 mb 0.00 in0.0 mm 0.00 in0.0 mm 0.00 in0.0 mm
04:37 AM 64.8°F18.2°C 61.8°F16.6°C 90% 3.2 mph WSW5.1 kmh WSW 5.3 mph8.5 kmh 30.08 in1018.6 mb 0.00 in0.0 mm 0.00 in0.0 mm 0.00 in0.0 mm
04:38 AM 64.8°F18.2°C 61.8°F16.6°C 90% 2.7 mph W4.3 kmh W 5.3 mph8.5 kmh 30.08 in1018.6 mb 0.00 in0.0 mm 0.00 in0.0 mm 0.00 in0.0 mm
04:39 AM 64.8°F18.2°C 61.8°F16.6°C 90% 1.1 mph ESE1.8 kmh ESE 5.3 mph8.5 kmh 30.08 in1018.6 mb 0.00 in0.0 mm 0.00 in0.0 mm 0.00 in0.0 mm
04:40 AM 64.8°F18.2°C 61.8°F16.6°C 90% 2.2 mph ESE3.5 kmh ESE 5.3 mph8.5 kmh 30.08 in1018.6 mb 0.00 in0.0 mm 0.00 in0.0 mm 0.00 in0.0 mm
04:41 AM 64.8°F18.2°C 61.8°F16.6°C 90% 2.2 mph W3.5 kmh W 5.3 mph8.5 kmh 30.09 in1019.0 mb 0.00 in0.0 mm 0.00 in0.0 mm 0.00 in0.0 mm
04:42 AM 64.8°F18.2°C 61.8°F16.6°C 90% 2.2 mph N3.5 kmh N 5.3 mph8.5 kmh 30.09 in1019.0 mb 0.00 in0.0 mm 0.00 in0.0 mm 0.00 in0.0 mm
04:43 AM 64.8°F18.2°C 61.8°F16.6°C 90% 2.2 mph N3.5 kmh N 5.3 mph8.5 kmh 30.09 in1019.0 mb 0.00 in0.0 mm 0.00 in0.0 mm 0.00 in0.0 mm
04:44 AM 64.8°F18.2°C 61.8°F16.6°C 90% 4.7 mph NW7.6 kmh NW 5.3 mph8.5 kmh 30.09 in1019.0 mb 0.00 in0.0 mm 0.00 in0.0 mm 0.00 in0.0 mm
04:45 AM 64.8°F18.2°C 61.5°F16.4°C 89% 2.2 mph NW3.5 kmh NW 5.3 mph8.5 kmh 30.09 in1019.0 mb 0.00 in0.0 mm 0.00 in0.0 mm 0.00 in0.0 mm
04:46 AM 64.8°F18.2°C 61.5°F16.4°C 89% 2.2 mph W3.5 kmh W 6.3 mph10.1 kmh 30.09 in1019.0 mb 0.00 in0.0 mm 0.00 in0.0 mm 0.00 in0.0 mm
04:47 AM 64.8°F18.2°C 61.5°F16.4°C 89% 2.7 mph E4.3 kmh E 6.3 mph10.1 kmh 30.09 in1019.0 mb 0.00 in0.0 mm 0.00 in0.0 mm 0.00 in0.0 mm
04:48 AM 64.8°F18.2°C 61.5°F16.4°C 89% 1.7 mph NE2.7 kmh NE 6.3 mph10.1 kmh 30.09 in1019.0 mb 0.00 in0.0 mm 0.00 in0.0 mm 0.00 in0.0 mm
04:49 AM 64.8°F18.2°C 61.5°F16.4°C 89% 5.8 mph W9.3 kmh W 6.3 mph10.1 kmh 30.09 in1019.0 mb 0.00 in0.0 mm 0.00 in0.0 mm 0.00 in0.0 mm
04:50 AM 64.8°F18.2°C 61.5°F16.4°C 89% 2.2 mph WNW3.5 kmh WNW 6.3 mph10.1 kmh 30.09 in1019.0 mb 0.00 in0.0 mm 0.00 in0.0 mm 0.00 in0.0 mm
04:51 AM 64.8°F18.2°C 61.5°F16.4°C 89% 1.7 mph N2.7 kmh N 6.3 mph10.1 kmh 30.09 in1019.0 mb 0.00 in0.0 mm 0.00 in0.0 mm 0.00 in0.0 mm
04:52 AM 64.8°F18.2°C 61.5°F16.4°C 89% 2.2 mph W3.5 kmh W 6.3 mph10.1 kmh 30.09 in1019.0 mb 0.00 in0.0 mm 0.00 in0.0 mm 0.00 in0.0 mm
04:53 AM 64.8°F18.2°C 61.5°F16.4°C 89% 2.7 mph NNW4.3 kmh NNW 6.3 mph10.1 kmh 30.09 in1019.0 mb 0.00 in0.0 mm 0.00 in0.0 mm 0.00 in0.0 mm
04:54 AM 64.8°F18.2°C 61.5°F16.4°C 89% 3.7 mph S6.0 kmh S 6.3 mph10.1 kmh 30.09 in1019.0 mb 0.00 in0.0 mm 0.00 in0.0 mm 0.00 in0.0 mm
04:55 AM 64.8°F18.2°C 61.5°F16.4°C 89% 1.7 mph S2.7 kmh S 6.3 mph10.1 kmh 30.09 in1019.0 mb 0.00 in0.0 mm 0.00 in0.0 mm 0.00 in0.0 mm
04:56 AM 64.8°F18.2°C 61.5°F16.4°C 89% 3.7 mph ESE6.0 kmh ESE 5.8 mph9.3 kmh 30.09 in1019.0 mb 0.00 in0.0 mm 0.00 in0.0 mm 0.00 in0.0 mm
04:57 AM 64.8°F18.2°C 61.5°F16.4°C 89% 2.7 mph W4.3 kmh W 5.8 mph9.3 kmh 30.09 in1019.0 mb 0.00 in0.0 mm 0.00 in0.0 mm 0.00 in0.0 mm
04:58 AM 64.8°F18.2°C 61.5°F16.4°C 89% 2.7 mph ENE4.3 kmh ENE 5.8 mph9.3 kmh 30.09 in1019.0 mb 0.00 in0.0 mm 0.00 in0.0 mm 0.00 in0.0 mm
04:59 AM 64.8°F18.2°C 61.5°F16.4°C 89% 1.7 mph NW2.7 kmh NW 4.2 mph6.8 kmh 30.09 in1019.0 mb 0.00 in0.0 mm 0.00 in0.0 mm 0.00 in0.0 mm
05:00 AM 64.8°F18.2°C 61.5°F16.4°C 89% 1.7 mph NNE2.7 kmh NNE 4.2 mph6.8 kmh 30.09 in1019.0 mb 0.00 in0.0 mm 0.00 in0.0 mm 0.00 in0.0 mm
05:01 AM 64.8°F18.2°C 61.5°F16.4°C 89% 1.7 mph ENE2.7 kmh ENE 4.2 mph6.8 kmh 30.09 in1019.0 mb 0.00 in0.0 mm 0.00 in0.0 mm 0.00 in0.0 mm
05:02 AM 64.8°F18.2°C 61.5°F16.4°C 89% 4.7 mph WNW7.6 kmh WNW 5.8 mph9.3 kmh 30.09 in1019.0 mb 0.00 in0.0 mm 0.00 in0.0 mm 0.00 in0.0 mm
05:03 AM 64.8°F18.2°C 61.5°F16.4°C 89% 3.2 mph S5.1 kmh S 5.8 mph9.3 kmh 30.09 in1019.0 mb 0.00 in0.0 mm 0.00 in0.0 mm 0.00 in0.0 mm
05:04 AM 64.8°F18.2°C 61.5°F16.4°C 89% 6.3 mph S10.1 kmh S 6.3 mph10.1 kmh 30.09 in1019.0 mb 0.00 in0.0 mm 0.00 in0.0 mm 0.00 in0.0 mm
05:05 AM 64.8°F18.2°C 61.5°F16.4°C 89% 1.7 mph S2.7 kmh S 6.3 mph10.1 kmh 30.09 in1019.0 mb 0.00 in0.0 mm 0.00 in0.0 mm 0.00 in0.0 mm
05:06 AM 64.8°F18.2°C 61.5°F16.4°C 89% 3.7 mph NW6.0 kmh NW 6.3 mph10.1 kmh 30.09 in1019.0 mb 0.00 in0.0 mm 0.00 in0.0 mm 0.00 in0.0 mm
05:07 AM 64.8°F18.2°C 61.5°F16.4°C 89% 2.2 mph NNE3.5 kmh NNE 6.3 mph10.1 kmh 30.09 in1019.0 mb 0.00 in0.0 mm 0.00 in0.0 mm 0.00 in0.0 mm
05:08 AM 64.8°F18.2°C 61.5°F16.4°C 89% 5.3 mph W8.5 kmh W 6.3 mph10.1 kmh 30.09 in1019.0 mb 0.00 in0.0 mm 0.00 in0.0 mm 0.00 in0.0 mm
05:09 AM 64.8°F18.2°C 61.5°F16.4°C 89% 4.7 mph SW7.6 kmh SW 6.3 mph10.1 kmh 30.09 in1019.0 mb 0.00 in0.0 mm 0.00 in0.0 mm 0.00 in0.0 mm
05:10 AM 64.8°F18.2°C 61.5°F16.4°C 89% 1.7 mph NNW2.7 kmh NNW 6.3 mph10.1 kmh 30.09 in1019.0 mb 0.00 in0.0 mm 0.00 in0.0 mm 0.00 in0.0 mm
05:11 AM 64.8°F18.2°C 61.5°F16.4°C 89% 1.1 mph ESE1.8 kmh ESE 6.3 mph10.1 kmh 30.09 in1019.0 mb 0.00 in0.0 mm 0.00 in0.0 mm 0.00 in0.0 mm
05:12 AM 64.8°F18.2°C 61.5°F16.4°C 89% 3.2 mph W5.1 kmh W 6.3 mph10.1 kmh 30.09 in1019.0 mb 0.00 in0.0 mm 0.00 in0.0 mm 0.00 in0.0 mm
05:13 AM 64.8°F18.2°C 61.5°F16.4°C 89% 1.7 mph WNW2.7 kmh WNW 6.3 mph10.1 kmh 30.09 in1019.0 mb 0.00 in0.0 mm 0.00 in0.0 mm 0.00 in0.0 mm
05:14 AM 64.8°F18.2°C 61.5°F16.4°C 89% 2.7 mph WNW4.3 kmh WNW 6.3 mph10.1 kmh 30.09 in1019.0 mb 0.00 in0.0 mm 0.00 in0.0 mm 0.00 in0.0 mm
05:15 AM 64.8°F18.2°C 61.5°F16.4°C 89% 2.7 mph W4.3 kmh W 5.8 mph9.3 kmh 30.09 in1019.0 mb 0.00 in0.0 mm 0.00 in0.0 mm 0.00 in0.0 mm
05:16 AM 64.8°F18.2°C 61.5°F16.4°C 89% 1.1 mph W1.8 kmh W 5.8 mph9.3 kmh 30.09 in1019.0 mb 0.00 in0.0 mm 0.00 in0.0 mm 0.00 in0.0 mm
05:17 AM 64.8°F18.2°C 61.5°F16.4°C 89% 2.7 mph W4.3 kmh W 5.8 mph9.3 kmh 30.09 in1019.0 mb 0.00 in0.0 mm 0.00 in0.0 mm 0.00 in0.0 mm
05:18 AM 64.8°F18.2°C 61.5°F16.4°C 89% 3.7 mph WNW6.0 kmh WNW 5.3 mph8.5 kmh 30.09 in1019.0 mb 0.00 in0.0 mm 0.00 in0.0 mm 0.00 in0.0 mm
05:19 AM 64.8°F18.2°C 61.5°F16.4°C 89% 2.2 mph ESE3.5 kmh ESE 3.7 mph6.0 kmh 30.09 in1019.0 mb 0.00 in0.0 mm 0.00 in0.0 mm 0.00 in0.0 mm
05:20 AM 64.6°F18.1°C 61.3°F16.3°C 89% 1.1 mph ESE1.8 kmh ESE 3.7 mph6.0 kmh 30.09 in1019.0 mb 0.00 in0.0 mm 0.00 in0.0 mm 0.00 in0.0 mm
05:21 AM 64.6°F18.1°C 61.3°F16.3°C 89% 2.7 mph W4.3 kmh W 3.7 mph6.0 kmh 30.09 in1019.0 mb 0.00 in0.0 mm 0.00 in0.0 mm 0.00 in0.0 mm
05:22 AM 64.6°F18.1°C 61.3°F16.3°C 89% 1.1 mph NNW1.8 kmh NNW 3.7 mph6.0 kmh 30.09 in1019.0 mb 0.00 in0.0 mm 0.00 in0.0 mm 0.00 in0.0 mm
05:23 AM 64.6°F18.1°C 61.3°F16.3°C 89% 2.2 mph W3.5 kmh W 3.7 mph6.0 kmh 30.09 in1019.0 mb 0.00 in0.0 mm 0.00 in0.0 mm 0.00 in0.0 mm
05:24 AM 64.6°F18.1°C 61.3°F16.3°C 89% 1.1 mph NNW1.8 kmh NNW 3.7 mph6.0 kmh 30.09 in1019.0 mb 0.00 in0.0 mm 0.00 in0.0 mm 0.00 in0.0 mm
05:25 AM 64.6°F18.1°C 61.3°F16.3°C 89% 2.7 mph SW4.3 kmh SW 4.2 mph6.8 kmh 30.09 in1019.0 mb 0.00 in0.0 mm 0.00 in0.0 mm 0.00 in0.0 mm
05:26 AM 64.6°F18.1°C 61.3°F16.3°C 89% 2.7 mph ENE4.3 kmh ENE 4.2 mph6.8 kmh 30.09 in1019.0 mb 0.00 in0.0 mm 0.00 in0.0 mm 0.00 in0.0 mm
05:27 AM 64.6°F18.1°C 61.3°F16.3°C 89% 2.7 mph WNW4.3 kmh WNW 4.2 mph6.8 kmh 30.09 in1019.0 mb 0.00 in0.0 mm 0.00 in0.0 mm 0.00 in0.0 mm
05:28 AM 64.4°F18.0°C 61.1°F16.2°C 89% 2.2 mph WNW3.5 kmh WNW 4.2 mph6.8 kmh 30.09 in1019.0 mb 0.00 in0.0 mm 0.00 in0.0 mm 0.00 in0.0 mm
05:29 AM 64.4°F18.0°C 61.1°F16.2°C 89% 1.7 mph NE2.7 kmh NE 4.2 mph6.8 kmh 30.10 in1019.3 mb 0.00 in0.0 mm 0.00 in0.0 mm 0.00 in0.0 mm
05:30 AM 64.4°F18.0°C 61.1°F16.2°C 89% 3.2 mph W5.1 kmh W 4.2 mph6.8 kmh 30.10 in1019.3 mb 0.00 in0.0 mm 0.00 in0.0 mm 0.00 in0.0 mm
05:31 AM 64.4°F18.0°C 61.1°F16.2°C 89% 2.2 mph WNW3.5 kmh WNW 4.2 mph6.8 kmh 30.10 in1019.3 mb 0.00 in0.0 mm 0.00 in0.0 mm 0.00 in0.0 mm
05:32 AM 64.4°F18.0°C 61.1°F16.2°C 89% 1.7 mph SSE2.7 kmh SSE 4.2 mph6.8 kmh 30.10 in1019.3 mb 0.00 in0.0 mm 0.00 in0.0 mm 0.00 in0.0 mm
05:33 AM 64.4°F18.0°C 61.1°F16.2°C 89% 2.7 mph NW4.3 kmh NW 4.2 mph6.8 kmh 30.10 in1019.3 mb 0.00 in0.0 mm 0.00 in0.0 mm 0.00 in0.0 mm
05:34 AM 64.4°F18.0°C 61.1°F16.2°C 89% 1.1 mph NW1.8 kmh NW 4.2 mph6.8 kmh 30.10 in1019.3 mb 0.00 in0.0 mm 0.00 in0.0 mm 0.00 in0.0 mm
05:35 AM 64.4°F18.0°C 61.1°F16.2°C 89% 1.7 mph SSW2.7 kmh SSW 4.2 mph6.8 kmh 30.10 in1019.3 mb 0.00 in0.0 mm 0.00 in0.0 mm 0.00 in0.0 mm
05:36 AM 64.4°F18.0°C 61.1°F16.2°C 89% 1.1 mph NE1.8 kmh NE 4.2 mph6.8 kmh 30.10 in1019.3 mb 0.00 in0.0 mm 0.00 in0.0 mm 0.00 in0.0 mm
05:37 AM 64.4°F18.0°C 61.1°F16.2°C 89% 2.2 mph W3.5 kmh W 4.2 mph6.8 kmh 30.10 in1019.3 mb 0.00 in0.0 mm 0.00 in0.0 mm 0.00 in0.0 mm
05:38 AM 64.4°F18.0°C 61.1°F16.2°C 89% 2.2 mph W3.5 kmh W 4.2 mph6.8 kmh 30.10 in1019.3 mb 0.00 in0.0 mm 0.00 in0.0 mm 0.00 in0.0 mm
05:39 AM 64.4°F18.0°C 61.1°F16.2°C 89% 2.2 mph S3.5 kmh S 4.2 mph6.8 kmh 30.10 in1019.3 mb 0.00 in0.0 mm 0.00 in0.0 mm 0.00 in0.0 mm
05:40 AM 64.2°F17.9°C 60.9°F16.1°C 89% 2.7 mph W4.3 kmh W 4.2 mph6.8 kmh 30.10 in1019.3 mb 0.00 in0.0 mm 0.00 in0.0 mm 0.00 in0.0 mm
05:41 AM 64.2°F17.9°C 60.9°F16.1°C 89% 4.2 mph W6.8 kmh W 4.2 mph6.8 kmh 30.11 in1019.6 mb 0.00 in0.0 mm 0.00 in0.0 mm 0.00 in0.0 mm
05:42 AM 64.2°F17.9°C 60.9°F16.1°C 89% 1.7 mph SW2.7 kmh SW 5.8 mph9.3 kmh 30.11 in1019.6 mb 0.00 in0.0 mm 0.00 in0.0 mm 0.00 in0.0 mm
05:43 AM 64.0°F17.8°C 60.7°F15.9°C 89% 2.2 mph SE3.5 kmh SE 5.8 mph9.3 kmh 30.11 in1019.6 mb 0.00 in0.0 mm 0.00 in0.0 mm 0.00 in0.0 mm
05:44 AM 64.0°F17.8°C 61.0°F16.1°C 90% 2.7 mph S4.3 kmh S 5.8 mph9.3 kmh 30.11 in1019.6 mb 0.00 in0.0 mm 0.00 in0.0 mm 0.00 in0.0 mm
05:45 AM 64.0°F17.8°C 61.0°F16.1°C 90% 2.2 mph SSW3.5 kmh SSW 5.8 mph9.3 kmh 30.11 in1019.6 mb 0.00 in0.0 mm 0.00 in0.0 mm 0.00 in0.0 mm
05:46 AM 64.0°F17.8°C 61.0°F16.1°C 90% 1.7 mph WNW2.7 kmh WNW 5.8 mph9.3 kmh 30.11 in1019.6 mb 0.00 in0.0 mm 0.00 in0.0 mm 0.00 in0.0 mm
05:47 AM 64.0°F17.8°C 61.0°F16.1°C 90% 3.2 mph NNE5.1 kmh NNE 5.8 mph9.3 kmh 30.11 in1019.6 mb 0.00 in0.0 mm 0.00 in0.0 mm 0.00 in0.0 mm
05:48 AM 64.0°F17.8°C 61.0°F16.1°C 90% 1.7 mph ESE2.7 kmh ESE 5.8 mph9.3 kmh 30.11 in1019.6 mb 0.00 in0.0 mm 0.00 in0.0 mm 0.00 in0.0 mm
05:49 AM 64.0°F17.8°C 61.0°F16.1°C 90% 4.7 mph WNW7.6 kmh WNW 5.8 mph9.3 kmh 30.11 in1019.6 mb 0.00 in0.0 mm 0.00 in0.0 mm 0.00 in0.0 mm
05:50 AM 63.9°F17.7°C 60.9°F16.1°C 90% 4.2 mph SSW6.8 kmh SSW 5.8 mph9.3 kmh 30.11 in1019.6 mb 0.00 in0.0 mm 0.00 in0.0 mm 0.00 in0.0 mm
05:51 AM 63.9°F17.7°C 60.9°F16.1°C 90% 3.2 mph W5.1 kmh W 5.8 mph9.3 kmh 30.11 in1019.6 mb 0.00 in0.0 mm 0.00 in0.0 mm 0.00 in0.0 mm
05:52 AM 63.9°F17.7°C 60.9°F16.1°C 90% 1.7 mph ESE2.7 kmh ESE 4.7 mph7.6 kmh 30.11 in1019.6 mb 0.00 in0.0 mm 0.00 in0.0 mm 0.00 in0.0 mm
05:53 AM 63.9°F17.7°C 60.9°F16.1°C 90% 2.7 mph ESE4.3 kmh ESE 4.7 mph7.6 kmh 30.11 in1019.6 mb 0.00 in0.0 mm 0.00 in0.0 mm 0.00 in0.0 mm
05:54 AM 63.9°F17.7°C 61.2°F16.2°C 91% 2.2 mph SSW3.5 kmh SSW 4.7 mph7.6 kmh 30.11 in1019.6 mb 0.00 in0.0 mm 0.00 in0.0 mm 0.00 in0.0 mm
05:55 AM 63.9°F17.7°C 61.2°F16.2°C 91% 1.7 mph WNW2.7 kmh WNW 4.7 mph7.6 kmh 30.11 in1019.6 mb 0.00 in0.0 mm 0.00 in0.0 mm 0.00 in0.0 mm
05:56 AM 63.7°F17.6°C 61.0°F16.1°C 91% 2.2 mph WNW3.5 kmh WNW 4.7 mph7.6 kmh 30.11 in1019.6 mb 0.00 in0.0 mm 0.00 in0.0 mm 0.00 in0.0 mm
05:57 AM 63.7°F17.6°C 61.0°F16.1°C 91% 1.1 mph ESE1.8 kmh ESE 4.7 mph7.6 kmh 30.11 in1019.6 mb 0.00 in0.0 mm 0.00 in0.0 mm 0.00 in0.0 mm
05:58 AM 63.7°F17.6°C 61.0°F16.1°C 91% 2.2 mph WNW3.5 kmh WNW 4.7 mph7.6 kmh 30.11 in1019.6 mb 0.00 in0.0 mm 0.00 in0.0 mm 0.00 in0.0 mm
05:59 AM 63.7°F17.6°C 61.0°F16.1°C 91% 2.7 mph S4.3 kmh S 4.7 mph7.6 kmh 30.11 in1019.6 mb 0.00 in0.0 mm 0.00 in0.0 mm 0.00 in0.0 mm
06:00 AM 63.5°F17.5°C 60.8°F16.0°C 91% 2.7 mph SSW4.3 kmh SSW 4.2 mph6.8 kmh 30.11 in1019.6 mb 0.00 in0.0 mm 0.00 in0.0 mm 0.00 in0.0 mm
06:01 AM 63.5°F17.5°C 60.8°F16.0°C 91% 2.2 mph WNW3.5 kmh WNW 4.2 mph6.8 kmh 30.11 in1019.6 mb 0.00 in0.0 mm 0.00 in0.0 mm 0.00 in0.0 mm
06:02 AM 63.5°F17.5°C 60.8°F16.0°C 91% 1.7 mph N2.7 kmh N 4.2 mph6.8 kmh 30.11 in1019.6 mb 0.00 in0.0 mm 0.00 in0.0 mm 0.00 in0.0 mm
06:03 AM 63.5°F17.5°C 60.8°F16.0°C 91% 2.2 mph SW3.5 kmh SW 4.2 mph6.8 kmh 30.11 in1019.6 mb 0.00 in0.0 mm 0.00 in0.0 mm 0.00 in0.0 mm
06:04 AM 63.5°F17.5°C 60.8°F16.0°C 91% 2.7 mph SW4.3 kmh SW 4.2 mph6.8 kmh 30.11 in1019.6 mb 0.00 in0.0 mm 0.00 in0.0 mm 0.00 in0.0 mm
06:05 AM 63.5°F17.5°C 60.8°F16.0°C 91% 2.7 mph ESE4.3 kmh ESE 4.2 mph6.8 kmh 30.11 in1019.6 mb 0.00 in0.0 mm 0.00 in0.0 mm 0.00 in0.0 mm
06:06 AM 63.5°F17.5°C 60.8°F16.0°C 91% 4.2 mph W6.8 kmh W 4.2 mph6.8 kmh 30.11 in1019.6 mb 0.00 in0.0 mm 0.00 in0.0 mm 0.00 in0.0 mm
06:07 AM 63.3°F17.4°C 60.6°F15.9°C 91% 1.1 mph SW1.8 kmh SW 4.2 mph6.8 kmh 30.11 in1019.6 mb 0.00 in0.0 mm 0.00 in0.0 mm 0.00 in0.0 mm
06:08 AM 63.3°F17.4°C 60.6°F15.9°C 91% 2.7 mph SW4.3 kmh SW 4.2 mph6.8 kmh 30.11 in1019.6 mb 0.00 in0.0 mm 0.00 in0.0 mm 0.00 in0.0 mm
06:09 AM 63.3°F17.4°C 60.6°F15.9°C 91% 1.1 mph S1.8 kmh S 4.2 mph6.8 kmh 30.11 in1019.6 mb 0.00 in0.0 mm 0.00 in0.0 mm 0.00 in0.0 mm
06:10 AM 63.3°F17.4°C 60.6°F15.9°C 91% 2.7 mph ENE4.3 kmh ENE 4.2 mph6.8 kmh 30.11 in1019.6 mb 0.00 in0.0 mm 0.00 in0.0 mm 0.00 in0.0 mm
06:11 AM 63.3°F17.4°C 60.9°F16.1°C 92% 1.7 mph W2.7 kmh W 4.2 mph6.8 kmh 30.11 in1019.6 mb 0.00 in0.0 mm 0.00 in0.0 mm 0.00 in0.0 mm
06:12 AM 63.3°F17.4°C 60.9°F16.1°C 92% 1.7 mph S2.7 kmh S 4.2 mph6.8 kmh 30.11 in1019.6 mb 0.00 in0.0 mm 0.00 in0.0 mm 0.00 in0.0 mm
06:13 AM 63.3°F17.4°C 60.9°F16.1°C 92% 1.7 mph SSE2.7 kmh SSE 4.2 mph6.8 kmh 30.11 in1019.6 mb 0.00 in0.0 mm 0.00 in0.0 mm 0.00 in0.0 mm
06:14 AM 63.3°F17.4°C 60.9°F16.1°C 92% 1.1 mph W1.8 kmh W 4.2 mph6.8 kmh 30.11 in1019.6 mb 0.00 in0.0 mm 0.00 in0.0 mm 0.00 in0.0 mm
06:15 AM 63.1°F17.3°C 60.7°F15.9°C 92% 1.7 mph SW2.7 kmh SW 4.2 mph6.8 kmh 30.11 in1019.6 mb 0.00 in0.0 mm 0.00 in0.0 mm 0.00 in0.0 mm
06:16 AM 63.1°F17.3°C 60.7°F15.9°C 92% 1.7 mph NNE2.7 kmh NNE 4.2 mph6.8 kmh 30.11 in1019.6 mb 0.00 in0.0 mm 0.00 in0.0 mm 0.00 in0.0 mm
06:17 AM 63.1°F17.3°C 60.7°F15.9°C 92% Calm Calm 4.2 mph6.8 kmh 30.11 in1019.6 mb 0.00 in0.0 mm 0.00 in0.0 mm 0.00 in0.0 mm
06:18 AM 63.1°F17.3°C 60.7°F15.9°C 92% 1.1 mph S1.8 kmh S 4.2 mph6.8 kmh 30.11 in1019.6 mb 0.00 in0.0 mm 0.00 in0.0 mm 0.00 in0.0 mm
06:19 AM 63.1°F17.3°C 60.7°F15.9°C 92% 3.2 mph N5.1 kmh N 3.2 mph5.1 kmh 30.11 in1019.6 mb 0.00 in0.0 mm 0.00 in0.0 mm 0.00 in0.0 mm
06:20 AM 63.1°F17.3°C 60.7°F15.9°C 92% 1.7 mph SE2.7 kmh SE 3.2 mph5.1 kmh 30.11 in1019.6 mb 0.00 in0.0 mm 0.00 in0.0 mm 0.00 in0.0 mm
06:21 AM 63.1°F17.3°C 60.7°F15.9°C 92% 2.2 mph W3.5 kmh W 3.2 mph5.1 kmh 30.11 in1019.6 mb 0.00 in0.0 mm 0.00 in0.0 mm 0.00 in0.0 mm
06:22 AM 63.1°F17.3°C 60.7°F15.9°C 92% 1.7 mph W2.7 kmh W 3.7 mph6.0 kmh 30.11 in1019.6 mb 0.00 in0.0 mm 0.00 in0.0 mm 0.00 in0.0 mm
06:23 AM 63.1°F17.3°C 60.7°F15.9°C 92% 2.2 mph ESE3.5 kmh ESE 3.7 mph6.0 kmh 30.11 in1019.6 mb 0.00 in0.0 mm 0.00 in0.0 mm 0.00 in0.0 mm
06:24 AM 63.1°F17.3°C 60.7°F15.9°C 92% 1.7 mph W2.7 kmh W 3.7 mph6.0 kmh 30.11 in1019.6 mb 0.00 in0.0 mm 0.00 in0.0 mm 0.00 in0.0 mm
06:25 AM 63.1°F17.3°C 60.7°F15.9°C 92% Calm Calm 3.7 mph6.0 kmh 30.11 in1019.6 mb 0.00 in0.0 mm 0.00 in0.0 mm 0.00 in0.0 mm
06:26 AM 63.1°F17.3°C 60.7°F15.9°C 92% 1.1 mph SE1.8 kmh SE 3.7 mph6.0 kmh 30.11 in1019.6 mb 0.00 in0.0 mm 0.00 in0.0 mm 0.00 in0.0 mm
06:27 AM 63.0°F17.2°C 60.6°F15.9°C 92% 2.2 mph WNW3.5 kmh WNW 3.7 mph6.0 kmh 30.11 in1019.6 mb 0.00 in0.0 mm 0.00 in0.0 mm 0.00 in0.0 mm
06:28 AM 63.0°F17.2°C 60.6°F15.9°C 92% Calm Calm 3.7 mph6.0 kmh 30.11 in1019.6 mb 0.00 in0.0 mm 0.00 in0.0 mm 0.00 in0.0 mm
06:29 AM 63.0°F17.2°C 60.6°F15.9°C 92% 3.2 mph W5.1 kmh W 3.7 mph6.0 kmh 30.11 in1019.6 mb 0.00 in0.0 mm 0.00 in0.0 mm 0.00 in0.0 mm
06:30 AM 63.0°F17.2°C 60.6°F15.9°C 92% 2.2 mph W3.5 kmh W 3.7 mph6.0 kmh 30.12 in1020.0 mb 0.00 in0.0 mm 0.00 in0.0 mm 0.00 in0.0 mm
06:31 AM 63.0°F17.2°C 60.6°F15.9°C 92% Calm Calm 3.7 mph6.0 kmh 30.12 in1020.0 mb 0.00 in0.0 mm 0.00 in0.0 mm 0.00 in0.0 mm
06:32 AM 63.0°F17.2°C 60.6°F15.9°C 92% Calm Calm 3.2 mph5.1 kmh 30.12 in1020.0 mb 0.00 in0.0 mm 0.00 in0.0 mm 0.00 in0.0 mm
06:33 AM 63.0°F17.2°C 60.6°F15.9°C 92% Calm Calm 3.2 mph5.1 kmh 30.12 in1020.0 mb 0.00 in0.0 mm 0.00 in0.0 mm 0.00 in0.0 mm
06:34 AM 63.0°F17.2°C 60.6°F15.9°C 92% Calm Calm 3.2 mph5.1 kmh 30.12 in1020.0 mb 0.00 in0.0 mm 0.00 in0.0 mm 0.00 in0.0 mm
06:35 AM 63.0°F17.2°C 60.6°F15.9°C 92% 1.7 mph W2.7 kmh W 3.2 mph5.1 kmh 30.12 in1020.0 mb 0.00 in0.0 mm 0.00 in0.0 mm 0.00 in0.0 mm
06:36 AM 63.0°F17.2°C 60.6°F15.9°C 92% 1.1 mph W1.8 kmh W 3.2 mph5.1 kmh 30.12 in1020.0 mb 0.00 in0.0 mm 0.00 in0.0 mm 0.00 in0.0 mm
06:37 AM 62.8°F17.1°C 60.4°F15.8°C 92% 1.1 mph NNE1.8 kmh NNE 3.2 mph5.1 kmh 30.12 in1020.0 mb 0.00 in0.0 mm 0.00 in0.0 mm 0.00 in0.0 mm
06:38 AM 62.8°F17.1°C 60.4°F15.8°C 92% 1.1 mph NNW1.8 kmh NNW 3.2 mph5.1 kmh 30.12 in1020.0 mb 0.00 in0.0 mm 0.00 in0.0 mm 0.00 in0.0 mm
06:39 AM 62.8°F17.1°C 60.7°F15.9°C 93% 1.1 mph NNW1.8 kmh NNW 3.2 mph5.1 kmh 30.12 in1020.0 mb 0.00 in0.0 mm 0.00 in0.0 mm 0.00 in0.0 mm
06:40 AM 62.8°F17.1°C 60.7°F15.9°C 93% Calm Calm 1.7 mph2.7 kmh 30.12 in1020.0 mb 0.00 in0.0 mm 0.00 in0.0 mm 0.00 in0.0 mm
06:41 AM 62.8°F17.1°C 60.7°F15.9°C 93% Calm Calm 1.7 mph2.7 kmh 30.12 in1020.0 mb 0.00 in0.0 mm 0.00 in0.0 mm 0.00 in0.0 mm
06:42 AM 62.8°F17.1°C 60.7°F15.9°C 93% Calm Calm 1.7 mph2.7 kmh 30.12 in1020.0 mb 0.00 in0.0 mm 0.00 in0.0 mm 0.00 in0.0 mm
06:43 AM 62.8°F17.1°C 60.7°F15.9°C 93% Calm Calm 1.7 mph2.7 kmh 30.12 in1020.0 mb 0.00 in0.0 mm 0.00 in0.0 mm 0.00 in0.0 mm
06:44 AM 62.8°F17.1°C 60.7°F15.9°C 93% Calm Calm 1.7 mph2.7 kmh 30.12 in1020.0 mb 0.00 in0.0 mm 0.00 in0.0 mm 0.00 in0.0 mm
06:45 AM 62.6°F17.0°C 60.5°F15.8°C 93% 2.2 mph W3.5 kmh W 2.2 mph3.5 kmh 30.12 in1020.0 mb 0.00 in0.0 mm 0.00 in0.0 mm 0.00 in0.0 mm
06:46 AM 62.6°F17.0°C 60.5°F15.8°C 93% Calm Calm 2.2 mph3.5 kmh 30.12 in1020.0 mb 0.00 in0.0 mm 0.00 in0.0 mm 0.00 in0.0 mm
06:47 AM 62.6°F17.0°C 60.5°F15.8°C 93% 1.1 mph NNW1.8 kmh NNW 2.2 mph3.5 kmh 30.12 in1020.0 mb 0.00 in0.0 mm 0.00 in0.0 mm 0.00 in0.0 mm
06:48 AM 62.6°F17.0°C 60.5°F15.8°C 93% Calm Calm 2.2 mph3.5 kmh 30.12 in1020.0 mb 0.00 in0.0 mm 0.00 in0.0 mm 0.00 in0.0 mm
06:49 AM 62.6°F17.0°C 60.5°F15.8°C 93% 1.7 mph W2.7 kmh W 2.2 mph3.5 kmh 30.12 in1020.0 mb 0.00 in0.0 mm 0.00 in0.0 mm 0.00 in0.0 mm
06:50 AM 62.6°F17.0°C 60.5°F15.8°C 93% 1.1 mph W1.8 kmh W 2.2 mph3.5 kmh 30.12 in1020.0 mb 0.00 in0.0 mm 0.00 in0.0 mm 0.00 in0.0 mm
06:51 AM 62.4°F16.9°C 60.3°F15.7°C 93% 1.1 mph W1.8 kmh W 2.2 mph3.5 kmh 30.12 in1020.0 mb 0.00 in0.0 mm 0.00 in0.0 mm 0.00 in0.0 mm
06:52 AM 62.4°F16.9°C 60.3°F15.7°C 93% Calm Calm 2.2 mph3.5 kmh 30.12 in1020.0 mb 0.00 in0.0 mm 0.00 in0.0 mm 0.00 in0.0 mm
06:53 AM 62.4°F16.9°C 60.6°F15.9°C 94% 1.7 mph W2.7 kmh W 2.2 mph3.5 kmh 30.14 in1020.7 mb 0.00 in0.0 mm 0.00 in0.0 mm 0.00 in0.0 mm
06:54 AM 62.4°F16.9°C 60.6°F15.9°C 94% 1.7 mph WNW2.7 kmh WNW 2.2 mph3.5 kmh 30.14 in1020.7 mb 0.00 in0.0 mm 0.00 in0.0 mm 0.00 in0.0 mm
06:55 AM 62.4°F16.9°C 60.6°F15.9°C 94% 1.7 mph W2.7 kmh W 2.2 mph3.5 kmh 30.14 in1020.7 mb 0.00 in0.0 mm 0.00 in0.0 mm 0.00 in0.0 mm
06:56 AM 62.4°F16.9°C 60.6°F15.9°C 94% 1.7 mph W2.7 kmh W 2.2 mph3.5 kmh 30.14 in1020.7 mb 0.00 in0.0 mm 0.00 in0.0 mm 0.00 in0.0 mm
06:57 AM 62.2°F16.8°C 60.4°F15.8°C 94% 1.1 mph SW1.8 kmh SW 2.2 mph3.5 kmh 30.14 in1020.7 mb 0.00 in0.0 mm 0.00 in0.0 mm 0.00 in0.0 mm
06:58 AM 62.2°F16.8°C 60.4°F15.8°C 94% Calm Calm 2.2 mph3.5 kmh 30.14 in1020.7 mb 0.00 in0.0 mm 0.00 in0.0 mm 0.00 in0.0 mm
06:59 AM 62.2°F16.8°C 60.4°F15.8°C 94% Calm Calm 1.7 mph2.7 kmh 30.14 in1020.7 mb 0.00 in0.0 mm 0.00 in0.0 mm 0.00 in0.0 mm
07:00 AM 62.2°F16.8°C 60.4°F15.8°C 94% 1.1 mph NNE1.8 kmh NNE 1.7 mph2.7 kmh 30.14 in1020.7 mb 0.00 in0.0 mm 0.00 in0.0 mm 0.00 in0.0 mm
07:01 AM 62.2°F16.8°C 60.4°F15.8°C 94% Calm Calm 1.7 mph2.7 kmh 30.14 in1020.7 mb 0.00 in0.0 mm 0.00 in0.0 mm 0.00 in0.0 mm
07:02 AM 62.1°F16.7°C 60.4°F15.8°C 94% 1.1 mph W1.8 kmh W 1.7 mph2.7 kmh 30.14 in1020.7 mb 0.00 in0.0 mm 0.00 in0.0 mm 0.00 in0.0 mm
07:03 AM 62.1°F16.7°C 60.4°F15.8°C 94% Calm Calm 1.7 mph2.7 kmh 30.14 in1020.7 mb 0.00 in0.0 mm 0.00 in0.0 mm 0.00 in0.0 mm
07:04 AM 62.1°F16.7°C 60.4°F15.8°C 94% 1.1 mph W1.8 kmh W 1.7 mph2.7 kmh 30.14 in1020.7 mb 0.00 in0.0 mm 0.00 in0.0 mm 0.00 in0.0 mm
07:05 AM 62.1°F16.7°C 60.4°F15.8°C 94% Calm Calm 1.7 mph2.7 kmh 30.14 in1020.7 mb 0.00 in0.0 mm 0.00 in0.0 mm 0.00 in0.0 mm
07:06 AM 62.1°F16.7°C 60.4°F15.8°C 94% Calm Calm 1.7 mph2.7 kmh 30.14 in1020.7 mb 0.00 in0.0 mm 0.00 in0.0 mm 0.00 in0.0 mm
07:07 AM 62.1°F16.7°C 60.4°F15.8°C 94% Calm Calm 1.7 mph2.7 kmh 30.14 in1020.7 mb 0.00 in0.0 mm 0.00 in0.0 mm 0.00 in0.0 mm
07:08 AM 62.1°F16.7°C 60.4°F15.8°C 94% Calm Calm 1.7 mph2.7 kmh 30.14 in1020.7 mb 0.00 in0.0 mm 0.00 in0.0 mm 0.00 in0.0 mm
07:09 AM 62.1°F16.7°C 60.4°F15.8°C 94% 1.1 mph SW1.8 kmh SW 1.7 mph2.7 kmh 30.14 in1020.7 mb 0.00 in0.0 mm 0.00 in0.0 mm 0.00 in0.0 mm
07:10 AM 61.9°F16.6°C 60.2°F15.7°C 94% Calm Calm 1.7 mph2.7 kmh 30.14 in1020.7 mb 0.00 in0.0 mm 0.00 in0.0 mm 0.00 in0.0 mm
07:11 AM 61.9°F16.6°C 60.2°F15.7°C 94% 1.7 mph NE2.7 kmh NE 1.7 mph2.7 kmh 30.14 in1020.7 mb 0.00 in0.0 mm 0.00 in0.0 mm 0.00 in0.0 mm
07:12 AM 61.9°F16.6°C 60.2°F15.7°C 94% 1.7 mph SSE2.7 kmh SSE 1.7 mph2.7 kmh 30.14 in1020.7 mb 0.00 in0.0 mm 0.00 in0.0 mm 0.00 in0.0 mm
07:13 AM 61.9°F16.6°C 60.5°F15.8°C 95% 1.7 mph SSW2.7 kmh SSW 1.7 mph2.7 kmh 30.14 in1020.7 mb 0.00 in0.0 mm 0.00 in0.0 mm 0.00 in0.0 mm
07:14 AM 61.9°F16.6°C 60.5°F15.8°C 95% Calm Calm 2.7 mph4.3 kmh 30.14 in1020.7 mb 0.00 in0.0 mm 0.00 in0.0 mm 0.00 in0.0 mm
07:15 AM 61.9°F16.6°C 60.5°F15.8°C 95% Calm Calm 2.7 mph4.3 kmh 30.14 in1020.7 mb 0.00 in0.0 mm 0.00 in0.0 mm 0.00 in0.0 mm
07:16 AM 61.9°F16.6°C 60.5°F15.8°C 95% Calm Calm 2.7 mph4.3 kmh 30.14 in1020.7 mb 0.00 in0.0 mm 0.00 in0.0 mm 0.00 in0.0 mm
07:17 AM 61.9°F16.6°C 60.5°F15.8°C 95% 1.1 mph NW1.8 kmh NW 2.7 mph4.3 kmh 30.15 in1021.0 mb 0.00 in0.0 mm 0.00 in0.0 mm 0.00 in0.0 mm
07:18 AM 61.9°F16.6°C 60.5°F15.8°C 95% 1.1 mph NW1.8 kmh NW 2.7 mph4.3 kmh 30.15 in1021.0 mb 0.00 in0.0 mm 0.00 in0.0 mm 0.00 in0.0 mm
07:19 AM 61.9°F16.6°C 60.5°F15.8°C 95% 1.1 mph NW1.8 kmh NW 2.7 mph4.3 kmh 30.15 in1021.0 mb 0.00 in0.0 mm 0.00 in0.0 mm 0.00 in0.0 mm
07:20 AM 61.9°F16.6°C 60.5°F15.8°C 95% 2.7 mph NW4.3 kmh NW 2.7 mph4.3 kmh 30.15 in1021.0 mb 0.00 in0.0 mm 0.00 in0.0 mm 0.00 in0.0 mm
07:21 AM 61.9°F16.6°C 60.5°F15.8°C 95% 1.1 mph SW1.8 kmh SW 2.7 mph4.3 kmh 30.15 in1021.0 mb 0.00 in0.0 mm 0.00 in0.0 mm 0.00 in0.0 mm
07:22 AM 61.9°F16.6°C 60.5°F15.8°C 95% 1.1 mph NE1.8 kmh NE 2.7 mph4.3 kmh 30.15 in1021.0 mb 0.00 in0.0 mm 0.00 in0.0 mm 0.00 in0.0 mm
07:23 AM 61.9°F16.6°C 60.5°F15.8°C 95% 1.1 mph ESE1.8 kmh ESE 2.7 mph4.3 kmh 30.15 in1021.0 mb 0.00 in0.0 mm 0.00 in0.0 mm 0.00 in0.0 mm
07:24 AM 61.9°F16.6°C 60.5°F15.8°C 95% Calm Calm 2.7 mph4.3 kmh 30.15 in1021.0 mb 0.00 in0.0 mm 0.00 in0.0 mm 0.00 in0.0 mm
07:25 AM 61.9°F16.6°C 60.5°F15.8°C 95% Calm Calm 2.7 mph4.3 kmh 30.15 in1021.0 mb 0.00 in0.0 mm 0.00 in0.0 mm 0.00 in0.0 mm
07:26 AM 61.9°F16.6°C 60.5°F15.8°C 95% Calm Calm 2.7 mph4.3 kmh 30.15 in1021.0 mb 0.00 in0.0 mm 0.00 in0.0 mm 0.00 in0.0 mm
07:27 AM 61.9°F16.6°C 60.5°F15.8°C 95% 1.7 mph NNW2.7 kmh NNW 2.7 mph4.3 kmh 30.15 in1021.0 mb 0.00 in0.0 mm 0.00 in0.0 mm 0.00 in0.0 mm
07:28 AM 61.9°F16.6°C 60.5°F15.8°C 95% 1.1 mph N1.8 kmh N 2.7 mph4.3 kmh 30.15 in1021.0 mb 0.00 in0.0 mm 0.00 in0.0 mm 0.00 in0.0 mm
07:29 AM 61.9°F16.6°C 60.5°F15.8°C 95% 1.7 mph W2.7 kmh W 2.7 mph4.3 kmh 30.16 in1021.3 mb 0.00 in0.0 mm 0.00 in0.0 mm 0.00 in0.0 mm
07:30 AM 61.9°F16.6°C 60.5°F15.8°C 95% Calm Calm 2.7 mph4.3 kmh 30.16 in1021.3 mb 0.00 in0.0 mm 0.00 in0.0 mm 0.00 in0.0 mm
07:31 AM 61.9°F16.6°C 60.5°F15.8°C 95% 2.2 mph NW3.5 kmh NW 2.2 mph3.5 kmh 30.16 in1021.3 mb 0.00 in0.0 mm 0.00 in0.0 mm 0.00 in0.0 mm
07:32 AM 61.9°F16.6°C 60.5°F15.8°C 95% 2.2 mph W3.5 kmh W 2.2 mph3.5 kmh 30.16 in1021.3 mb 0.00 in0.0 mm 0.00 in0.0 mm 0.00 in0.0 mm
07:33 AM 62.1°F16.7°C 60.6°F15.9°C 95% 2.2 mph W3.5 kmh W 2.2 mph3.5 kmh 30.16 in1021.3 mb 0.00 in0.0 mm 0.00 in0.0 mm 0.00 in0.0 mm
07:34 AM 62.1°F16.7°C 60.6°F15.9°C 95% 1.7 mph NNE2.7 kmh NNE 2.2 mph3.5 kmh 30.16 in1021.3 mb 0.00 in0.0 mm 0.00 in0.0 mm 0.00 in0.0 mm
07:35 AM 62.1°F16.7°C 60.6°F15.9°C 95% 1.1 mph N1.8 kmh N 2.2 mph3.5 kmh 30.16 in1021.3 mb 0.00 in0.0 mm 0.00 in0.0 mm 0.00 in0.0 mm
07:36 AM 62.1°F16.7°C 60.6°F15.9°C 95% 1.1 mph WNW1.8 kmh WNW 2.2 mph3.5 kmh 30.16 in1021.3 mb 0.00 in0.0 mm 0.00 in0.0 mm 0.00 in0.0 mm
07:37 AM 62.1°F16.7°C 60.6°F15.9°C 95% Calm Calm 2.2 mph3.5 kmh 30.16 in1021.3 mb 0.00 in0.0 mm 0.00 in0.0 mm 0.00 in0.0 mm
07:38 AM 62.1°F16.7°C 60.6°F15.9°C 95% 1.1 mph NNW1.8 kmh NNW 2.2 mph3.5 kmh 30.16 in1021.3 mb 0.00 in0.0 mm 0.00 in0.0 mm 0.00 in0.0 mm
07:39 AM 62.1°F16.7°C 60.6°F15.9°C 95% 1.7 mph WNW2.7 kmh WNW 2.2 mph3.5 kmh 30.16 in1021.3 mb 0.01 in0.3 mm 0.60 in15.2 mm 0.01 in0.3 mm
07:40 AM 62.1°F16.7°C 60.6°F15.9°C 95% Calm Calm 2.2 mph3.5 kmh 30.16 in1021.3 mb 0.01 in0.3 mm 0.00 in0.0 mm 0.01 in0.3 mm
07:41 AM 62.1°F16.7°C 60.9°F16.1°C 96% 1.7 mph WNW2.7 kmh WNW 2.2 mph3.5 kmh 30.17 in1021.7 mb 0.01 in0.3 mm 0.00 in0.0 mm 0.01 in0.3 mm
07:42 AM 62.1°F16.7°C 60.9°F16.1°C 96% Calm Calm 2.2 mph3.5 kmh 30.17 in1021.7 mb 0.01 in0.3 mm 0.00 in0.0 mm 0.01 in0.3 mm
07:43 AM 62.1°F16.7°C 60.9°F16.1°C 96% Calm Calm 1.7 mph2.7 kmh 30.17 in1021.7 mb 0.01 in0.3 mm 0.00 in0.0 mm 0.01 in0.3 mm
07:44 AM 62.1°F16.7°C 60.9°F16.1°C 96% Calm Calm 1.7 mph2.7 kmh 30.17 in1021.7 mb 0.01 in0.3 mm 0.00 in0.0 mm 0.01 in0.3 mm
07:45 AM 62.1°F16.7°C 60.9°F16.1°C 96% Calm Calm 1.7 mph2.7 kmh 30.17 in1021.7 mb 0.02 in0.5 mm 0.60 in15.2 mm 0.02 in0.5 mm
07:46 AM 62.1°F16.7°C 60.9°F16.1°C 96% Calm Calm 1.7 mph2.7 kmh 30.17 in1021.7 mb 0.02 in0.5 mm 0.00 in0.0 mm 0.02 in0.5 mm
07:47 AM 62.1°F16.7°C 60.9°F16.1°C 96% Calm Calm 1.7 mph2.7 kmh 30.17 in1021.7 mb 0.02 in0.5 mm 0.00 in0.0 mm 0.02 in0.5 mm
07:48 AM 62.1°F16.7°C 60.9°F16.1°C 96% Calm Calm 1.7 mph2.7 kmh 30.17 in1021.7 mb 0.03 in0.8 mm 0.60 in15.2 mm 0.03 in0.8 mm
07:49 AM 62.1°F16.7°C 60.9°F16.1°C 96% Calm Calm 1.7 mph2.7 kmh 30.17 in1021.7 mb 0.03 in0.8 mm 0.00 in0.0 mm 0.03 in0.8 mm
07:50 AM 62.1°F16.7°C 60.9°F16.1°C 96% Calm Calm 1.7 mph2.7 kmh 30.17 in1021.7 mb 0.03 in0.8 mm 0.00 in0.0 mm 0.03 in0.8 mm
07:51 AM 62.1°F16.7°C 60.9°F16.1°C 96% 1.7 mph W2.7 kmh W 1.7 mph2.7 kmh 30.17 in1021.7 mb 0.04 in1.0 mm 0.60 in15.2 mm 0.04 in1.0 mm
07:52 AM 62.1°F16.7°C 60.9°F16.1°C 96% 1.1 mph W1.8 kmh W 1.7 mph2.7 kmh 30.17 in1021.7 mb 0.04 in1.0 mm 0.00 in0.0 mm 0.04 in1.0 mm
07:53 AM 62.1°F16.7°C 60.9°F16.1°C 96% Calm Calm 1.7 mph2.7 kmh 30.18 in1022.0 mb 0.04 in1.0 mm 0.00 in0.0 mm 0.04 in1.0 mm
07:54 AM 62.1°F16.7°C 60.9°F16.1°C 96% 1.7 mph W2.7 kmh W 1.7 mph2.7 kmh 30.18 in1022.0 mb 0.04 in1.0 mm 0.00 in0.0 mm 0.04 in1.0 mm
07:55 AM 62.1°F16.7°C 60.9°F16.1°C 96% Calm Calm 1.7 mph2.7 kmh 30.18 in1022.0 mb 0.04 in1.0 mm 0.00 in0.0 mm 0.04 in1.0 mm
07:56 AM 62.1°F16.7°C 60.9°F16.1°C 96% Calm Calm 1.7 mph2.7 kmh 30.18 in1022.0 mb 0.04 in1.0 mm 0.00 in0.0 mm 0.04 in1.0 mm
07:57 AM 62.1°F16.7°C 60.9°F16.1°C 96% Calm Calm 1.7 mph2.7 kmh 30.18 in1022.0 mb 0.05 in1.3 mm 0.60 in15.2 mm 0.05 in1.3 mm
07:58 AM 62.1°F16.7°C 60.9°F16.1°C 96% Calm Calm 1.7 mph2.7 kmh 30.18 in1022.0 mb 0.05 in1.3 mm 0.00 in0.0 mm 0.05 in1.3 mm
07:59 AM 62.1°F16.7°C 60.9°F16.1°C 96% Calm Calm 1.7 mph2.7 kmh 30.18 in1022.0 mb 0.06 in1.5 mm 0.60 in15.2 mm 0.06 in1.5 mm
08:00 AM 62.1°F16.7°C 61.2°F16.2°C 97% Calm Calm 1.7 mph2.7 kmh 30.18 in1022.0 mb 0.06 in1.5 mm 0.00 in0.0 mm 0.06 in1.5 mm
08:01 AM 62.1°F16.7°C 61.2°F16.2°C 97% Calm Calm 1.7 mph2.7 kmh 30.18 in1022.0 mb 0.06 in1.5 mm 0.00 in0.0 mm 0.06 in1.5 mm
08:02 AM 62.1°F16.7°C 61.2°F16.2°C 97% Calm Calm 1.7 mph2.7 kmh 30.18 in1022.0 mb 0.06 in1.5 mm 0.00 in0.0 mm 0.06 in1.5 mm
08:03 AM 61.9°F16.6°C 61.0°F16.1°C 97% Calm Calm 1.7 mph2.7 kmh 30.18 in1022.0 mb 0.06 in1.5 mm 0.00 in0.0 mm 0.06 in1.5 mm
08:04 AM 61.9°F16.6°C 61.0°F16.1°C 97% Calm Calm 1.7 mph2.7 kmh 30.18 in1022.0 mb 0.07 in1.8 mm 0.60 in15.2 mm 0.07 in1.8 mm
08:05 AM 61.9°F16.6°C 61.0°F16.1°C 97% Calm Calm 1.1 mph1.8 kmh 30.19 in1022.4 mb 0.07 in1.8 mm 0.00 in0.0 mm 0.07 in1.8 mm
08:06 AM 61.9°F16.6°C 61.0°F16.1°C 97% Calm Calm 1.1 mph1.8 kmh 30.19 in1022.4 mb 0.07 in1.8 mm 0.00 in0.0 mm 0.07 in1.8 mm
08:07 AM 61.9°F16.6°C 61.0°F16.1°C 97% Calm Calm 1.1 mph1.8 kmh 30.19 in1022.4 mb 0.07 in1.8 mm 0.00 in0.0 mm 0.07 in1.8 mm
08:08 AM 61.9°F16.6°C 61.0°F16.1°C 97% Calm Calm 1.1 mph1.8 kmh 30.19 in1022.4 mb 0.07 in1.8 mm 0.00 in0.0 mm 0.07 in1.8 mm
08:09 AM 61.9°F16.6°C 61.0°F16.1°C 97% Calm Calm 1.1 mph1.8 kmh 30.19 in1022.4 mb 0.07 in1.8 mm 0.00 in0.0 mm 0.07 in1.8 mm
08:10 AM 61.9°F16.6°C 61.0°F16.1°C 97% Calm Calm 1.1 mph1.8 kmh 30.19 in1022.4 mb 0.07 in1.8 mm 0.00 in0.0 mm 0.07 in1.8 mm
08:11 AM 61.9°F16.6°C 61.0°F16.1°C 97% Calm Calm -- 30.19 in1022.4 mb 0.08 in2.0 mm 0.60 in15.2 mm 0.08 in2.0 mm
08:12 AM 61.9°F16.6°C 61.0°F16.1°C 97% Calm Calm -- 30.19 in1022.4 mb 0.08 in2.0 mm 0.00 in0.0 mm 0.08 in2.0 mm
08:13 AM 61.9°F16.6°C 61.0°F16.1°C 97% Calm Calm -- 30.19 in1022.4 mb 0.08 in2.0 mm 0.00 in0.0 mm 0.08 in2.0 mm
08:14 AM 61.9°F16.6°C 61.0°F16.1°C 97% Calm Calm -- 30.19 in1022.4 mb 0.08 in2.0 mm 0.00 in0.0 mm 0.08 in2.0 mm
08:15 AM 61.9°F16.6°C 61.0°F16.1°C 97% Calm Calm -- 30.19 in1022.4 mb 0.08 in2.0 mm 0.00 in0.0 mm 0.08 in2.0 mm
08:16 AM 61.9°F16.6°C 61.0°F16.1°C 97% Calm Calm -- 30.19 in1022.4 mb 0.08 in2.0 mm 0.00 in0.0 mm 0.08 in2.0 mm
08:17 AM 61.9°F16.6°C 61.0°F16.1°C 97% Calm Calm -- 30.20 in1022.7 mb 0.08 in2.0 mm 0.00 in0.0 mm 0.08 in2.0 mm
08:18 AM 61.9°F16.6°C 61.0°F16.1°C 97% 1.1 mph NW1.8 kmh NW 1.1 mph1.8 kmh 30.20 in1022.7 mb 0.08 in2.0 mm 0.00 in0.0 mm 0.08 in2.0 mm
08:19 AM 61.9°F16.6°C 61.0°F16.1°C 97% 2.2 mph NNW3.5 kmh NNW 2.2 mph3.5 kmh 30.20 in1022.7 mb 0.08 in2.0 mm 0.00 in0.0 mm 0.08 in2.0 mm
08:20 AM 61.9°F16.6°C 61.0°F16.1°C 97% 4.7 mph N7.6 kmh N 4.7 mph7.6 kmh 30.20 in1022.7 mb 0.08 in2.0 mm 0.00 in0.0 mm 0.08 in2.0 mm
08:21 AM 61.9°F16.6°C 61.0°F16.1°C 97% 5.3 mph N8.5 kmh N 5.3 mph8.5 kmh 30.20 in1022.7 mb 0.09 in2.3 mm 0.60 in15.2 mm 0.09 in2.3 mm
08:22 AM 61.9°F16.6°C 61.0°F16.1°C 97% 2.7 mph N4.3 kmh N 5.3 mph8.5 kmh 30.20 in1022.7 mb 0.09 in2.3 mm 0.00 in0.0 mm 0.09 in2.3 mm
08:23 AM 61.2°F16.2°C 59.8°F15.4°C 95% 8.9 mph N14.3 kmh N 14.0 mph22.5 kmh 30.20 in1022.7 mb 0.09 in2.3 mm 0.00 in0.0 mm 0.09 in2.3 mm
08:24 AM 60.3°F15.7°C 58.3°F14.6°C 93% 8.3 mph NNE13.4 kmh NNE 14.0 mph22.5 kmh 30.20 in1022.7 mb 0.09 in2.3 mm 0.00 in0.0 mm 0.09 in2.3 mm
08:25 AM 59.7°F15.4°C 57.4°F14.1°C 92% 10.9 mph NNE17.5 kmh NNE 14.0 mph22.5 kmh 30.20 in1022.7 mb 0.11 in2.8 mm 1.20 in30.5 mm 0.11 in2.8 mm
08:26 AM 59.2°F15.1°C 56.9°F13.8°C 92% 14.0 mph NE22.5 kmh NE 14.0 mph22.5 kmh 30.20 in1022.7 mb 0.12 in3.0 mm 0.60 in15.2 mm 0.12 in3.0 mm
08:27 AM 58.3°F14.6°C 56.0°F13.3°C 92% 9.9 mph N15.9 kmh N 14.0 mph22.5 kmh 30.20 in1022.7 mb 0.13 in3.3 mm 0.60 in15.2 mm 0.13 in3.3 mm
08:28 AM 57.9°F14.4°C 55.6°F13.1°C 92% 10.9 mph NE17.5 kmh NE 14.0 mph22.5 kmh 30.20 in1022.7 mb 0.15 in3.8 mm 1.20 in30.5 mm 0.15 in3.8 mm
08:29 AM 57.6°F14.2°C 55.6°F13.1°C 93% 3.2 mph NNE5.1 kmh NNE 14.0 mph22.5 kmh 30.22 in1023.4 mb 0.15 in3.8 mm 0.00 in0.0 mm 0.15 in3.8 mm
08:30 AM 57.4°F14.1°C 55.4°F13.0°C 93% 18.1 mph ENE29.1 kmh ENE 18.1 mph29.1 kmh 30.22 in1023.4 mb 0.16 in4.1 mm 0.60 in15.2 mm 0.16 in4.1 mm
08:31 AM 57.0°F13.9°C 54.7°F12.6°C 92% 14.5 mph NNE23.3 kmh NNE 18.1 mph29.1 kmh 30.22 in1023.4 mb 0.17 in4.3 mm 0.60 in15.2 mm 0.17 in4.3 mm
08:32 AM 56.3°F13.5°C 54.0°F12.2°C 92% 7.8 mph NNE12.6 kmh NNE 18.1 mph29.1 kmh 30.22 in1023.4 mb 0.17 in4.3 mm 0.00 in0.0 mm 0.17 in4.3 mm
08:33 AM 56.1°F13.4°C 53.8°F12.1°C 92% 15.0 mph NNE24.1 kmh NNE 18.1 mph29.1 kmh 30.22 in1023.4 mb 0.18 in4.6 mm 0.60 in15.2 mm 0.18 in4.6 mm
08:34 AM 55.6°F13.1°C 53.6°F12.0°C 93% 9.4 mph NNE15.1 kmh NNE 18.1 mph29.1 kmh 30.22 in1023.4 mb 0.18 in4.6 mm 0.00 in0.0 mm 0.18 in4.6 mm
08:35 AM 55.4°F13.0°C 53.4°F11.9°C 93% 6.8 mph N10.9 kmh N 18.1 mph29.1 kmh 30.22 in1023.4 mb 0.19 in4.8 mm 0.60 in15.2 mm 0.19 in4.8 mm
08:36 AM 55.4°F13.0°C 53.4°F11.9°C 93% 12.5 mph NNE20.1 kmh NNE 18.1 mph29.1 kmh 30.22 in1023.4 mb 0.20 in5.1 mm 0.60 in15.2 mm 0.20 in5.1 mm
08:37 AM 55.2°F12.9°C 53.5°F11.9°C 94% 5.8 mph E9.3 kmh E 18.1 mph29.1 kmh 30.22 in1023.4 mb 0.21 in5.3 mm 0.60 in15.2 mm 0.21 in5.3 mm
08:38 AM 55.2°F12.9°C 53.5°F11.9°C 94% 6.8 mph NE10.9 kmh NE 18.1 mph29.1 kmh 30.22 in1023.4 mb 0.23 in5.8 mm 1.20 in30.5 mm 0.23 in5.8 mm
08:39 AM 55.0°F12.8°C 53.3°F11.8°C 94% 4.2 mph NE6.8 kmh NE 18.1 mph29.1 kmh 30.22 in1023.4 mb 0.23 in5.8 mm 0.00 in0.0 mm 0.24 in6.1 mm
08:40 AM 54.9°F12.7°C 53.2°F11.8°C 94% 8.3 mph N13.4 kmh N 15.0 mph24.1 kmh 30.22 in1023.4 mb 0.25 in6.4 mm 1.20 in30.5 mm 0.26 in6.6 mm
08:41 AM 54.9°F12.7°C 53.2°F11.8°C 94% 7.8 mph NE12.6 kmh NE 15.0 mph24.1 kmh 30.22 in1023.4 mb 0.25 in6.4 mm 0.00 in0.0 mm 0.26 in6.6 mm
08:42 AM 54.7°F12.6°C 53.0°F11.7°C 94% 5.3 mph NNE8.5 kmh NNE 15.0 mph24.1 kmh 30.24 in1024.0 mb 0.25 in6.4 mm 0.00 in0.0 mm 0.26 in6.6 mm
08:43 AM 54.5°F12.5°C 52.8°F11.6°C 94% 3.2 mph SE5.1 kmh SE 15.0 mph24.1 kmh 30.24 in1024.0 mb 0.25 in6.4 mm 0.00 in0.0 mm 0.26 in6.6 mm
08:44 AM 54.5°F12.5°C 52.8°F11.6°C 94% 6.3 mph NNE10.1 kmh NNE 12.5 mph20.1 kmh 30.24 in1024.0 mb 0.26 in6.6 mm 0.60 in15.2 mm 0.27 in6.9 mm
08:45 AM 54.3°F12.4°C 52.6°F11.4°C 94% 4.7 mph NNE7.6 kmh NNE 12.5 mph20.1 kmh 30.24 in1024.0 mb 0.26 in6.6 mm 0.00 in0.0 mm 0.27 in6.9 mm
08:46 AM 54.3°F12.4°C 52.6°F11.4°C 94% 9.9 mph NNE15.9 kmh NNE 11.9 mph19.2 kmh 30.24 in1024.0 mb 0.25 in6.4 mm 0.00 in0.0 mm 0.27 in6.9 mm
08:47 AM 54.3°F12.4°C 52.6°F11.4°C 94% 6.8 mph NNE10.9 kmh NNE 11.9 mph19.2 kmh 30.24 in1024.0 mb 0.25 in6.4 mm 0.00 in0.0 mm 0.27 in6.9 mm
08:48 AM 54.3°F12.4°C 52.9°F11.6°C 95% 5.3 mph NNE8.5 kmh NNE 11.9 mph19.2 kmh 30.24 in1024.0 mb 0.25 in6.4 mm 0.00 in0.0 mm 0.27 in6.9 mm
08:49 AM 54.3°F12.4°C 52.9°F11.6°C 95% 6.8 mph NNE10.9 kmh NNE 10.4 mph16.7 kmh 30.24 in1024.0 mb 0.25 in6.4 mm 0.00 in0.0 mm 0.28 in7.1 mm
08:50 AM 54.1°F12.3°C 52.7°F11.5°C 95% 6.8 mph NE10.9 kmh NE 10.4 mph16.7 kmh 30.24 in1024.0 mb 0.25 in6.4 mm 0.00 in0.0 mm 0.28 in7.1 mm
08:51 AM 54.1°F12.3°C 52.7°F11.5°C 95% 8.9 mph NE14.3 kmh NE 10.4 mph16.7 kmh 30.24 in1024.0 mb 0.24 in6.1 mm 0.00 in0.0 mm 0.28 in7.1 mm
08:52 AM 54.1°F12.3°C 52.7°F11.5°C 95% 4.7 mph NNE7.6 kmh NNE 10.4 mph16.7 kmh 30.24 in1024.0 mb 0.24 in6.1 mm 0.00 in0.0 mm 0.28 in7.1 mm
08:53 AM 54.1°F12.3°C 52.7°F11.5°C 95% 5.3 mph NNE8.5 kmh NNE 10.4 mph16.7 kmh 30.24 in1024.0 mb 0.24 in6.1 mm 0.00 in0.0 mm 0.28 in7.1 mm
08:54 AM 54.1°F12.3°C 52.7°F11.5°C 95% 8.9 mph NE14.3 kmh NE 10.4 mph16.7 kmh 30.26 in1024.7 mb 0.24 in6.1 mm 0.00 in0.0 mm 0.28 in7.1 mm
08:55 AM 54.0°F12.2°C 52.6°F11.4°C 95% 3.7 mph ENE6.0 kmh ENE 10.4 mph16.7 kmh 30.26 in1024.7 mb 0.25 in6.4 mm 0.60 in15.2 mm 0.29 in7.4 mm
08:56 AM 54.0°F12.2°C 52.6°F11.4°C 95% 11.4 mph WNW18.3 kmh WNW 11.4 mph18.3 kmh 30.26 in1024.7 mb 0.25 in6.4 mm 0.00 in0.0 mm 0.29 in7.4 mm
08:57 AM 53.8°F12.1°C 52.4°F11.3°C 95% 9.9 mph NNE15.9 kmh NNE 14.5 mph23.3 kmh 30.26 in1024.7 mb 0.25 in6.4 mm 0.00 in0.0 mm 0.30 in7.6 mm
08:58 AM 53.8°F12.1°C 52.4°F11.3°C 95% 6.8 mph NNE10.9 kmh NNE 14.5 mph23.3 kmh 30.26 in1024.7 mb 0.25 in6.4 mm 0.00 in0.0 mm 0.30 in7.6 mm
08:59 AM 53.6°F12.0°C 52.2°F11.2°C 95% 9.9 mph N15.9 kmh N 14.5 mph23.3 kmh 30.26 in1024.7 mb 0.25 in6.4 mm 0.00 in0.0 mm 0.30 in7.6 mm
09:00 AM 53.4°F11.9°C 52.0°F11.1°C 95% 8.3 mph NE13.4 kmh NE 14.5 mph23.3 kmh 30.26 in1024.7 mb 0.24 in6.1 mm 0.00 in0.0 mm 0.30 in7.6 mm
09:01 AM 53.4°F11.9°C 52.0°F11.1°C 95% 8.3 mph NNE13.4 kmh NNE 14.5 mph23.3 kmh 30.26 in1024.7 mb 0.24 in6.1 mm 0.00 in0.0 mm 0.30 in7.6 mm
09:02 AM 53.2°F11.8°C 51.8°F11.0°C 95% 11.4 mph NNE18.3 kmh NNE 14.5 mph23.3 kmh 30.26 in1024.7 mb 0.24 in6.1 mm 0.00 in0.0 mm 0.30 in7.6 mm
09:03 AM 53.2°F11.8°C 51.8°F11.0°C 95% 7.3 mph NNE11.7 kmh NNE 14.5 mph23.3 kmh 30.26 in1024.7 mb 0.24 in6.1 mm 0.00 in0.0 mm 0.30 in7.6 mm
09:04 AM 53.2°F11.8°C 51.8°F11.0°C 95% 8.9 mph NE14.3 kmh NE 14.5 mph23.3 kmh 30.26 in1024.7 mb 0.24 in6.1 mm 0.00 in0.0 mm 0.30 in7.6 mm
09:05 AM 53.2°F11.8°C 51.8°F11.0°C 95% 9.4 mph NNE15.1 kmh NNE 14.5 mph23.3 kmh 30.26 in1024.7 mb 0.23 in5.8 mm 0.00 in0.0 mm 0.30 in7.6 mm
09:06 AM 53.1°F11.7°C 51.7°F10.9°C 95% 7.3 mph ENE11.7 kmh ENE 14.5 mph23.3 kmh 30.27 in1025.1 mb 0.23 in5.8 mm 0.00 in0.0 mm 0.30 in7.6 mm
09:07 AM 53.1°F11.7°C 51.7°F10.9°C 95% 6.3 mph NNE10.1 kmh NNE 11.4 mph18.3 kmh 30.27 in1025.1 mb 0.23 in5.8 mm 0.00 in0.0 mm 0.30 in7.6 mm
09:08 AM 53.1°F11.7°C 51.7°F10.9°C 95% 5.8 mph NW9.3 kmh NW 11.4 mph18.3 kmh 30.27 in1025.1 mb 0.23 in5.8 mm 0.00 in0.0 mm 0.30 in7.6 mm
09:09 AM 52.9°F11.6°C 51.2°F10.7°C 94% 13.0 mph NE20.9 kmh NE 13.0 mph20.9 kmh 30.27 in1025.1 mb 0.23 in5.8 mm 0.00 in0.0 mm 0.30 in7.6 mm
09:10 AM 52.7°F11.5°C 51.0°F10.6°C 94% 10.4 mph NNE16.7 kmh NNE 13.0 mph20.9 kmh 30.27 in1025.1 mb 0.23 in5.8 mm 0.00 in0.0 mm 0.30 in7.6 mm
09:11 AM 52.7°F11.5°C 51.0°F10.6°C 94% 6.3 mph E10.1 kmh E 13.0 mph20.9 kmh 30.27 in1025.1 mb 0.23 in5.8 mm 0.00 in0.0 mm 0.30 in7.6 mm
09:12 AM 52.5°F11.4°C 50.8°F10.4°C 94% 10.9 mph N17.5 kmh N 13.0 mph20.9 kmh 30.27 in1025.1 mb 0.22 in5.6 mm 0.00 in0.0 mm 0.30 in7.6 mm
09:13 AM 52.3°F11.3°C 50.3°F10.2°C 93% 6.8 mph N10.9 kmh N 13.0 mph20.9 kmh 30.27 in1025.1 mb 0.22 in5.6 mm 0.00 in0.0 mm 0.30 in7.6 mm
09:14 AM 52.3°F11.3°C 50.3°F10.2°C 93% 11.9 mph E19.2 kmh E 13.0 mph20.9 kmh 30.27 in1025.1 mb 0.22 in5.6 mm 0.00 in0.0 mm 0.30 in7.6 mm
09:15 AM 52.2°F11.2°C 50.2°F10.1°C 93% 9.4 mph NE15.1 kmh NE 15.0 mph24.1 kmh 30.27 in1025.1 mb 0.22 in5.6 mm 0.00 in0.0 mm 0.30 in7.6 mm
09:16 AM 52.0°F11.1°C 50.0°F10.0°C 93% 9.4 mph NNE15.1 kmh NNE 15.0 mph24.1 kmh 30.27 in1025.1 mb 0.22 in5.6 mm 0.00 in0.0 mm 0.30 in7.6 mm
09:17 AM 52.0°F11.1°C 50.0°F10.0°C 93% 15.5 mph NNE24.9 kmh NNE 15.5 mph24.9 kmh 30.27 in1025.1 mb 0.22 in5.6 mm 0.00 in0.0 mm 0.30 in7.6 mm
09:18 AM 51.8°F11.0°C 49.8°F9.9°C 93% 7.8 mph NNE12.6 kmh NNE 15.5 mph24.9 kmh 30.28 in1025.4 mb 0.22 in5.6 mm 0.00 in0.0 mm 0.30 in7.6 mm
09:19 AM 51.8°F11.0°C 49.8°F9.9°C 93% 8.3 mph NNE13.4 kmh NNE 15.5 mph24.9 kmh 30.28 in1025.4 mb 0.22 in5.6 mm 0.00 in0.0 mm 0.30 in7.6 mm
09:20 AM 51.8°F11.0°C 49.8°F9.9°C 93% 7.8 mph SSE12.6 kmh SSE 15.5 mph24.9 kmh 30.28 in1025.4 mb 0.22 in5.6 mm 0.00 in0.0 mm 0.30 in7.6 mm
09:21 AM 51.8°F11.0°C 49.8°F9.9°C 93% 11.4 mph NE18.3 kmh NE 15.5 mph24.9 kmh 30.28 in1025.4 mb 0.22 in5.6 mm 0.00 in0.0 mm 0.30 in7.6 mm
09:22 AM 51.6°F10.9°C 49.6°F9.8°C 93% 13.0 mph NE20.9 kmh NE 15.5 mph24.9 kmh 30.28 in1025.4 mb 0.21 in5.3 mm 0.00 in0.0 mm 0.30 in7.6 mm
09:23 AM 51.4°F10.8°C 49.2°F9.6°C 92% 7.3 mph NNE11.7 kmh NNE 15.5 mph24.9 kmh 30.28 in1025.4 mb 0.21 in5.3 mm 0.00 in0.0 mm 0.30 in7.6 mm
09:24 AM 51.4°F10.8°C 49.2°F9.6°C 92% 10.9 mph NNE17.5 kmh NNE 15.5 mph24.9 kmh 30.28 in1025.4 mb 0.21 in5.3 mm 0.00 in0.0 mm 0.30 in7.6 mm
09:25 AM 51.3°F10.7°C 49.1°F9.5°C 92% 6.8 mph E10.9 kmh E 15.5 mph24.9 kmh 30.28 in1025.4 mb 0.19 in4.8 mm 0.00 in0.0 mm 0.30 in7.6 mm
09:26 AM 51.3°F10.7°C 49.1°F9.5°C 92% 13.5 mph NNE21.7 kmh NNE 15.5 mph24.9 kmh 30.28 in1025.4 mb 0.18 in4.6 mm 0.00 in0.0 mm 0.30 in7.6 mm
09:32 AM 51.3°F10.7°C 49.1°F9.5°C 92% 11.4 mph NW18.3 kmh NW 14.0 mph22.5 kmh 30.29 in1025.7 mb 0.14 in3.6 mm 0.00 in0.0 mm 0.31 in7.9 mm
09:33 AM 50.2°F10.1°C 47.4°F8.6°C 90% 9.9 mph NNE15.9 kmh NNE 14.0 mph22.5 kmh 30.29 in1025.7 mb 0.13 in3.3 mm 0.00 in0.0 mm 0.31 in7.9 mm
09:34 AM 50.0°F10.0°C 47.2°F8.4°C 90% 11.4 mph NE18.3 kmh NE 14.0 mph22.5 kmh 30.29 in1025.7 mb 0.13 in3.3 mm 0.00 in0.0 mm 0.31 in7.9 mm
09:35 AM 49.8°F9.9°C 47.0°F8.3°C 90% 13.5 mph NE21.7 kmh NE 14.0 mph22.5 kmh 30.29 in1025.7 mb 0.12 in3.0 mm 0.00 in0.0 mm 0.31 in7.9 mm
09:36 AM 49.6°F9.8°C 46.8°F8.2°C 90% 10.4 mph NNE16.7 kmh NNE 13.5 mph21.7 kmh 30.29 in1025.7 mb 0.11 in2.8 mm 0.00 in0.0 mm 0.31 in7.9 mm
09:37 AM 49.5°F9.7°C 46.7°F8.2°C 90% 16.1 mph NW25.9 kmh NW 16.1 mph25.9 kmh 30.29 in1025.7 mb 0.10 in2.5 mm 0.00 in0.0 mm 0.31 in7.9 mm
09:38 AM 49.3°F9.6°C 46.2°F7.9°C 89% 10.9 mph NNE17.5 kmh NNE 16.1 mph25.9 kmh 30.29 in1025.7 mb 0.08 in2.0 mm 0.00 in0.0 mm 0.31 in7.9 mm
09:39 AM 49.3°F9.6°C 46.2°F7.9°C 89% 13.0 mph E20.9 kmh E 16.1 mph25.9 kmh 30.29 in1025.7 mb 0.07 in1.8 mm 0.00 in0.0 mm 0.31 in7.9 mm
09:40 AM 49.1°F9.5°C 46.0°F7.8°C 89% 18.1 mph E29.1 kmh E 18.1 mph29.1 kmh 30.29 in1025.7 mb 0.06 in1.5 mm 0.00 in0.0 mm 0.31 in7.9 mm
09:41 AM 49.1°F9.5°C 46.0°F7.8°C 89% 9.4 mph NNE15.1 kmh NNE 18.1 mph29.1 kmh 30.31 in1026.4 mb 0.05 in1.3 mm 0.00 in0.0 mm 0.31 in7.9 mm
09:42 AM 48.9°F9.4°C 45.8°F7.7°C 89% 13.0 mph NNE20.9 kmh NNE 18.1 mph29.1 kmh 30.31 in1026.4 mb 0.05 in1.3 mm 0.00 in0.0 mm 0.31 in7.9 mm
09:43 AM 48.9°F9.4°C 46.1°F7.8°C 90% 10.4 mph NNW16.7 kmh NNW 18.1 mph29.1 kmh 30.31 in1026.4 mb 0.05 in1.3 mm 0.00 in0.0 mm 0.31 in7.9 mm
09:44 AM 48.9°F9.4°C 46.1°F7.8°C 90% 6.3 mph N10.1 kmh N 18.1 mph29.1 kmh 30.31 in1026.4 mb 0.04 in1.0 mm 0.00 in0.0 mm 0.31 in7.9 mm
09:45 AM 48.9°F9.4°C 46.1°F7.8°C 90% 9.9 mph N15.9 kmh N 18.1 mph29.1 kmh 30.31 in1026.4 mb 0.04 in1.0 mm 0.00 in0.0 mm 0.31 in7.9 mm
09:46 AM 48.7°F9.3°C 45.9°F7.7°C 90% 10.4 mph NE16.7 kmh NE 18.1 mph29.1 kmh 30.31 in1026.4 mb 0.04 in1.0 mm 0.00 in0.0 mm 0.31 in7.9 mm
09:47 AM 48.7°F9.3°C 45.9°F7.7°C 90% 9.4 mph NE15.1 kmh NE 18.1 mph29.1 kmh 30.31 in1026.4 mb 0.04 in1.0 mm 0.00 in0.0 mm 0.31 in7.9 mm
09:48 AM 48.7°F9.3°C 45.9°F7.7°C 90% 8.3 mph NNW13.4 kmh NNW 18.1 mph29.1 kmh 30.31 in1026.4 mb 0.04 in1.0 mm 0.00 in0.0 mm 0.31 in7.9 mm
09:49 AM 48.7°F9.3°C 45.9°F7.7°C 90% 8.9 mph NNW14.3 kmh NNW 18.1 mph29.1 kmh 30.31 in1026.4 mb 0.04 in1.0 mm 0.00 in0.0 mm 0.31 in7.9 mm
09:50 AM 48.7°F9.3°C 45.9°F7.7°C 90% 9.4 mph NNE15.1 kmh NNE 18.1 mph29.1 kmh 30.31 in1026.4 mb 0.03 in0.8 mm 0.00 in0.0 mm 0.31 in7.9 mm
09:51 AM 48.6°F9.2°C 45.8°F7.7°C 90% 4.7 mph ESE7.6 kmh ESE 13.5 mph21.7 kmh 30.31 in1026.4 mb 0.03 in0.8 mm 0.00 in0.0 mm 0.31 in7.9 mm
09:52 AM 48.6°F9.2°C 45.8°F7.7°C 90% 3.7 mph ENE6.0 kmh ENE 13.0 mph20.9 kmh 30.31 in1026.4 mb 0.03 in0.8 mm 0.00 in0.0 mm 0.31 in7.9 mm
09:53 AM 48.6°F9.2°C 45.8°F7.7°C 90% 2.2 mph ESE3.5 kmh ESE 10.9 mph17.5 kmh 30.32 in1026.8 mb 0.03 in0.8 mm 0.00 in0.0 mm 0.31 in7.9 mm
09:54 AM 48.6°F9.2°C 45.8°F7.7°C 90% 6.8 mph N10.9 kmh N 10.9 mph17.5 kmh 30.32 in1026.8 mb 0.03 in0.8 mm 0.00 in0.0 mm 0.31 in7.9 mm
09:55 AM 48.4°F9.1°C 45.6°F7.6°C 90% 10.4 mph NNE16.7 kmh NNE 10.9 mph17.5 kmh 30.32 in1026.8 mb 0.03 in0.8 mm 0.00 in0.0 mm 0.31 in7.9 mm
09:56 AM 48.4°F9.1°C 45.6°F7.6°C 90% 7.3 mph ENE11.7 kmh ENE 10.9 mph17.5 kmh 30.32 in1026.8 mb 0.02 in0.5 mm 0.00 in0.0 mm 0.31 in7.9 mm
09:57 AM 48.2°F9.0°C 45.4°F7.4°C 90% 11.4 mph NNE18.3 kmh NNE 11.4 mph18.3 kmh 30.32 in1026.8 mb 0.01 in0.3 mm 0.00 in0.0 mm 0.31 in7.9 mm
09:58 AM 48.2°F9.0°C 45.4°F7.4°C 90% 6.8 mph NNE10.9 kmh NNE 11.4 mph18.3 kmh 30.32 in1026.8 mb 0.01 in0.3 mm 0.00 in0.0 mm 0.31 in7.9 mm
09:59 AM 48.2°F9.0°C 45.4°F7.4°C 90% 7.8 mph NW12.6 kmh NW 11.4 mph18.3 kmh 30.32 in1026.8 mb 0.01 in0.3 mm 0.00 in0.0 mm 0.31 in7.9 mm
10:00 AM 48.0°F8.9°C 45.2°F7.3°C 90% 14.0 mph NNW22.5 kmh NNW 14.0 mph22.5 kmh 30.32 in1026.8 mb 0.01 in0.3 mm 0.00 in0.0 mm 0.31 in7.9 mm
10:01 AM 48.0°F8.9°C 45.2°F7.3°C 90% 10.9 mph NNW17.5 kmh NNW 14.0 mph22.5 kmh 30.32 in1026.8 mb 0.01 in0.3 mm 0.00 in0.0 mm 0.31 in7.9 mm
10:02 AM 48.0°F8.9°C 45.2°F7.3°C 90% 11.9 mph NE19.2 kmh NE 15.0 mph24.1 kmh 30.32 in1026.8 mb 0.01 in0.3 mm 0.00 in0.0 mm 0.31 in7.9 mm
10:03 AM 47.8°F8.8°C 45.0°F7.2°C 90% 9.9 mph NNE15.9 kmh NNE 15.0 mph24.1 kmh 30.32 in1026.8 mb 0.01 in0.3 mm 0.00 in0.0 mm 0.31 in7.9 mm
10:04 AM 47.7°F8.7°C 44.9°F7.2°C 90% 8.9 mph ESE14.3 kmh ESE 15.5 mph24.9 kmh 30.32 in1026.8 mb 0.01 in0.3 mm 0.00 in0.0 mm 0.31 in7.9 mm
10:05 AM 47.7°F8.7°C 44.9°F7.2°C 90% 8.9 mph NE14.3 kmh NE 15.5 mph24.9 kmh 30.32 in1026.8 mb 0.01 in0.3 mm 0.00 in0.0 mm 0.31 in7.9 mm
10:06 AM 47.7°F8.7°C 44.9°F7.2°C 90% 6.8 mph E10.9 kmh E 15.5 mph24.9 kmh 30.32 in1026.8 mb 0.01 in0.3 mm 0.00 in0.0 mm 0.31 in7.9 mm
10:07 AM 47.7°F8.7°C 44.9°F7.2°C 90% 6.3 mph ESE10.1 kmh ESE 15.5 mph24.9 kmh 30.32 in1026.8 mb 0.01 in0.3 mm 0.00 in0.0 mm 0.31 in7.9 mm
10:08 AM 47.7°F8.7°C 44.9°F7.2°C 90% 6.3 mph ESE10.1 kmh ESE 15.5 mph24.9 kmh 30.32 in1026.8 mb 0.01 in0.3 mm 0.00 in0.0 mm 0.31 in7.9 mm
10:09 AM 47.7°F8.7°C 44.9°F7.2°C 90% 11.9 mph NE19.2 kmh NE 15.5 mph24.9 kmh 30.32 in1026.8 mb 0.01 in0.3 mm 0.00 in0.0 mm 0.31 in7.9 mm
10:10 AM 47.5°F8.6°C 44.7°F7.1°C 90% 13.0 mph NNW20.9 kmh NNW 15.5 mph24.9 kmh 30.32 in1026.8 mb 0.01 in0.3 mm 0.00 in0.0 mm 0.31 in7.9 mm
10:11 AM 47.5°F8.6°C 44.7°F7.1°C 90% 7.3 mph ENE11.7 kmh ENE 15.5 mph24.9 kmh 30.32 in1026.8 mb 0.01 in0.3 mm 0.00 in0.0 mm 0.31 in7.9 mm
10:12 AM 47.5°F8.6°C 44.7°F7.1°C 90% 8.3 mph NNE13.4 kmh NNE 15.5 mph24.9 kmh 30.32 in1026.8 mb 0.01 in0.3 mm 0.00 in0.0 mm 0.31 in7.9 mm
10:13 AM 47.5°F8.6°C 45.0°F7.2°C 91% 9.4 mph NE15.1 kmh NE 15.5 mph24.9 kmh 30.32 in1026.8 mb 0.01 in0.3 mm 0.00 in0.0 mm 0.31 in7.9 mm
10:14 AM 47.3°F8.5°C 44.8°F7.1°C 91% 4.2 mph NNE6.8 kmh NNE 13.0 mph20.9 kmh 30.32 in1026.8 mb 0.01 in0.3 mm 0.00 in0.0 mm 0.31 in7.9 mm
10:15 AM 47.3°F8.5°C 44.8°F7.1°C 91% 7.3 mph N11.7 kmh N 13.0 mph20.9 kmh 30.32 in1026.8 mb 0.01 in0.3 mm 0.00 in0.0 mm 0.31 in7.9 mm
10:16 AM 47.3°F8.5°C 44.8°F7.1°C 91% 6.8 mph NNE10.9 kmh NNE 13.0 mph20.9 kmh 30.32 in1026.8 mb 0.01 in0.3 mm 0.00 in0.0 mm 0.31 in7.9 mm
10:17 AM 47.3°F8.5°C 44.8°F7.1°C 91% 11.4 mph NNE18.3 kmh NNE 13.0 mph20.9 kmh 30.34 in1027.4 mb 0.01 in0.3 mm 0.00 in0.0 mm 0.31 in7.9 mm
10:18 AM 47.1°F8.4°C 44.3°F6.8°C 90% 7.8 mph N12.6 kmh N 13.0 mph20.9 kmh 30.34 in1027.4 mb 0.01 in0.3 mm 0.00 in0.0 mm 0.31 in7.9 mm
10:19 AM 47.1°F8.4°C 44.3°F6.8°C 90% 7.8 mph N12.6 kmh N 13.0 mph20.9 kmh 30.34 in1027.4 mb 0.01 in0.3 mm 0.00 in0.0 mm 0.31 in7.9 mm
10:24 AM 47.1°F8.4°C 44.3°F6.8°C 90% 11.9 mph NNE19.2 kmh NNE 11.9 mph19.2 kmh 30.34 in1027.4 mb 0.01 in0.3 mm 0.00 in0.0 mm 0.31 in7.9 mm
10:25 AM 46.8°F8.2°C 44.0°F6.7°C 90% 13.5 mph NNE21.7 kmh NNE 13.5 mph21.7 kmh 30.34 in1027.4 mb 0.01 in0.3 mm 0.00 in0.0 mm 0.31 in7.9 mm
10:26 AM 46.8°F8.2°C 44.0°F6.7°C 90% 8.9 mph N14.3 kmh N 13.5 mph21.7 kmh 30.34 in1027.4 mb 0.01 in0.3 mm 0.00 in0.0 mm 0.31 in7.9 mm
10:27 AM 46.8°F8.2°C 44.0°F6.7°C 90% 7.3 mph SSE11.7 kmh SSE 13.5 mph21.7 kmh 30.34 in1027.4 mb 0.01 in0.3 mm 0.00 in0.0 mm 0.31 in7.9 mm
10:28 AM 46.6°F8.1°C 43.8°F6.6°C 90% 4.7 mph E7.6 kmh E 13.5 mph21.7 kmh 30.34 in1027.4 mb 0.01 in0.3 mm 0.00 in0.0 mm 0.31 in7.9 mm
10:29 AM 46.6°F8.1°C 43.8°F6.6°C 90% 10.9 mph E17.5 kmh E 13.5 mph21.7 kmh 30.34 in1027.4 mb 0.01 in0.3 mm 0.00 in0.0 mm 0.31 in7.9 mm
10:30 AM 46.6°F8.1°C 43.8°F6.6°C 90% 11.4 mph N18.3 kmh N 14.0 mph22.5 kmh 30.34 in1027.4 mb 0.01 in0.3 mm 0.00 in0.0 mm 0.31 in7.9 mm
10:31 AM 46.6°F8.1°C 43.8°F6.6°C 90% 10.4 mph NNE16.7 kmh NNE 14.0 mph22.5 kmh 30.34 in1027.4 mb 0.01 in0.3 mm 0.00 in0.0 mm 0.31 in7.9 mm
10:32 AM 46.4°F8.0°C 43.9°F6.6°C 91% 7.8 mph NE12.6 kmh NE 14.0 mph22.5 kmh 30.34 in1027.4 mb 0.01 in0.3 mm 0.00 in0.0 mm 0.31 in7.9 mm
10:33 AM 46.2°F7.9°C 43.7°F6.5°C 91% 9.4 mph NNE15.1 kmh NNE 14.0 mph22.5 kmh 30.34 in1027.4 mb 0.00 in0.0 mm 0.00 in0.0 mm 0.31 in7.9 mm
10:34 AM 46.2°F7.9°C 43.7°F6.5°C 91% 7.8 mph N12.6 kmh N 14.0 mph22.5 kmh 30.34 in1027.4 mb 0.00 in0.0 mm 0.00 in0.0 mm 0.31 in7.9 mm
10:35 AM 46.2°F7.9°C 43.7°F6.5°C 91% 8.3 mph NNE13.4 kmh NNE 14.0 mph22.5 kmh 30.34 in1027.4 mb 0.00 in0.0 mm 0.00 in0.0 mm 0.31 in7.9 mm
10:36 AM 46.0°F7.8°C 43.5°F6.4°C 91% 12.5 mph NNE20.1 kmh NNE 14.0 mph22.5 kmh 30.34 in1027.4 mb 0.00 in0.0 mm 0.00 in0.0 mm 0.31 in7.9 mm
10:37 AM 46.0°F7.8°C 43.8°F6.6°C 92% 9.4 mph NNE15.1 kmh NNE 14.0 mph22.5 kmh 30.34 in1027.4 mb 0.00 in0.0 mm 0.00 in0.0 mm 0.31 in7.9 mm
10:38 AM 46.0°F7.8°C 43.8°F6.6°C 92% 6.8 mph NNE10.9 kmh NNE 14.0 mph22.5 kmh 30.34 in1027.4 mb 0.00 in0.0 mm 0.00 in0.0 mm 0.31 in7.9 mm
10:39 AM 45.9°F7.7°C 43.7°F6.5°C 92% 10.9 mph NNE17.5 kmh NNE 14.0 mph22.5 kmh 30.34 in1027.4 mb 0.00 in0.0 mm 0.00 in0.0 mm 0.31 in7.9 mm
10:40 AM 45.9°F7.7°C 43.7°F6.5°C 92% 9.4 mph SE15.1 kmh SE 13.0 mph20.9 kmh 30.34 in1027.4 mb 0.00 in0.0 mm 0.00 in0.0 mm 0.31 in7.9 mm
10:41 AM 45.7°F7.6°C 43.5°F6.4°C 92% 13.5 mph NNE21.7 kmh NNE 13.5 mph21.7 kmh 30.36 in1028.1 mb 0.00 in0.0 mm 0.00 in0.0 mm 0.31 in7.9 mm
10:42 AM 45.7°F7.6°C 43.5°F6.4°C 92% 6.3 mph NW10.1 kmh NW 13.5 mph21.7 kmh 30.36 in1028.1 mb 0.00 in0.0 mm 0.00 in0.0 mm 0.31 in7.9 mm
10:43 AM 45.7°F7.6°C 43.5°F6.4°C 92% 8.9 mph NE14.3 kmh NE 13.5 mph21.7 kmh 30.36 in1028.1 mb 0.00 in0.0 mm 0.00 in0.0 mm 0.31 in7.9 mm
10:44 AM 45.5°F7.5°C 43.3°F6.3°C 92% 12.5 mph NNE20.1 kmh NNE 13.5 mph21.7 kmh 30.36 in1028.1 mb 0.00 in0.0 mm 0.00 in0.0 mm 0.31 in7.9 mm
10:45 AM 45.5°F7.5°C 43.3°F6.3°C 92% 9.4 mph NE15.1 kmh NE 13.5 mph21.7 kmh 30.36 in1028.1 mb 0.00 in0.0 mm 0.00 in0.0 mm 0.31 in7.9 mm
10:46 AM 45.3°F7.4°C 42.8°F6.0°C 91% 10.4 mph ESE16.7 kmh ESE 13.5 mph21.7 kmh 30.36 in1028.1 mb 0.00 in0.0 mm 0.00 in0.0 mm 0.31 in7.9 mm
10:47 AM 45.3°F7.4°C 42.8°F6.0°C 91% 9.9 mph NNE15.9 kmh NNE 13.5 mph21.7 kmh 30.36 in1028.1 mb 0.00 in0.0 mm 0.00 in0.0 mm 0.31 in7.9 mm
10:48 AM 45.3°F7.4°C 42.8°F6.0°C 91% 7.8 mph ESE12.6 kmh ESE 13.5 mph21.7 kmh 30.36 in1028.1 mb 0.00 in0.0 mm 0.00 in0.0 mm 0.31 in7.9 mm
10:49 AM 45.3°F7.4°C 42.8°F6.0°C 91% 9.4 mph NE15.1 kmh NE 13.5 mph21.7 kmh 30.36 in1028.1 mb 0.00 in0.0 mm 0.00 in0.0 mm 0.31 in7.9 mm
10:50 AM 45.3°F7.4°C 42.8°F6.0°C 91% 15.5 mph NNE24.9 kmh NNE 15.5 mph24.9 kmh 30.36 in1028.1 mb 0.00 in0.0 mm 0.00 in0.0 mm 0.31 in7.9 mm
10:51 AM 45.0°F7.2°C 42.2°F5.7°C 90% 9.9 mph NNE15.9 kmh NNE 15.5 mph24.9 kmh 30.36 in1028.1 mb 0.00 in0.0 mm 0.00 in0.0 mm 0.31 in7.9 mm
10:52 AM 45.0°F7.2°C 42.2°F5.7°C 90% 11.4 mph NNE18.3 kmh NNE 17.1 mph27.5 kmh 30.36 in1028.1 mb 0.00 in0.0 mm 0.00 in0.0 mm 0.31 in7.9 mm
10:53 AM 45.0°F7.2°C 42.2°F5.7°C 90% 11.9 mph NNE19.2 kmh NNE 17.1 mph27.5 kmh 30.38 in1028.8 mb 0.00 in0.0 mm 0.00 in0.0 mm 0.31 in7.9 mm
10:59 AM 44.2°F6.8°C 41.5°F5.3°C 90% 15.5 mph NNE24.9 kmh NNE 17.1 mph27.5 kmh 30.38 in1028.8 mb 0.00 in0.0 mm 0.00 in0.0 mm 0.31 in7.9 mm
11:00 AM 44.2°F6.8°C 41.5°F5.3°C 90% 17.1 mph E27.5 kmh E 17.1 mph27.5 kmh 30.38 in1028.8 mb 0.02 in0.5 mm 0.02 in0.5 mm 0.33 in8.4 mm
11:01 AM 44.2°F6.8°C 41.5°F5.3°C 90% 13.0 mph NE20.9 kmh NE 17.1 mph27.5 kmh 30.38 in1028.8 mb 0.03 in0.8 mm 0.60 in15.2 mm 0.34 in8.6 mm
11:02 AM 44.1°F6.7°C 41.4°F5.2°C 90% 11.9 mph E19.2 kmh E 17.1 mph27.5 kmh 30.38 in1028.8 mb 0.03 in0.8 mm 0.00 in0.0 mm 0.34 in8.6 mm
11:03 AM 44.1°F6.7°C 41.4°F5.2°C 90% 9.9 mph N15.9 kmh N 17.1 mph27.5 kmh 30.38 in1028.8 mb 0.03 in0.8 mm 0.00 in0.0 mm 0.34 in8.6 mm
11:04 AM 44.1°F6.7°C 41.4°F5.2°C 90% 9.9 mph N15.9 kmh N 17.1 mph27.5 kmh 30.38 in1028.8 mb 0.03 in0.8 mm 0.00 in0.0 mm 0.34 in8.6 mm
11:05 AM 44.1°F6.7°C 41.4°F5.2°C 90% 9.4 mph NNE15.1 kmh NNE 17.1 mph27.5 kmh 30.38 in1028.8 mb 0.03 in0.8 mm 0.00 in0.0 mm 0.34 in8.6 mm
11:06 AM 44.1°F6.7°C 41.4°F5.2°C 90% 13.0 mph NNE20.9 kmh NNE 17.1 mph27.5 kmh 30.37 in1028.4 mb 0.03 in0.8 mm 0.00 in0.0 mm 0.34 in8.6 mm
11:07 AM 44.1°F6.7°C 41.4°F5.2°C 90% 9.4 mph SSE15.1 kmh SSE 17.1 mph27.5 kmh 30.37 in1028.4 mb 0.03 in0.8 mm 0.00 in0.0 mm 0.34 in8.6 mm
11:08 AM 44.1°F6.7°C 41.4°F5.2°C 90% 8.3 mph NE13.4 kmh NE 17.1 mph27.5 kmh 30.37 in1028.4 mb 0.03 in0.8 mm 0.00 in0.0 mm 0.34 in8.6 mm
11:09 AM 44.1°F6.7°C 41.4°F5.2°C 90% 6.8 mph NE10.9 kmh NE 17.1 mph27.5 kmh 30.37 in1028.4 mb 0.03 in0.8 mm 0.00 in0.0 mm 0.34 in8.6 mm
11:10 AM 44.1°F6.7°C 41.4°F5.2°C 90% 10.4 mph ENE16.7 kmh ENE 15.5 mph24.9 kmh 30.37 in1028.4 mb 0.04 in1.0 mm 0.60 in15.2 mm 0.35 in8.9 mm
11:11 AM 44.1°F6.7°C 41.4°F5.2°C 90% 6.8 mph ESE10.9 kmh ESE 15.5 mph24.9 kmh 30.37 in1028.4 mb 0.04 in1.0 mm 0.00 in0.0 mm 0.35 in8.9 mm
11:12 AM 43.9°F6.6°C 41.2°F5.1°C 90% 9.4 mph NNE15.1 kmh NNE 15.5 mph24.9 kmh 30.37 in1028.4 mb 0.04 in1.0 mm 0.00 in0.0 mm 0.35 in8.9 mm
11:13 AM 43.9°F6.6°C 41.2°F5.1°C 90% 6.3 mph E10.1 kmh E 17.1 mph27.5 kmh 30.37 in1028.4 mb 0.04 in1.0 mm 0.00 in0.0 mm 0.35 in8.9 mm
11:14 AM 43.9°F6.6°C 41.2°F5.1°C 90% 12.5 mph NNE20.1 kmh NNE 17.1 mph27.5 kmh 30.37 in1028.4 mb 0.04 in1.0 mm 0.00 in0.0 mm 0.35 in8.9 mm
11:15 AM 43.9°F6.6°C 41.4°F5.2°C 91% 7.3 mph E11.7 kmh E 17.1 mph27.5 kmh 30.37 in1028.4 mb 0.04 in1.0 mm 0.00 in0.0 mm 0.35 in8.9 mm
11:16 AM 43.9°F6.6°C 41.4°F5.2°C 91% 13.0 mph NE20.9 kmh NE 17.1 mph27.5 kmh 30.37 in1028.4 mb 0.04 in1.0 mm 0.00 in0.0 mm 0.35 in8.9 mm
11:17 AM 43.9°F6.6°C 41.4°F5.2°C 91% 9.4 mph ENE15.1 kmh ENE 17.1 mph27.5 kmh 30.37 in1028.4 mb 0.04 in1.0 mm 0.00 in0.0 mm 0.35 in8.9 mm
11:18 AM 43.7°F6.5°C 41.2°F5.1°C 91% 9.9 mph NNE15.9 kmh NNE 17.1 mph27.5 kmh 30.39 in1029.1 mb 0.04 in1.0 mm 0.00 in0.0 mm 0.35 in8.9 mm
11:19 AM 43.7°F6.5°C 41.2°F5.1°C 91% 11.9 mph NNE19.2 kmh NNE 17.1 mph27.5 kmh 30.39 in1029.1 mb 0.04 in1.0 mm 0.00 in0.0 mm 0.35 in8.9 mm
11:20 AM 43.7°F6.5°C 41.2°F5.1°C 91% 6.8 mph NNE10.9 kmh NNE 17.1 mph27.5 kmh 30.39 in1029.1 mb 0.04 in1.0 mm 0.00 in0.0 mm 0.35 in8.9 mm
11:21 AM 43.7°F6.5°C 41.2°F5.1°C 91% 9.4 mph SE15.1 kmh SE 17.1 mph27.5 kmh 30.39 in1029.1 mb 0.04 in1.0 mm 0.00 in0.0 mm 0.35 in8.9 mm
11:22 AM 43.7°F6.5°C 41.2°F5.1°C 91% 7.3 mph E11.7 kmh E 17.1 mph27.5 kmh 30.39 in1029.1 mb 0.04 in1.0 mm 0.00 in0.0 mm 0.35 in8.9 mm
11:23 AM 43.7°F6.5°C 41.2°F5.1°C 91% 13.5 mph E21.7 kmh E 13.5 mph21.7 kmh 30.39 in1029.1 mb 0.04 in1.0 mm 0.00 in0.0 mm 0.35 in8.9 mm
11:24 AM 43.5°F6.4°C 40.8°F4.9°C 90% 8.9 mph ESE14.3 kmh ESE 14.0 mph22.5 kmh 30.39 in1029.1 mb 0.04 in1.0 mm 0.00 in0.0 mm 0.35 in8.9 mm
11:25 AM 43.5°F6.4°C 40.8°F4.9°C 90% 11.4 mph ESE18.3 kmh ESE 15.5 mph24.9 kmh 30.39 in1029.1 mb 0.04 in1.0 mm 0.00 in0.0 mm 0.35 in8.9 mm
11:26 AM 43.5°F6.4°C 40.8°F4.9°C 90% 8.3 mph NNE13.4 kmh NNE 15.5 mph24.9 kmh 30.39 in1029.1 mb 0.04 in1.0 mm 0.00 in0.0 mm 0.35 in8.9 mm
11:27 AM 43.5°F6.4°C 40.8°F4.9°C 90% 15.0 mph NW24.1 kmh NW 15.5 mph24.9 kmh 30.39 in1029.1 mb 0.04 in1.0 mm 0.00 in0.0 mm 0.35 in8.9 mm
11:28 AM 43.5°F6.4°C 40.8°F4.9°C 90% 6.3 mph N10.1 kmh N 15.5 mph24.9 kmh 30.39 in1029.1 mb 0.04 in1.0 mm 0.00 in0.0 mm 0.35 in8.9 mm
11:29 AM 43.5°F6.4°C 40.8°F4.9°C 90% 8.3 mph ESE13.4 kmh ESE 15.5 mph24.9 kmh 30.39 in1029.1 mb 0.04 in1.0 mm 0.00 in0.0 mm 0.35 in8.9 mm
11:30 AM 43.5°F6.4°C 40.8°F4.9°C 90% 12.5 mph ESE20.1 kmh ESE 15.5 mph24.9 kmh 30.39 in1029.1 mb 0.04 in1.0 mm 0.00 in0.0 mm 0.35 in8.9 mm
11:31 AM 43.5°F6.4°C 40.8°F4.9°C 90% 9.4 mph NNE15.1 kmh NNE 15.5 mph24.9 kmh 30.39 in1029.1 mb 0.04 in1.0 mm 0.00 in0.0 mm 0.35 in8.9 mm
11:32 AM 43.5°F6.4°C 40.8°F4.9°C 90% 7.8 mph WNW12.6 kmh WNW 15.5 mph24.9 kmh 30.39 in1029.1 mb 0.04 in1.0 mm 0.00 in0.0 mm 0.35 in8.9 mm
11:33 AM 43.5°F6.4°C 40.8°F4.9°C 90% 8.9 mph NNE14.3 kmh NNE 15.5 mph24.9 kmh 30.39 in1029.1 mb 0.04 in1.0 mm 0.00 in0.0 mm 0.35 in8.9 mm
11:34 AM 43.5°F6.4°C 40.5°F4.7°C 89% 9.9 mph NNE15.9 kmh NNE 15.5 mph24.9 kmh 30.39 in1029.1 mb 0.04 in1.0 mm 0.00 in0.0 mm 0.35 in8.9 mm
11:35 AM 43.3°F6.3°C 40.3°F4.6°C 89% 9.9 mph SE15.9 kmh SE 15.0 mph24.1 kmh 30.39 in1029.1 mb 0.04 in1.0 mm 0.00 in0.0 mm 0.35 in8.9 mm
11:36 AM 43.3°F6.3°C 40.3°F4.6°C 89% 8.3 mph NE13.4 kmh NE 15.0 mph24.1 kmh 30.39 in1029.1 mb 0.05 in1.3 mm 0.60 in15.2 mm 0.36 in9.1 mm
11:37 AM 43.3°F6.3°C 40.6°F4.8°C 90% 17.6 mph ESE28.3 kmh ESE 17.6 mph28.3 kmh 30.39 in1029.1 mb 0.05 in1.3 mm 0.00 in0.0 mm 0.36 in9.1 mm
11:38 AM 43.3°F6.3°C 40.6°F4.8°C 90% 10.4 mph SSE16.7 kmh SSE 17.6 mph28.3 kmh 30.39 in1029.1 mb 0.05 in1.3 mm 0.00 in0.0 mm 0.36 in9.1 mm
11:39 AM 43.2°F6.2°C 40.5°F4.7°C 90% 7.3 mph ESE11.7 kmh ESE 17.6 mph28.3 kmh 30.39 in1029.1 mb 0.05 in1.3 mm 0.00 in0.0 mm 0.36 in9.1 mm
11:40 AM 43.2°F6.2°C 40.5°F4.7°C 90% 11.9 mph NNE19.2 kmh NNE 17.6 mph28.3 kmh 30.39 in1029.1 mb 0.05 in1.3 mm 0.00 in0.0 mm 0.36 in9.1 mm
11:41 AM 43.0°F6.1°C 40.3°F4.6°C 90% 8.9 mph NNE14.3 kmh NNE 17.6 mph28.3 kmh 30.39 in1029.1 mb 0.05 in1.3 mm 0.00 in0.0 mm 0.36 in9.1 mm
11:42 AM 43.0°F6.1°C 40.3°F4.6°C 90% 14.0 mph ESE22.5 kmh ESE 17.6 mph28.3 kmh 30.39 in1029.1 mb 0.05 in1.3 mm 0.00 in0.0 mm 0.36 in9.1 mm
11:43 AM 43.0°F6.1°C 40.3°F4.6°C 90% 10.4 mph ENE16.7 kmh ENE 17.6 mph28.3 kmh 30.39 in1029.1 mb 0.05 in1.3 mm 0.00 in0.0 mm 0.36 in9.1 mm
11:44 AM 42.8°F6.0°C 40.1°F4.5°C 90% 14.0 mph ENE22.5 kmh ENE 17.6 mph28.3 kmh 30.39 in1029.1 mb 0.05 in1.3 mm 0.00 in0.0 mm 0.36 in9.1 mm
11:45 AM 42.8°F6.0°C 40.1°F4.5°C 90% 7.8 mph N12.6 kmh N 17.6 mph28.3 kmh 30.39 in1029.1 mb 0.05 in1.3 mm 0.00 in0.0 mm 0.36 in9.1 mm
11:46 AM 42.8°F6.0°C 40.1°F4.5°C 90% 8.3 mph NE13.4 kmh NE 17.6 mph28.3 kmh 30.39 in1029.1 mb 0.05 in1.3 mm 0.00 in0.0 mm 0.36 in9.1 mm
11:47 AM 42.8°F6.0°C 40.1°F4.5°C 90% 7.3 mph ESE11.7 kmh ESE 17.6 mph28.3 kmh 30.39 in1029.1 mb 0.05 in1.3 mm 0.00 in0.0 mm 0.36 in9.1 mm
11:48 AM 42.6°F5.9°C 39.9°F4.4°C 90% 5.8 mph WNW9.3 kmh WNW 15.5 mph24.9 kmh 30.39 in1029.1 mb 0.05 in1.3 mm 0.00 in0.0 mm 0.36 in9.1 mm
11:49 AM 42.6°F5.9°C 39.9°F4.4°C 90% 10.9 mph NNE17.5 kmh NNE 15.5 mph24.9 kmh 30.39 in1029.1 mb 0.05 in1.3 mm 0.00 in0.0 mm 0.36 in9.1 mm
11:50 AM 42.6°F5.9°C 39.9°F4.4°C 90% 3.7 mph SE6.0 kmh SE 15.0 mph24.1 kmh 30.39 in1029.1 mb 0.05 in1.3 mm 0.00 in0.0 mm 0.36 in9.1 mm
11:51 AM 42.6°F5.9°C 40.2°F4.6°C 91% 6.8 mph SSE10.9 kmh SSE 15.0 mph24.1 kmh 30.39 in1029.1 mb 0.05 in1.3 mm 0.00 in0.0 mm 0.36 in9.1 mm
11:52 AM 42.6°F5.9°C 40.2°F4.6°C 91% 3.7 mph NNE6.0 kmh NNE 15.0 mph24.1 kmh 30.39 in1029.1 mb 0.05 in1.3 mm 0.00 in0.0 mm 0.36 in9.1 mm
11:53 AM 42.6°F5.9°C 40.2°F4.6°C 91% 7.8 mph N12.6 kmh N 15.0 mph24.1 kmh 30.40 in1029.5 mb 0.05 in1.3 mm 0.00 in0.0 mm 0.36 in9.1 mm
11:54 AM 42.6°F5.9°C 40.2°F4.6°C 91% 5.8 mph N9.3 kmh N 13.0 mph20.9 kmh 30.40 in1029.5 mb 0.05 in1.3 mm 0.00 in0.0 mm 0.36 in9.1 mm
11:55 AM 42.6°F5.9°C 40.2°F4.6°C 91% 8.3 mph NNE13.4 kmh NNE 12.5 mph20.1 kmh 30.40 in1029.5 mb 0.05 in1.3 mm 0.00 in0.0 mm 0.36 in9.1 mm
11:56 AM 42.6°F5.9°C 40.2°F4.6°C 91% 9.4 mph NNW15.1 kmh NNW 12.5 mph20.1 kmh 30.40 in1029.5 mb 0.05 in1.3 mm 0.00 in0.0 mm 0.36 in9.1 mm
11:57 AM 42.6°F5.9°C 40.2°F4.6°C 91% 6.8 mph ESE10.9 kmh ESE 12.5 mph20.1 kmh 30.40 in1029.5 mb 0.05 in1.3 mm 0.00 in0.0 mm 0.36 in9.1 mm
11:58 AM 42.6°F5.9°C 40.2°F4.6°C 91% 7.8 mph E12.6 kmh E 12.5 mph20.1 kmh 30.40 in1029.5 mb 0.05 in1.3 mm 0.00 in0.0 mm 0.36 in9.1 mm
11:59 AM 42.6°F5.9°C 40.2°F4.6°C 91% 5.8 mph NE9.3 kmh NE 12.5 mph20.1 kmh 30.40 in1029.5 mb 0.05 in1.3 mm 0.00 in0.0 mm 0.36 in9.1 mm
12:00 PM 42.6°F5.9°C 40.2°F4.6°C 91% 6.8 mph NNE10.9 kmh NNE 10.4 mph16.7 kmh 30.40 in1029.5 mb 0.03 in0.8 mm 0.00 in0.0 mm 0.36 in9.1 mm
12:01 PM 42.6°F5.9°C 40.2°F4.6°C 91% 6.8 mph ESE10.9 kmh ESE 10.4 mph16.7 kmh 30.40 in1029.5 mb 0.02 in0.5 mm 0.00 in0.0 mm 0.36 in9.1 mm
12:02 PM 42.6°F5.9°C 40.2°F4.6°C 91% 8.3 mph ESE13.4 kmh ESE 10.4 mph16.7 kmh 30.40 in1029.5 mb 0.02 in0.5 mm 0.00 in0.0 mm 0.36 in9.1 mm
12:03 PM 42.6°F5.9°C 40.2°F4.6°C 91% 3.2 mph ESE5.1 kmh ESE 10.4 mph16.7 kmh 30.40 in1029.5 mb 0.02 in0.5 mm 0.00 in0.0 mm 0.36 in9.1 mm
12:04 PM 42.6°F5.9°C 40.2°F4.6°C 91% 5.8 mph NNE9.3 kmh NNE 10.4 mph16.7 kmh 30.40 in1029.5 mb 0.02 in0.5 mm 0.00 in0.0 mm 0.36 in9.1 mm
12:05 PM 42.6°F5.9°C 40.2°F4.6°C 91% 4.2 mph N6.8 kmh N 9.9 mph15.9 kmh 30.40 in1029.5 mb 0.02 in0.5 mm 0.00 in0.0 mm 0.36 in9.1 mm
12:06 PM 42.6°F5.9°C 40.2°F4.6°C 91% 7.8 mph NE12.6 kmh NE 8.3 mph13.4 kmh 30.40 in1029.5 mb 0.02 in0.5 mm 0.00 in0.0 mm 0.36 in9.1 mm
12:07 PM 42.6°F5.9°C 40.2°F4.6°C 91% 15.0 mph E24.1 kmh E 15.0 mph24.1 kmh 30.40 in1029.5 mb 0.02 in0.5 mm 0.00 in0.0 mm 0.36 in9.1 mm
12:08 PM 42.6°F5.9°C 40.2°F4.6°C 91% 6.8 mph ESE10.9 kmh ESE 15.0 mph24.1 kmh 30.40 in1029.5 mb 0.02 in0.5 mm 0.00 in0.0 mm 0.36 in9.1 mm
12:09 PM 42.6°F5.9°C 39.9°F4.4°C 90% 13.0 mph NNE20.9 kmh NNE 15.0 mph24.1 kmh 30.40 in1029.5 mb 0.02 in0.5 mm 0.00 in0.0 mm 0.36 in9.1 mm
12:10 PM 42.6°F5.9°C 39.9°F4.4°C 90% 11.9 mph NNE19.2 kmh NNE 15.0 mph24.1 kmh 30.40 in1029.5 mb 0.01 in0.3 mm 0.00 in0.0 mm 0.36 in9.1 mm
12:11 PM 42.6°F5.9°C 39.9°F4.4°C 90% 10.9 mph NNE17.5 kmh NNE 15.0 mph24.1 kmh 30.40 in1029.5 mb 0.01 in0.3 mm 0.00 in0.0 mm 0.36 in9.1 mm
12:12 PM 42.6°F5.9°C 39.9°F4.4°C 90% 5.3 mph E8.5 kmh E 15.0 mph24.1 kmh 30.40 in1029.5 mb 0.01 in0.3 mm 0.00 in0.0 mm 0.36 in9.1 mm
12:17 PM 42.6°F5.9°C 39.9°F4.4°C 90% 8.3 mph SE13.4 kmh SE 13.0 mph20.9 kmh 30.40 in1029.5 mb 0.01 in0.3 mm 0.00 in0.0 mm 0.36 in9.1 mm
12:18 PM 42.6°F5.9°C 39.9°F4.4°C 90% 3.2 mph SE5.1 kmh SE 13.0 mph20.9 kmh 30.40 in1029.5 mb 0.01 in0.3 mm 0.00 in0.0 mm 0.36 in9.1 mm
12:19 PM 42.6°F5.9°C 39.9°F4.4°C 90% 11.9 mph NNE19.2 kmh NNE 12.5 mph20.1 kmh 30.40 in1029.5 mb 0.01 in0.3 mm 0.00 in0.0 mm 0.36 in9.1 mm
12:20 PM 42.6°F5.9°C 39.9°F4.4°C 90% 11.4 mph N18.3 kmh N 12.5 mph20.1 kmh 30.40 in1029.5 mb 0.01 in0.3 mm 0.00 in0.0 mm 0.36 in9.1 mm
12:26 PM 42.6°F5.9°C 39.9°F4.4°C 90% 4.7 mph NE7.6 kmh NE 11.9 mph19.2 kmh 30.40 in1029.5 mb 0.01 in0.3 mm 0.00 in0.0 mm 0.36 in9.1 mm
12:27 PM 42.6°F5.9°C 39.6°F4.2°C 89% 9.4 mph NNE15.1 kmh NNE 11.9 mph19.2 kmh 30.40 in1029.5 mb 0.01 in0.3 mm 0.00 in0.0 mm 0.36 in9.1 mm
12:28 PM 42.6°F5.9°C 39.6°F4.2°C 89% 8.9 mph NNE14.3 kmh NNE 11.9 mph19.2 kmh 30.40 in1029.5 mb 0.01 in0.3 mm 0.00 in0.0 mm 0.36 in9.1 mm
12:29 PM 42.6°F5.9°C 39.6°F4.2°C 89% 9.4 mph NNE15.1 kmh NNE 11.9 mph19.2 kmh 30.40 in1029.5 mb 0.01 in0.3 mm 0.00 in0.0 mm 0.36 in9.1 mm
12:30 PM 42.6°F5.9°C 39.6°F4.2°C 89% 10.9 mph ESE17.5 kmh ESE 11.4 mph18.3 kmh 30.41 in1029.8 mb 0.01 in0.3 mm 0.00 in0.0 mm 0.36 in9.1 mm
12:31 PM 42.6°F5.9°C 39.6°F4.2°C 89% 5.8 mph NNW9.3 kmh NNW 10.9 mph17.5 kmh 30.41 in1029.8 mb 0.01 in0.3 mm 0.00 in0.0 mm 0.36 in9.1 mm
12:32 PM 42.6°F5.9°C 39.6°F4.2°C 89% 16.1 mph NE25.9 kmh NE 16.1 mph25.9 kmh 30.41 in1029.8 mb 0.01 in0.3 mm 0.00 in0.0 mm 0.36 in9.1 mm
12:33 PM 42.6°F5.9°C 39.3°F4.1°C 88% 9.9 mph NE15.9 kmh NE 16.1 mph25.9 kmh 30.41 in1029.8 mb 0.01 in0.3 mm 0.00 in0.0 mm 0.36 in9.1 mm
12:34 PM 42.6°F5.9°C 39.3°F4.1°C 88% 15.0 mph NE24.1 kmh NE 16.1 mph25.9 kmh 30.41 in1029.8 mb 0.01 in0.3 mm 0.00 in0.0 mm 0.36 in9.1 mm
12:35 PM 42.6°F5.9°C 39.3°F4.1°C 88% 14.0 mph NNE22.5 kmh NNE 16.1 mph25.9 kmh 30.41 in1029.8 mb 0.01 in0.3 mm 0.00 in0.0 mm 0.36 in9.1 mm
12:36 PM 42.6°F5.9°C 39.3°F4.1°C 88% 7.8 mph NNE12.6 kmh NNE 16.1 mph25.9 kmh 30.41 in1029.8 mb 0.00 in0.0 mm 0.00 in0.0 mm 0.36 in9.1 mm
12:37 PM 42.6°F5.9°C 39.3°F4.1°C 88% 11.9 mph NE19.2 kmh NE 16.1 mph25.9 kmh 30.41 in1029.8 mb 0.00 in0.0 mm 0.00 in0.0 mm 0.36 in9.1 mm
12:38 PM 42.6°F5.9°C 39.3°F4.1°C 88% 10.4 mph N16.7 kmh N 16.1 mph25.9 kmh 30.41 in1029.8 mb 0.00 in0.0 mm 0.00 in0.0 mm 0.36 in9.1 mm
12:39 PM 42.6°F5.9°C 39.3°F4.1°C 88% 8.3 mph NNE13.4 kmh NNE 16.1 mph25.9 kmh 30.41 in1029.8 mb 0.00 in0.0 mm 0.00 in0.0 mm 0.36 in9.1 mm
12:40 PM 42.6°F5.9°C 39.3°F4.1°C 88% 8.9 mph NNE14.3 kmh NNE 16.1 mph25.9 kmh 30.41 in1029.8 mb 0.00 in0.0 mm 0.00 in0.0 mm 0.36 in9.1 mm
12:41 PM 42.6°F5.9°C 39.3°F4.1°C 88% 10.4 mph E16.7 kmh E 16.1 mph25.9 kmh 30.41 in1029.8 mb 0.00 in0.0 mm 0.00 in0.0 mm 0.36 in9.1 mm
12:42 PM 42.6°F5.9°C 39.6°F4.2°C 89% 4.7 mph NNE7.6 kmh NNE 15.0 mph24.1 kmh 30.41 in1029.8 mb 0.00 in0.0 mm 0.00 in0.0 mm 0.36 in9.1 mm
12:43 PM 42.6°F5.9°C 39.6°F4.2°C 89% 4.2 mph NNE6.8 kmh NNE 15.0 mph24.1 kmh 30.41 in1029.8 mb 0.00 in0.0 mm 0.00 in0.0 mm 0.36 in9.1 mm
12:44 PM 42.6°F5.9°C 39.9°F4.4°C 90% 5.3 mph N8.5 kmh N 15.0 mph24.1 kmh 30.41 in1029.8 mb 0.00 in0.0 mm 0.00 in0.0 mm 0.36 in9.1 mm
12:45 PM 42.6°F5.9°C 39.9°F4.4°C 90% 6.3 mph ESE10.1 kmh ESE 14.0 mph22.5 kmh 30.41 in1029.8 mb 0.00 in0.0 mm 0.00 in0.0 mm 0.36 in9.1 mm
12:46 PM 42.6°F5.9°C 39.9°F4.4°C 90% 4.2 mph ESE6.8 kmh ESE 12.5 mph20.1 kmh 30.41 in1029.8 mb 0.00 in0.0 mm 0.00 in0.0 mm 0.36 in9.1 mm
12:47 PM 42.6°F5.9°C 39.9°F4.4°C 90% 5.3 mph E8.5 kmh E 11.9 mph19.2 kmh 30.41 in1029.8 mb 0.00 in0.0 mm 0.00 in0.0 mm 0.36 in9.1 mm
12:48 PM 42.6°F5.9°C 40.2°F4.6°C 91% 3.2 mph E5.1 kmh E 10.9 mph17.5 kmh 30.41 in1029.8 mb 0.00 in0.0 mm 0.00 in0.0 mm 0.36 in9.1 mm
12:49 PM 42.4°F5.8°C 40.0°F4.4°C 91% 6.8 mph NNE10.9 kmh NNE 10.4 mph16.7 kmh 30.41 in1029.8 mb 0.00 in0.0 mm 0.00 in0.0 mm 0.36 in9.1 mm
12:50 PM 42.4°F5.8°C 40.0°F4.4°C 91% 6.8 mph E10.9 kmh E 10.4 mph16.7 kmh 30.41 in1029.8 mb 0.00 in0.0 mm 0.00 in0.0 mm 0.36 in9.1 mm
12:51 PM 42.3°F5.7°C 39.9°F4.4°C 91% 8.9 mph NNE14.3 kmh NNE 10.4 mph16.7 kmh 30.41 in1029.8 mb 0.00 in0.0 mm 0.00 in0.0 mm 0.36 in9.1 mm
12:52 PM 42.3°F5.7°C 39.6°F4.2°C 90% 7.8 mph NNE12.6 kmh NNE 8.9 mph14.3 kmh 30.41 in1029.8 mb 0.00 in0.0 mm 0.00 in0.0 mm 0.36 in9.1 mm
12:53 PM 42.3°F5.7°C 39.6°F4.2°C 90% 5.8 mph NNE9.3 kmh NNE 8.9 mph14.3 kmh 30.41 in1029.8 mb 0.00 in0.0 mm 0.00 in0.0 mm 0.36 in9.1 mm
12:54 PM 42.3°F5.7°C 39.9°F4.4°C 91% 4.7 mph ENE7.6 kmh ENE 8.9 mph14.3 kmh 30.41 in1029.8 mb 0.00 in0.0 mm 0.00 in0.0 mm 0.36 in9.1 mm
12:55 PM 42.4°F5.8°C 40.0°F4.4°C 91% 8.3 mph NE13.4 kmh NE 8.9 mph14.3 kmh 30.41 in1029.8 mb 0.00 in0.0 mm 0.00 in0.0 mm 0.36 in9.1 mm
12:56 PM 42.4°F5.8°C 39.7°F4.3°C 90% 6.3 mph E10.1 kmh E 8.9 mph14.3 kmh 30.41 in1029.8 mb 0.00 in0.0 mm 0.00 in0.0 mm 0.36 in9.1 mm
12:57 PM 42.4°F5.8°C 39.7°F4.3°C 90% 6.3 mph NE10.1 kmh NE 8.9 mph14.3 kmh 30.41 in1029.8 mb 0.00 in0.0 mm 0.00 in0.0 mm 0.36 in9.1 mm
12:58 PM 42.4°F5.8°C 39.7°F4.3°C 90% 7.3 mph ENE11.7 kmh ENE 9.4 mph15.1 kmh 30.41 in1029.8 mb 0.00 in0.0 mm 0.00 in0.0 mm 0.36 in9.1 mm
12:59 PM 42.4°F5.8°C 39.7°F4.3°C 90% 4.7 mph NE7.6 kmh NE 9.4 mph15.1 kmh 30.41 in1029.8 mb 0.00 in0.0 mm 0.00 in0.0 mm 0.36 in9.1 mm
01:00 PM 42.6°F5.9°C 39.9°F4.4°C 90% 7.3 mph SE11.7 kmh SE 9.4 mph15.1 kmh 30.41 in1029.8 mb 0.00 in0.0 mm 0.00 in0.0 mm 0.36 in9.1 mm
01:01 PM 42.6°F5.9°C 39.9°F4.4°C 90% 5.3 mph NNE8.5 kmh NNE 9.4 mph15.1 kmh 30.41 in1029.8 mb 0.00 in0.0 mm 0.00 in0.0 mm 0.36 in9.1 mm
01:02 PM 42.6°F5.9°C 39.9°F4.4°C 90% 8.9 mph NE14.3 kmh NE 9.4 mph15.1 kmh 30.41 in1029.8 mb 0.00 in0.0 mm 0.00 in0.0 mm 0.36 in9.1 mm
01:03 PM 42.6°F5.9°C 39.9°F4.4°C 90% 7.3 mph NE11.7 kmh NE 9.9 mph15.9 kmh 30.41 in1029.8 mb 0.00 in0.0 mm 0.00 in0.0 mm 0.36 in9.1 mm
01:04 PM 42.6°F5.9°C 39.9°F4.4°C 90% 8.3 mph WNW13.4 kmh WNW 9.9 mph15.9 kmh 30.41 in1029.8 mb 0.00 in0.0 mm 0.00 in0.0 mm 0.36 in9.1 mm
01:05 PM 42.6°F5.9°C 39.9°F4.4°C 90% 6.3 mph ENE10.1 kmh ENE 9.9 mph15.9 kmh 30.41 in1029.8 mb 0.00 in0.0 mm 0.00 in0.0 mm 0.36 in9.1 mm
01:06 PM 42.6°F5.9°C 39.6°F4.2°C 89% 9.9 mph NE15.9 kmh NE 9.9 mph15.9 kmh 30.41 in1029.8 mb 0.00 in0.0 mm 0.00 in0.0 mm 0.36 in9.1 mm
01:07 PM 42.6°F5.9°C 39.6°F4.2°C 89% 8.3 mph NNW13.4 kmh NNW 10.4 mph16.7 kmh 30.41 in1029.8 mb 0.00 in0.0 mm 0.00 in0.0 mm 0.36 in9.1 mm
01:08 PM 42.6°F5.9°C 39.6°F4.2°C 89% 7.8 mph NNE12.6 kmh NNE 10.4 mph16.7 kmh 30.41 in1029.8 mb 0.00 in0.0 mm 0.00 in0.0 mm 0.36 in9.1 mm
01:09 PM 42.6°F5.9°C 39.6°F4.2°C 89% 6.8 mph NE10.9 kmh NE 10.4 mph16.7 kmh 30.41 in1029.8 mb 0.00 in0.0 mm 0.00 in0.0 mm 0.36 in9.1 mm
01:10 PM 42.6°F5.9°C 39.6°F4.2°C 89% 6.3 mph NNE10.1 kmh NNE 10.4 mph16.7 kmh 30.41 in1029.8 mb 0.00 in0.0 mm 0.00 in0.0 mm 0.36 in9.1 mm
01:11 PM 42.6°F5.9°C 39.6°F4.2°C 89% 6.3 mph NE10.1 kmh NE 10.4 mph16.7 kmh 30.41 in1029.8 mb 0.00 in0.0 mm 0.00 in0.0 mm 0.36 in9.1 mm
01:12 PM 42.6°F5.9°C 39.9°F4.4°C 90% 7.3 mph NNE11.7 kmh NNE 10.4 mph16.7 kmh 30.41 in1029.8 mb 0.00 in0.0 mm 0.00 in0.0 mm 0.36 in9.1 mm
01:13 PM 42.6°F5.9°C 39.9°F4.4°C 90% 7.8 mph NNE12.6 kmh NNE 10.4 mph16.7 kmh 30.41 in1029.8 mb 0.00 in0.0 mm 0.00 in0.0 mm 0.36 in9.1 mm
01:14 PM 42.6°F5.9°C 39.9°F4.4°C 90% 7.8 mph NNE12.6 kmh NNE 10.4 mph16.7 kmh 30.41 in1029.8 mb 0.00 in0.0 mm 0.00 in0.0 mm 0.36 in9.1 mm
01:15 PM 42.6°F5.9°C 39.9°F4.4°C 90% 7.3 mph NE11.7 kmh NE 10.4 mph16.7 kmh 30.41 in1029.8 mb 0.00 in0.0 mm 0.00 in0.0 mm 0.36 in9.1 mm
01:16 PM 42.6°F5.9°C 39.9°F4.4°C 90% 7.8 mph NNE12.6 kmh NNE 10.4 mph16.7 kmh 30.41 in1029.8 mb 0.00 in0.0 mm 0.00 in0.0 mm 0.36 in9.1 mm
01:17 PM 42.4°F5.8°C 39.7°F4.3°C 90% 5.8 mph ESE9.3 kmh ESE 9.9 mph15.9 kmh 30.41 in1029.8 mb 0.00 in0.0 mm 0.00 in0.0 mm 0.36 in9.1 mm
01:18 PM 42.4°F5.8°C 40.0°F4.4°C 91% 5.3 mph NNW8.5 kmh NNW 9.9 mph15.9 kmh 30.41 in1029.8 mb 0.00 in0.0 mm 0.00 in0.0 mm 0.36 in9.1 mm
01:19 PM 42.4°F5.8°C 40.0°F4.4°C 91% 5.3 mph E8.5 kmh E 9.9 mph15.9 kmh 30.41 in1029.8 mb 0.00 in0.0 mm 0.00 in0.0 mm 0.36 in9.1 mm
01:20 PM 42.4°F5.8°C 40.0°F4.4°C 91% 6.8 mph NNE10.9 kmh NNE 9.9 mph15.9 kmh 30.41 in1029.8 mb 0.00 in0.0 mm 0.00 in0.0 mm 0.36 in9.1 mm
01:21 PM 42.4°F5.8°C 40.2°F4.6°C 92% 2.7 mph NNE4.3 kmh NNE 9.9 mph15.9 kmh 30.41 in1029.8 mb 0.00 in0.0 mm 0.00 in0.0 mm 0.36 in9.1 mm
01:22 PM 42.4°F5.8°C 40.2°F4.6°C 92% 3.7 mph NE6.0 kmh NE 9.9 mph15.9 kmh 30.41 in1029.8 mb 0.01 in0.3 mm 0.60 in15.2 mm 0.37 in9.4 mm
01:23 PM 42.4°F5.8°C 40.2°F4.6°C 92% 3.7 mph NE6.0 kmh NE 9.9 mph15.9 kmh 30.41 in1029.8 mb 0.01 in0.3 mm 0.00 in0.0 mm 0.37 in9.4 mm
01:24 PM 42.4°F5.8°C 40.2°F4.6°C 92% 5.3 mph NNE8.5 kmh NNE 9.9 mph15.9 kmh 30.41 in1029.8 mb 0.01 in0.3 mm 0.00 in0.0 mm 0.37 in9.4 mm
01:25 PM 42.4°F5.8°C 40.2°F4.6°C 92% 5.3 mph NNE8.5 kmh NNE 9.9 mph15.9 kmh 30.41 in1029.8 mb 0.01 in0.3 mm 0.00 in0.0 mm 0.37 in9.4 mm
01:26 PM 42.4°F5.8°C 40.2°F4.6°C 92% 3.7 mph N6.0 kmh N 9.9 mph15.9 kmh 30.41 in1029.8 mb 0.01 in0.3 mm 0.00 in0.0 mm 0.37 in9.4 mm
01:27 PM 42.4°F5.8°C 40.2°F4.6°C 92% 5.8 mph NNE9.3 kmh NNE 7.8 mph12.6 kmh 30.41 in1029.8 mb 0.01 in0.3 mm 0.00 in0.0 mm 0.37 in9.4 mm
01:28 PM 42.4°F5.8°C 40.2°F4.6°C 92% 5.8 mph NNE9.3 kmh NNE 6.8 mph10.9 kmh 30.41 in1029.8 mb 0.01 in0.3 mm 0.00 in0.0 mm 0.37 in9.4 mm
01:29 PM 42.4°F5.8°C 40.2°F4.6°C 92% 3.7 mph E6.0 kmh E 6.8 mph10.9 kmh 30.41 in1029.8 mb 0.01 in0.3 mm 0.00 in0.0 mm 0.37 in9.4 mm
01:30 PM 42.4°F5.8°C 40.2°F4.6°C 92% 4.7 mph ENE7.6 kmh ENE 6.8 mph10.9 kmh 30.41 in1029.8 mb 0.01 in0.3 mm 0.00 in0.0 mm 0.37 in9.4 mm
01:31 PM 42.4°F5.8°C 40.2°F4.6°C 92% 3.2 mph NE5.1 kmh NE 6.8 mph10.9 kmh 30.41 in1029.8 mb 0.01 in0.3 mm 0.00 in0.0 mm 0.37 in9.4 mm
01:32 PM 42.4°F5.8°C 40.5°F4.7°C 93% 2.7 mph ESE4.3 kmh ESE 6.8 mph10.9 kmh 30.41 in1029.8 mb 0.01 in0.3 mm 0.00 in0.0 mm 0.37 in9.4 mm
01:33 PM 42.6°F5.9°C 40.7°F4.8°C 93% 1.7 mph NW2.7 kmh NW 6.8 mph10.9 kmh 30.41 in1029.8 mb 0.01 in0.3 mm 0.00 in0.0 mm 0.37 in9.4 mm
01:34 PM 42.8°F6.0°C 40.9°F4.9°C 93% 5.3 mph NNW8.5 kmh NNW 6.8 mph10.9 kmh 30.41 in1029.8 mb 0.01 in0.3 mm 0.00 in0.0 mm 0.37 in9.4 mm
01:35 PM 42.8°F6.0°C 40.6°F4.8°C 92% 2.7 mph NNW4.3 kmh NNW 6.8 mph10.9 kmh 30.41 in1029.8 mb 0.01 in0.3 mm 0.00 in0.0 mm 0.37 in9.4 mm
01:36 PM 43.0°F6.1°C 40.8°F4.9°C 92% 3.2 mph WNW5.1 kmh WNW 5.8 mph9.3 kmh 30.41 in1029.8 mb 0.01 in0.3 mm 0.00 in0.0 mm 0.37 in9.4 mm
01:37 PM 43.0°F6.1°C 40.6°F4.8°C 91% 3.7 mph NNW6.0 kmh NNW 5.8 mph9.3 kmh 30.41 in1029.8 mb 0.01 in0.3 mm 0.00 in0.0 mm 0.37 in9.4 mm
01:38 PM 43.0°F6.1°C 40.6°F4.8°C 91% 3.7 mph W6.0 kmh W 5.8 mph9.3 kmh 30.41 in1029.8 mb 0.01 in0.3 mm 0.00 in0.0 mm 0.37 in9.4 mm
01:39 PM 43.0°F6.1°C 40.6°F4.8°C 91% 4.2 mph N6.8 kmh N 5.3 mph8.5 kmh 30.41 in1029.8 mb 0.02 in0.5 mm 0.60 in15.2 mm 0.38 in9.7 mm
01:40 PM 43.0°F6.1°C 40.6°F4.8°C 91% 3.7 mph NE6.0 kmh NE 5.3 mph8.5 kmh 30.41 in1029.8 mb 0.02 in0.5 mm 0.00 in0.0 mm 0.38 in9.7 mm
01:41 PM 43.0°F6.1°C 40.6°F4.8°C 91% 4.7 mph NNE7.6 kmh NNE 5.3 mph8.5 kmh 30.42 in1030.1 mb 0.02 in0.5 mm 0.00 in0.0 mm 0.38 in9.7 mm
01:42 PM 43.0°F6.1°C 40.6°F4.8°C 91% 5.3 mph NE8.5 kmh NE 5.3 mph8.5 kmh 30.42 in1030.1 mb 0.02 in0.5 mm 0.00 in0.0 mm 0.38 in9.7 mm
01:43 PM 43.0°F6.1°C 40.6°F4.8°C 91% 3.7 mph NNE6.0 kmh NNE 5.8 mph9.3 kmh 30.42 in1030.1 mb 0.02 in0.5 mm 0.00 in0.0 mm 0.38 in9.7 mm
01:44 PM 43.0°F6.1°C 40.3°F4.6°C 90% 5.8 mph NNE9.3 kmh NNE 6.3 mph10.1 kmh 30.42 in1030.1 mb 0.02 in0.5 mm 0.00 in0.0 mm 0.38 in9.7 mm
01:45 PM 43.0°F6.1°C 40.3°F4.6°C 90% 4.7 mph NNE7.6 kmh NNE 6.3 mph10.1 kmh 30.42 in1030.1 mb 0.02 in0.5 mm 0.00 in0.0 mm 0.38 in9.7 mm
01:46 PM 43.0°F6.1°C 40.3°F4.6°C 90% 5.8 mph NNE9.3 kmh NNE 6.3 mph10.1 kmh 30.42 in1030.1 mb 0.02 in0.5 mm 0.00 in0.0 mm 0.38 in9.7 mm
01:47 PM 43.0°F6.1°C 40.0°F4.4°C 89% 5.8 mph N9.3 kmh N 7.8 mph12.6 kmh 30.42 in1030.1 mb 0.02 in0.5 mm 0.00 in0.0 mm 0.38 in9.7 mm
01:48 PM 43.0°F6.1°C 40.0°F4.4°C 89% 5.3 mph N8.5 kmh N 8.3 mph13.4 kmh 30.42 in1030.1 mb 0.02 in0.5 mm 0.00 in0.0 mm 0.38 in9.7 mm
01:49 PM 43.0°F6.1°C 40.0°F4.4°C 89% 6.8 mph NE10.9 kmh NE 8.3 mph13.4 kmh 30.42 in1030.1 mb 0.02 in0.5 mm 0.00 in0.0 mm 0.38 in9.7 mm
01:50 PM 43.0°F6.1°C 40.0°F4.4°C 89% 8.3 mph NNE13.4 kmh NNE 8.3 mph13.4 kmh 30.42 in1030.1 mb 0.02 in0.5 mm 0.00 in0.0 mm 0.38 in9.7 mm
01:51 PM 43.0°F6.1°C 40.0°F4.4°C 89% 6.8 mph N10.9 kmh N 8.3 mph13.4 kmh 30.42 in1030.1 mb 0.02 in0.5 mm 0.00 in0.0 mm 0.38 in9.7 mm
01:52 PM 43.0°F6.1°C 40.3°F4.6°C 90% 5.3 mph NE8.5 kmh NE 8.3 mph13.4 kmh 30.42 in1030.1 mb 0.02 in0.5 mm 0.00 in0.0 mm 0.38 in9.7 mm
01:53 PM 43.0°F6.1°C 40.3°F4.6°C 90% 3.7 mph NNE6.0 kmh NNE 8.3 mph13.4 kmh 30.42 in1030.1 mb 0.02 in0.5 mm 0.00 in0.0 mm 0.38 in9.7 mm
01:54 PM 43.0°F6.1°C 40.3°F4.6°C 90% 3.2 mph NE5.1 kmh NE 8.3 mph13.4 kmh 30.42 in1030.1 mb 0.02 in0.5 mm 0.00 in0.0 mm 0.38 in9.7 mm
01:55 PM 43.0°F6.1°C 40.3°F4.6°C 90% 3.2 mph W5.1 kmh W 8.3 mph13.4 kmh 30.42 in1030.1 mb 0.02 in0.5 mm 0.00 in0.0 mm 0.38 in9.7 mm
01:56 PM 43.2°F6.2°C 40.2°F4.6°C 89% 7.8 mph NE12.6 kmh NE 8.3 mph13.4 kmh 30.42 in1030.1 mb 0.02 in0.5 mm 0.00 in0.0 mm 0.38 in9.7 mm
01:57 PM 43.2°F6.2°C 40.2°F4.6°C 89% 8.3 mph NNE13.4 kmh NNE 8.3 mph13.4 kmh 30.42 in1030.1 mb 0.02 in0.5 mm 0.00 in0.0 mm 0.38 in9.7 mm
01:58 PM 43.2°F6.2°C 39.9°F4.4°C 88% 10.4 mph NNE16.7 kmh NNE 10.4 mph16.7 kmh 30.42 in1030.1 mb 0.02 in0.5 mm 0.00 in0.0 mm 0.38 in9.7 mm
01:59 PM 43.2°F6.2°C 39.3°F4.1°C 86% 7.3 mph NNE11.7 kmh NNE 10.4 mph16.7 kmh 30.42 in1030.1 mb 0.02 in0.5 mm 0.00 in0.0 mm 0.38 in9.7 mm
02:00 PM 43.2°F6.2°C 39.6°F4.2°C 87% 6.8 mph E10.9 kmh E 10.4 mph16.7 kmh 30.42 in1030.1 mb 0.02 in0.5 mm 0.00 in0.0 mm 0.38 in9.7 mm
02:01 PM 43.2°F6.2°C 39.6°F4.2°C 87% 5.3 mph E8.5 kmh E 10.4 mph16.7 kmh 30.42 in1030.1 mb 0.02 in0.5 mm 0.00 in0.0 mm 0.38 in9.7 mm
02:02 PM 43.2°F6.2°C 39.6°F4.2°C 87% 6.3 mph W10.1 kmh W 10.4 mph16.7 kmh 30.42 in1030.1 mb 0.02 in0.5 mm 0.00 in0.0 mm 0.38 in9.7 mm
02:03 PM 43.3°F6.3°C 40.0°F4.4°C 88% 3.2 mph NW5.1 kmh NW 10.4 mph16.7 kmh 30.42 in1030.1 mb 0.02 in0.5 mm 0.00 in0.0 mm 0.38 in9.7 mm
02:04 PM 43.3°F6.3°C 40.0°F4.4°C 88% 4.2 mph ESE6.8 kmh ESE 10.4 mph16.7 kmh 30.42 in1030.1 mb 0.02 in0.5 mm 0.00 in0.0 mm 0.38 in9.7 mm
02:05 PM 43.3°F6.3°C 39.7°F4.3°C 87% 5.8 mph NE9.3 kmh NE 10.4 mph16.7 kmh 30.43 in1030.5 mb 0.02 in0.5 mm 0.00 in0.0 mm 0.38 in9.7 mm
02:06 PM 43.3°F6.3°C 40.0°F4.4°C 88% 5.3 mph NNE8.5 kmh NNE 10.4 mph16.7 kmh 30.43 in1030.5 mb 0.02 in0.5 mm 0.00 in0.0 mm 0.38 in9.7 mm
02:07 PM 43.3°F6.3°C 40.0°F4.4°C 88% 4.7 mph NNE7.6 kmh NNE 10.4 mph16.7 kmh 30.43 in1030.5 mb 0.02 in0.5 mm 0.00 in0.0 mm 0.38 in9.7 mm
02:08 PM 43.3°F6.3°C 40.0°F4.4°C 88% 3.7 mph NE6.0 kmh NE 7.3 mph11.7 kmh 30.43 in1030.5 mb 0.02 in0.5 mm 0.00 in0.0 mm 0.38 in9.7 mm
02:09 PM 43.3°F6.3°C 40.0°F4.4°C 88% 4.2 mph NE6.8 kmh NE 7.3 mph11.7 kmh 30.43 in1030.5 mb 0.02 in0.5 mm 0.00 in0.0 mm 0.38 in9.7 mm
02:10 PM 43.3°F6.3°C 40.0°F4.4°C 88% 6.8 mph NE10.9 kmh NE 9.4 mph15.1 kmh 30.43 in1030.5 mb 0.02 in0.5 mm 0.00 in0.0 mm 0.38 in9.7 mm
02:11 PM 43.3°F6.3°C 39.7°F4.3°C 87% 6.3 mph NNE10.1 kmh NNE 9.4 mph15.1 kmh 30.43 in1030.5 mb 0.02 in0.5 mm 0.00 in0.0 mm 0.38 in9.7 mm
02:12 PM 43.3°F6.3°C 39.7°F4.3°C 87% 5.8 mph NNE9.3 kmh NNE 9.4 mph15.1 kmh 30.43 in1030.5 mb 0.02 in0.5 mm 0.00 in0.0 mm 0.38 in9.7 mm
02:13 PM 43.5°F6.4°C 39.9°F4.4°C 87% 5.3 mph NNW8.5 kmh NNW 9.4 mph15.1 kmh 30.43 in1030.5 mb 0.02 in0.5 mm 0.00 in0.0 mm 0.38 in9.7 mm
02:14 PM 43.5°F6.4°C 39.9°F4.4°C 87% 7.8 mph NNE12.6 kmh NNE 9.4 mph15.1 kmh 30.43 in1030.5 mb 0.02 in0.5 mm 0.00 in0.0 mm 0.38 in9.7 mm
02:15 PM 43.5°F6.4°C 39.9°F4.4°C 87% 6.8 mph NW10.9 kmh NW 9.4 mph15.1 kmh 30.43 in1030.5 mb 0.02 in0.5 mm 0.00 in0.0 mm 0.38 in9.7 mm
02:16 PM 43.5°F6.4°C 39.9°F4.4°C 87% 5.8 mph NNE9.3 kmh NNE 9.4 mph15.1 kmh 30.43 in1030.5 mb 0.02 in0.5 mm 0.00 in0.0 mm 0.38 in9.7 mm
02:17 PM 43.5°F6.4°C 39.6°F4.2°C 86% 9.9 mph NNE15.9 kmh NNE 9.9 mph15.9 kmh 30.44 in1030.8 mb 0.02 in0.5 mm 0.00 in0.0 mm 0.38 in9.7 mm
02:18 PM 43.5°F6.4°C 39.6°F4.2°C 86% 6.8 mph NE10.9 kmh NE 9.9 mph15.9 kmh 30.44 in1030.8 mb 0.02 in0.5 mm 0.00 in0.0 mm 0.38 in9.7 mm
02:19 PM 43.5°F6.4°C 39.6°F4.2°C 86% 4.7 mph NE7.6 kmh NE 9.9 mph15.9 kmh 30.44 in1030.8 mb 0.02 in0.5 mm 0.00 in0.0 mm 0.38 in9.7 mm
02:20 PM 43.5°F6.4°C 39.6°F4.2°C 86% 4.7 mph NE7.6 kmh NE 9.9 mph15.9 kmh 30.44 in1030.8 mb 0.02 in0.5 mm 0.00 in0.0 mm 0.38 in9.7 mm
02:21 PM 43.5°F6.4°C 39.6°F4.2°C 86% 7.3 mph W11.7 kmh W 9.9 mph15.9 kmh 30.44 in1030.8 mb 0.02 in0.5 mm 0.00 in0.0 mm 0.38 in9.7 mm
02:22 PM 43.5°F6.4°C 39.6°F4.2°C 86% 4.7 mph NE7.6 kmh NE 9.9 mph15.9 kmh 30.44 in1030.8 mb 0.01 in0.3 mm 0.00 in0.0 mm 0.38 in9.7 mm
02:23 PM 43.5°F6.4°C 39.6°F4.2°C 86% 4.2 mph WSW6.8 kmh WSW 9.9 mph15.9 kmh 30.44 in1030.8 mb 0.01 in0.3 mm 0.00 in0.0 mm 0.38 in9.7 mm
02:24 PM 43.5°F6.4°C 39.6°F4.2°C 86% 3.7 mph NNE6.0 kmh NNE 9.9 mph15.9 kmh 30.44 in1030.8 mb 0.01 in0.3 mm 0.00 in0.0 mm 0.38 in9.7 mm
02:25 PM 43.5°F6.4°C 39.9°F4.4°C 87% 1.7 mph NNE2.7 kmh NNE 9.9 mph15.9 kmh 30.44 in1030.8 mb 0.01 in0.3 mm 0.00 in0.0 mm 0.38 in9.7 mm
02:26 PM 43.5°F6.4°C 39.9°F4.4°C 87% 5.8 mph NNE9.3 kmh NNE 9.9 mph15.9 kmh 30.44 in1030.8 mb 0.01 in0.3 mm 0.00 in0.0 mm 0.38 in9.7 mm
02:27 PM 43.5°F6.4°C 39.6°F4.2°C 86% 4.7 mph NNE7.6 kmh NNE 9.9 mph15.9 kmh 30.44 in1030.8 mb 0.01 in0.3 mm 0.00 in0.0 mm 0.38 in9.7 mm
02:28 PM 43.5°F6.4°C 39.6°F4.2°C 86% 4.2 mph NNE6.8 kmh NNE 8.3 mph13.4 kmh 30.44 in1030.8 mb 0.01 in0.3 mm 0.00 in0.0 mm 0.38 in9.7 mm
02:29 PM 43.5°F6.4°C 39.6°F4.2°C 86% 5.3 mph N8.5 kmh N 8.3 mph13.4 kmh 30.45 in1031.2 mb 0.01 in0.3 mm 0.00 in0.0 mm 0.38 in9.7 mm
02:30 PM 43.5°F6.4°C 39.6°F4.2°C 86% 5.3 mph NNE8.5 kmh NNE 8.3 mph13.4 kmh 30.45 in1031.2 mb 0.01 in0.3 mm 0.00 in0.0 mm 0.38 in9.7 mm
02:31 PM 43.3°F6.3°C 39.1°F3.9°C 85% 7.8 mph NNE12.6 kmh NNE 8.3 mph13.4 kmh 30.45 in1031.2 mb 0.01 in0.3 mm 0.00 in0.0 mm 0.38 in9.7 mm
02:32 PM 43.3°F6.3°C 39.4°F4.1°C 86% 4.7 mph ENE7.6 kmh ENE 8.3 mph13.4 kmh 30.45 in1031.2 mb 0.01 in0.3 mm 0.00 in0.0 mm 0.38 in9.7 mm
02:33 PM 43.3°F6.3°C 39.4°F4.1°C 86% 8.3 mph NNE13.4 kmh NNE 8.3 mph13.4 kmh 30.45 in1031.2 mb 0.01 in0.3 mm 0.00 in0.0 mm 0.38 in9.7 mm
02:34 PM 43.3°F6.3°C 39.4°F4.1°C 86% 2.7 mph S4.3 kmh S 8.3 mph13.4 kmh 30.45 in1031.2 mb 0.01 in0.3 mm 0.00 in0.0 mm 0.38 in9.7 mm
02:35 PM 43.3°F6.3°C 39.4°F4.1°C 86% 6.3 mph NNE10.1 kmh NNE 8.3 mph13.4 kmh 30.45 in1031.2 mb 0.01 in0.3 mm 0.00 in0.0 mm 0.38 in9.7 mm
02:36 PM 43.3°F6.3°C 39.4°F4.1°C 86% 6.3 mph NE10.1 kmh NE 8.3 mph13.4 kmh 30.45 in1031.2 mb 0.01 in0.3 mm 0.00 in0.0 mm 0.38 in9.7 mm
02:37 PM 43.3°F6.3°C 39.4°F4.1°C 86% 5.3 mph NNW8.5 kmh NNW 8.3 mph13.4 kmh 30.45 in1031.2 mb 0.01 in0.3 mm 0.00 in0.0 mm 0.38 in9.7 mm
02:38 PM 43.3°F6.3°C 39.4°F4.1°C 86% 5.3 mph NNW8.5 kmh NNW 8.3 mph13.4 kmh 30.45 in1031.2 mb 0.01 in0.3 mm 0.00 in0.0 mm 0.38 in9.7 mm
02:39 PM 43.3°F6.3°C 39.1°F3.9°C 85% 7.3 mph S11.7 kmh S 8.3 mph13.4 kmh 30.45 in1031.2 mb 0.00 in0.0 mm 0.00 in0.0 mm 0.38 in9.7 mm
02:40 PM 43.3°F6.3°C 39.1°F3.9°C 85% 6.8 mph NNE10.9 kmh NNE 8.3 mph13.4 kmh 30.45 in1031.2 mb 0.00 in0.0 mm 0.00 in0.0 mm 0.38 in9.7 mm
02:41 PM 43.3°F6.3°C 39.1°F3.9°C 85% 5.8 mph NNE9.3 kmh NNE 8.3 mph13.4 kmh 30.45 in1031.2 mb 0.00 in0.0 mm 0.00 in0.0 mm 0.38 in9.7 mm
02:42 PM 43.3°F6.3°C 39.1°F3.9°C 85% 6.3 mph NNE10.1 kmh NNE 8.3 mph13.4 kmh 30.45 in1031.2 mb 0.00 in0.0 mm 0.00 in0.0 mm 0.38 in9.7 mm
02:43 PM 43.3°F6.3°C 39.1°F3.9°C 85% 4.7 mph NE7.6 kmh NE 8.3 mph13.4 kmh 30.45 in1031.2 mb 0.00 in0.0 mm 0.00 in0.0 mm 0.38 in9.7 mm
02:44 PM 43.3°F6.3°C 39.1°F3.9°C 85% 7.3 mph NE11.7 kmh NE 8.3 mph13.4 kmh 30.45 in1031.2 mb 0.00 in0.0 mm 0.00 in0.0 mm 0.38 in9.7 mm
02:45 PM 43.3°F6.3°C 39.4°F4.1°C 86% 5.3 mph NE8.5 kmh NE 8.3 mph13.4 kmh 30.45 in1031.2 mb 0.00 in0.0 mm 0.00 in0.0 mm 0.38 in9.7 mm
02:46 PM 43.3°F6.3°C 39.4°F4.1°C 86% 2.7 mph ESE4.3 kmh ESE 8.3 mph13.4 kmh 30.45 in1031.2 mb 0.00 in0.0 mm 0.00 in0.0 mm 0.38 in9.7 mm
02:47 PM 43.3°F6.3°C 39.4°F4.1°C 86% 2.7 mph ESE4.3 kmh ESE 8.3 mph13.4 kmh 30.45 in1031.2 mb 0.00 in0.0 mm 0.00 in0.0 mm 0.38 in9.7 mm
02:48 PM 43.5°F6.4°C 39.6°F4.2°C 86% 5.3 mph NE8.5 kmh NE 8.3 mph13.4 kmh 30.45 in1031.2 mb 0.00 in0.0 mm 0.00 in0.0 mm 0.38 in9.7 mm
02:49 PM 43.5°F6.4°C 39.6°F4.2°C 86% 6.8 mph NE10.9 kmh NE 8.3 mph13.4 kmh 30.45 in1031.2 mb 0.00 in0.0 mm 0.00 in0.0 mm 0.38 in9.7 mm
02:50 PM 43.5°F6.4°C 39.3°F4.1°C 85% 6.8 mph NE10.9 kmh NE 8.3 mph13.4 kmh 30.45 in1031.2 mb 0.00 in0.0 mm 0.00 in0.0 mm 0.38 in9.7 mm
02:51 PM 43.5°F6.4°C 39.3°F4.1°C 85% 4.7 mph NE7.6 kmh NE 8.3 mph13.4 kmh 30.45 in1031.2 mb 0.00 in0.0 mm 0.00 in0.0 mm 0.38 in9.7 mm
02:52 PM 43.5°F6.4°C 39.3°F4.1°C 85% 5.8 mph NNE9.3 kmh NNE 7.3 mph11.7 kmh 30.45 in1031.2 mb 0.00 in0.0 mm 0.00 in0.0 mm 0.38 in9.7 mm
02:53 PM 43.5°F6.4°C 39.3°F4.1°C 85% 3.7 mph E6.0 kmh E 7.3 mph11.7 kmh 30.45 in1031.2 mb 0.00 in0.0 mm 0.00 in0.0 mm 0.38 in9.7 mm
02:54 PM 43.5°F6.4°C 39.3°F4.1°C 85% 6.8 mph NNE10.9 kmh NNE 7.3 mph11.7 kmh 30.45 in1031.2 mb 0.00 in0.0 mm 0.00 in0.0 mm 0.38 in9.7 mm
02:55 PM 43.5°F6.4°C 39.0°F3.9°C 84% 5.8 mph NE9.3 kmh NE 7.3 mph11.7 kmh 30.45 in1031.2 mb 0.00 in0.0 mm 0.00 in0.0 mm 0.38 in9.7 mm
02:56 PM 43.5°F6.4°C 39.3°F4.1°C 85% 5.3 mph ESE8.5 kmh ESE 7.3 mph11.7 kmh 30.45 in1031.2 mb 0.00 in0.0 mm 0.00 in0.0 mm 0.38 in9.7 mm
02:57 PM 43.5°F6.4°C 39.3°F4.1°C 85% 6.3 mph NNE10.1 kmh NNE 7.3 mph11.7 kmh 30.45 in1031.2 mb 0.00 in0.0 mm 0.00 in0.0 mm 0.38 in9.7 mm
02:58 PM 43.5°F6.4°C 39.0°F3.9°C 84% 5.3 mph NNE8.5 kmh NNE 7.3 mph11.7 kmh 30.45 in1031.2 mb 0.00 in0.0 mm 0.00 in0.0 mm 0.38 in9.7 mm
02:59 PM 43.5°F6.4°C 38.7°F3.7°C 83% 5.8 mph NNE9.3 kmh NNE 7.3 mph11.7 kmh 30.45 in1031.2 mb 0.00 in0.0 mm 0.00 in0.0 mm 0.38 in9.7 mm
03:00 PM 43.5°F6.4°C 38.7°F3.7°C 83% 3.7 mph NE6.0 kmh NE 7.3 mph11.7 kmh 30.45 in1031.2 mb 0.00 in0.0 mm 0.00 in0.0 mm 0.38 in9.7 mm
03:01 PM 43.7°F6.5°C 39.2°F4.0°C 84% 7.8 mph NE12.6 kmh NE 7.8 mph12.6 kmh 30.45 in1031.2 mb 0.00 in0.0 mm 0.00 in0.0 mm 0.38 in9.7 mm
03:02 PM 43.7°F6.5°C 39.2°F4.0°C 84% 4.2 mph ESE6.8 kmh ESE 7.8 mph12.6 kmh 30.45 in1031.2 mb 0.00 in0.0 mm 0.00 in0.0 mm 0.38 in9.7 mm
03:03 PM 43.7°F6.5°C 39.2°F4.0°C 84% 6.3 mph NNE10.1 kmh NNE 7.8 mph12.6 kmh 30.45 in1031.2 mb 0.00 in0.0 mm 0.00 in0.0 mm 0.38 in9.7 mm
03:04 PM 43.7°F6.5°C 39.2°F4.0°C 84% 3.2 mph SSE5.1 kmh SSE 8.9 mph14.3 kmh 30.45 in1031.2 mb 0.00 in0.0 mm 0.00 in0.0 mm 0.38 in9.7 mm
03:05 PM 43.7°F6.5°C 38.9°F3.8°C 83% 6.8 mph NE10.9 kmh NE 8.9 mph14.3 kmh 30.45 in1031.2 mb 0.00 in0.0 mm 0.00 in0.0 mm 0.38 in9.7 mm
03:06 PM 43.7°F6.5°C 38.9°F3.8°C 83% 2.2 mph NNE3.5 kmh NNE 8.9 mph14.3 kmh 30.46 in1031.5 mb 0.00 in0.0 mm 0.00 in0.0 mm 0.38 in9.7 mm
03:07 PM 43.7°F6.5°C 38.6°F3.7°C 82% 2.2 mph SSE3.5 kmh SSE 8.9 mph14.3 kmh 30.46 in1031.5 mb 0.00 in0.0 mm 0.00 in0.0 mm 0.38 in9.7 mm
03:08 PM 43.7°F6.5°C 38.6°F3.7°C 82% 5.8 mph NNE9.3 kmh NNE 8.9 mph14.3 kmh 30.46 in1031.5 mb 0.00 in0.0 mm 0.00 in0.0 mm 0.38 in9.7 mm
03:09 PM 43.7°F6.5°C 38.6°F3.7°C 82% 8.3 mph NNE13.4 kmh NNE 8.9 mph14.3 kmh 30.46 in1031.5 mb 0.00 in0.0 mm 0.00 in0.0 mm 0.38 in9.7 mm
03:10 PM 43.7°F6.5°C 38.3°F3.5°C 81% 4.7 mph N7.6 kmh N 8.9 mph14.3 kmh 30.46 in1031.5 mb 0.00 in0.0 mm 0.00 in0.0 mm 0.38 in9.7 mm
03:11 PM 43.7°F6.5°C 38.3°F3.5°C 81% 6.3 mph NNE10.1 kmh NNE 8.9 mph14.3 kmh 30.46 in1031.5 mb 0.00 in0.0 mm 0.00 in0.0 mm 0.38 in9.7 mm
03:12 PM 43.7°F6.5°C 38.6°F3.7°C 82% 4.2 mph NNE6.8 kmh NNE 8.9 mph14.3 kmh 30.46 in1031.5 mb 0.00 in0.0 mm 0.00 in0.0 mm 0.38 in9.7 mm
03:13 PM 43.7°F6.5°C 38.6°F3.7°C 82% 6.8 mph N10.9 kmh N 8.9 mph14.3 kmh 30.46 in1031.5 mb 0.00 in0.0 mm 0.00 in0.0 mm 0.38 in9.7 mm
03:14 PM 43.7°F6.5°C 38.6°F3.7°C 82% 6.3 mph N10.1 kmh N 8.3 mph13.4 kmh 30.46 in1031.5 mb 0.00 in0.0 mm 0.00 in0.0 mm 0.38 in9.7 mm
03:15 PM 43.7°F6.5°C 38.6°F3.7°C 82% 8.3 mph NNE13.4 kmh NNE 8.3 mph13.4 kmh 30.46 in1031.5 mb 0.00 in0.0 mm 0.00 in0.0 mm 0.38 in9.7 mm
03:16 PM 43.5°F6.4°C 37.7°F3.2°C 80% 6.3 mph NNE10.1 kmh NNE 9.4 mph15.1 kmh 30.46 in1031.5 mb 0.00 in0.0 mm 0.00 in0.0 mm 0.38 in9.7 mm
03:17 PM 43.5°F6.4°C 37.7°F3.2°C 80% 6.3 mph ESE10.1 kmh ESE 9.4 mph15.1 kmh 30.46 in1031.5 mb 0.00 in0.0 mm 0.00 in0.0 mm 0.38 in9.7 mm
03:18 PM 43.5°F6.4°C 38.1°F3.4°C 81% 3.2 mph N5.1 kmh N 9.4 mph15.1 kmh 30.47 in1031.8 mb 0.00 in0.0 mm 0.00 in0.0 mm 0.38 in9.7 mm
03:19 PM 43.5°F6.4°C 38.4°F3.6°C 82% 4.2 mph NNE6.8 kmh NNE 9.4 mph15.1 kmh 30.47 in1031.8 mb 0.00 in0.0 mm 0.00 in0.0 mm 0.38 in9.7 mm
03:20 PM 43.5°F6.4°C 38.4°F3.6°C 82% 6.3 mph SE10.1 kmh SE 9.4 mph15.1 kmh 30.47 in1031.8 mb 0.00 in0.0 mm 0.00 in0.0 mm 0.38 in9.7 mm
03:21 PM 43.3°F6.3°C 38.2°F3.4°C 82% 4.2 mph NE6.8 kmh NE 9.4 mph15.1 kmh 30.47 in1031.8 mb 0.00 in0.0 mm 0.00 in0.0 mm 0.38 in9.7 mm
03:22 PM 43.3°F6.3°C 38.2°F3.4°C 82% 6.8 mph ENE10.9 kmh ENE 9.4 mph15.1 kmh 30.47 in1031.8 mb 0.00 in0.0 mm 0.00 in0.0 mm 0.38 in9.7 mm
03:23 PM 43.2°F6.2°C 38.1°F3.4°C 82% 7.8 mph NNE12.6 kmh NNE 9.4 mph15.1 kmh 30.47 in1031.8 mb 0.00 in0.0 mm 0.00 in0.0 mm 0.38 in9.7 mm
03:24 PM 43.2°F6.2°C 38.1°F3.4°C 82% 5.8 mph NE9.3 kmh NE 9.4 mph15.1 kmh 30.47 in1031.8 mb 0.01 in0.3 mm 0.60 in15.2 mm 0.39 in9.9 mm
03:25 PM 43.0°F6.1°C 37.9°F3.3°C 82% 4.7 mph NE7.6 kmh NE 9.4 mph15.1 kmh 30.47 in1031.8 mb 0.01 in0.3 mm 0.00 in0.0 mm 0.39 in9.9 mm
03:26 PM 42.8°F6.0°C 38.0°F3.3°C 83% 4.2 mph ESE6.8 kmh ESE 9.4 mph15.1 kmh 30.47 in1031.8 mb 0.01 in0.3 mm 0.00 in0.0 mm 0.39 in9.9 mm
03:27 PM 42.8°F6.0°C 38.3°F3.5°C 84% 2.2 mph ESE3.5 kmh ESE 9.4 mph15.1 kmh 30.47 in1031.8 mb 0.02 in0.5 mm 0.60 in15.2 mm 0.40 in10.2 mm
03:28 PM 42.8°F6.0°C 38.3°F3.5°C 84% 6.3 mph W10.1 kmh W 9.4 mph15.1 kmh 30.47 in1031.8 mb 0.02 in0.5 mm 0.00 in0.0 mm 0.40 in10.2 mm
03:29 PM 42.8°F6.0°C 38.3°F3.5°C 84% 2.7 mph NE4.3 kmh NE 9.4 mph15.1 kmh 30.47 in1031.8 mb 0.02 in0.5 mm 0.00 in0.0 mm 0.40 in10.2 mm
03:30 PM 42.8°F6.0°C 38.6°F3.7°C 85% 5.3 mph NE8.5 kmh NE 7.8 mph12.6 kmh 30.48 in1032.2 mb 0.02 in0.5 mm 0.00 in0.0 mm 0.40 in10.2 mm
03:31 PM 42.6°F5.9°C 38.4°F3.6°C 85% 6.8 mph NE10.9 kmh NE 7.8 mph12.6 kmh 30.48 in1032.2 mb 0.02 in0.5 mm 0.00 in0.0 mm 0.40 in10.2 mm
03:32 PM 42.6°F5.9°C 38.4°F3.6°C 85% 2.7 mph SSW4.3 kmh SSW 7.8 mph12.6 kmh 30.48 in1032.2 mb 0.02 in0.5 mm 0.00 in0.0 mm 0.40 in10.2 mm
03:33 PM 42.6°F5.9°C 38.4°F3.6°C 85% 4.7 mph NNE7.6 kmh NNE 6.8 mph10.9 kmh 30.48 in1032.2 mb 0.02 in0.5 mm 0.00 in0.0 mm 0.40 in10.2 mm
03:34 PM 42.6°F5.9°C 38.4°F3.6°C 85% 7.3 mph NE11.7 kmh NE 7.8 mph12.6 kmh 30.48 in1032.2 mb 0.02 in0.5 mm 0.00 in0.0 mm 0.40 in10.2 mm
03:35 PM 42.6°F5.9°C 38.4°F3.6°C 85% 2.2 mph N3.5 kmh N 7.8 mph12.6 kmh 30.48 in1032.2 mb 0.02 in0.5 mm 0.00 in0.0 mm 0.40 in10.2 mm
03:36 PM 42.6°F5.9°C 38.1°F3.4°C 84% 3.7 mph ESE6.0 kmh ESE 7.8 mph12.6 kmh 30.48 in1032.2 mb 0.02 in0.5 mm 0.00 in0.0 mm 0.40 in10.2 mm
03:37 PM 42.6°F5.9°C 38.1°F3.4°C 84% 4.7 mph ESE7.6 kmh ESE 7.8 mph12.6 kmh 30.48 in1032.2 mb 0.02 in0.5 mm 0.00 in0.0 mm 0.40 in10.2 mm
03:38 PM 42.6°F5.9°C 38.1°F3.4°C 84% 4.7 mph NNE7.6 kmh NNE 7.8 mph12.6 kmh 30.48 in1032.2 mb 0.02 in0.5 mm 0.00 in0.0 mm 0.40 in10.2 mm
03:39 PM 42.6°F5.9°C 38.1°F3.4°C 84% 5.8 mph NNE9.3 kmh NNE 7.8 mph12.6 kmh 30.48 in1032.2 mb 0.02 in0.5 mm 0.00 in0.0 mm 0.40 in10.2 mm
03:40 PM 42.6°F5.9°C 38.1°F3.4°C 84% 2.7 mph NNW4.3 kmh NNW 7.8 mph12.6 kmh 30.48 in1032.2 mb 0.02 in0.5 mm 0.00 in0.0 mm 0.40 in10.2 mm
03:41 PM 43.0°F6.1°C 38.5°F3.6°C 84% 2.7 mph ENE4.3 kmh ENE 7.8 mph12.6 kmh 30.48 in1032.2 mb 0.02 in0.5 mm 0.00 in0.0 mm 0.40 in10.2 mm
03:42 PM 43.0°F6.1°C 38.5°F3.6°C 84% 3.7 mph NE6.0 kmh NE 7.8 mph12.6 kmh 30.48 in1032.2 mb 0.02 in0.5 mm 0.00 in0.0 mm 0.40 in10.2 mm
03:43 PM 43.0°F6.1°C 38.5°F3.6°C 84% 3.2 mph NW5.1 kmh NW 7.8 mph12.6 kmh 30.48 in1032.2 mb 0.02 in0.5 mm 0.00 in0.0 mm 0.40 in10.2 mm
03:44 PM 43.2°F6.2°C 39.0°F3.9°C 85% 3.7 mph SSE6.0 kmh SSE 7.3 mph11.7 kmh 30.48 in1032.2 mb 0.02 in0.5 mm 0.00 in0.0 mm 0.40 in10.2 mm
03:45 PM 43.2°F6.2°C 39.0°F3.9°C 85% 2.2 mph ESE3.5 kmh ESE 7.3 mph11.7 kmh 30.48 in1032.2 mb 0.02 in0.5 mm 0.00 in0.0 mm 0.40 in10.2 mm
03:46 PM 43.2°F6.2°C 39.0°F3.9°C 85% 4.7 mph SSE7.6 kmh SSE 6.8 mph10.9 kmh 30.48 in1032.2 mb 0.02 in0.5 mm 0.00 in0.0 mm 0.40 in10.2 mm
03:47 PM 43.2°F6.2°C 38.7°F3.7°C 84% 3.7 mph NE6.0 kmh NE 6.8 mph10.9 kmh 30.48 in1032.2 mb 0.02 in0.5 mm 0.00 in0.0 mm 0.40 in10.2 mm
03:48 PM 43.2°F6.2°C 38.7°F3.7°C 84% 2.7 mph NNE4.3 kmh NNE 6.8 mph10.9 kmh 30.48 in1032.2 mb 0.02 in0.5 mm 0.00 in0.0 mm 0.40 in10.2 mm
03:49 PM 43.3°F6.3°C 38.8°F3.8°C 84% 2.2 mph NW3.5 kmh NW 7.3 mph11.7 kmh 30.48 in1032.2 mb 0.02 in0.5 mm 0.00 in0.0 mm 0.40 in10.2 mm
03:50 PM 43.3°F6.3°C 39.1°F3.9°C 85% 2.2 mph NE3.5 kmh NE 7.3 mph11.7 kmh 30.48 in1032.2 mb 0.02 in0.5 mm 0.00 in0.0 mm 0.40 in10.2 mm
03:51 PM 43.3°F6.3°C 39.1°F3.9°C 85% 2.2 mph NNW3.5 kmh NNW 7.3 mph11.7 kmh 30.48 in1032.2 mb 0.02 in0.5 mm 0.00 in0.0 mm 0.40 in10.2 mm
03:52 PM 43.5°F6.4°C 39.6°F4.2°C 86% 2.7 mph ESE4.3 kmh ESE 7.3 mph11.7 kmh 30.48 in1032.2 mb 0.02 in0.5 mm 0.00 in0.0 mm 0.40 in10.2 mm
03:53 PM 43.5°F6.4°C 39.6°F4.2°C 86% 2.7 mph NE4.3 kmh NE 7.3 mph11.7 kmh 30.48 in1032.2 mb 0.02 in0.5 mm 0.00 in0.0 mm 0.40 in10.2 mm
03:54 PM 43.5°F6.4°C 39.0°F3.9°C 84% 1.1 mph ESE1.8 kmh ESE 7.3 mph11.7 kmh 30.49 in1032.5 mb 0.02 in0.5 mm 0.00 in0.0 mm 0.40 in10.2 mm
03:55 PM 43.5°F6.4°C 39.0°F3.9°C 84% 4.7 mph NNE7.6 kmh NNE 7.3 mph11.7 kmh 30.49 in1032.5 mb 0.02 in0.5 mm 0.00 in0.0 mm 0.40 in10.2 mm
03:56 PM 43.5°F6.4°C 39.0°F3.9°C 84% 2.2 mph SSE3.5 kmh SSE 7.3 mph11.7 kmh 30.49 in1032.5 mb 0.02 in0.5 mm 0.00 in0.0 mm 0.40 in10.2 mm
03:57 PM 43.5°F6.4°C 39.0°F3.9°C 84% 3.7 mph E6.0 kmh E 7.3 mph11.7 kmh 30.49 in1032.5 mb 0.02 in0.5 mm 0.00 in0.0 mm 0.40 in10.2 mm
03:58 PM 43.5°F6.4°C 39.0°F3.9°C 84% 3.2 mph NE5.1 kmh NE 7.3 mph11.7 kmh 30.49 in1032.5 mb 0.02 in0.5 mm 0.00 in0.0 mm 0.40 in10.2 mm
03:59 PM 43.5°F6.4°C 39.0°F3.9°C 84% 3.7 mph ESE6.0 kmh ESE 5.3 mph8.5 kmh 30.49 in1032.5 mb 0.02 in0.5 mm 0.00 in0.0 mm 0.40 in10.2 mm
04:00 PM 43.5°F6.4°C 39.0°F3.9°C 84% 3.7 mph ESE6.0 kmh ESE 5.3 mph8.5 kmh 30.49 in1032.5 mb 0.02 in0.5 mm 0.00 in0.0 mm 0.40 in10.2 mm
04:01 PM 43.5°F6.4°C 38.7°F3.7°C 83% 3.7 mph NNE6.0 kmh NNE 5.3 mph8.5 kmh 30.49 in1032.5 mb 0.02 in0.5 mm 0.00 in0.0 mm 0.40 in10.2 mm
04:02 PM 43.5°F6.4°C 38.7°F3.7°C 83% 2.2 mph NE3.5 kmh NE 5.3 mph8.5 kmh 30.49 in1032.5 mb 0.02 in0.5 mm 0.00 in0.0 mm 0.40 in10.2 mm
04:03 PM 43.5°F6.4°C 39.0°F3.9°C 84% 4.2 mph NNE6.8 kmh NNE 4.7 mph7.6 kmh 30.49 in1032.5 mb 0.02 in0.5 mm 0.00 in0.0 mm 0.40 in10.2 mm
04:04 PM 43.5°F6.4°C 39.0°F3.9°C 84% 4.7 mph NNW7.6 kmh NNW 5.8 mph9.3 kmh 30.49 in1032.5 mb 0.02 in0.5 mm 0.00 in0.0 mm 0.40 in10.2 mm
04:05 PM 43.5°F6.4°C 39.0°F3.9°C 84% 4.7 mph NE7.6 kmh NE 5.8 mph9.3 kmh 30.49 in1032.5 mb 0.02 in0.5 mm 0.00 in0.0 mm 0.40 in10.2 mm
04:06 PM 43.5°F6.4°C 39.0°F3.9°C 84% 3.2 mph ESE5.1 kmh ESE 5.8 mph9.3 kmh 30.50 in1032.8 mb 0.02 in0.5 mm 0.00 in0.0 mm 0.40 in10.2 mm
04:07 PM 43.5°F6.4°C 39.0°F3.9°C 84% 3.2 mph NNE5.1 kmh NNE 5.8 mph9.3 kmh 30.50 in1032.8 mb 0.02 in0.5 mm 0.00 in0.0 mm 0.40 in10.2 mm
04:08 PM 43.5°F6.4°C 39.0°F3.9°C 84% 2.2 mph ENE3.5 kmh ENE 5.8 mph9.3 kmh 30.50 in1032.8 mb 0.02 in0.5 mm 0.00 in0.0 mm 0.40 in10.2 mm
04:09 PM 43.5°F6.4°C 39.0°F3.9°C 84% 4.7 mph NNW7.6 kmh NNW 5.8 mph9.3 kmh 30.50 in1032.8 mb 0.02 in0.5 mm 0.00 in0.0 mm 0.40 in10.2 mm
04:10 PM 43.5°F6.4°C 39.0°F3.9°C 84% 2.7 mph NNE4.3 kmh NNE 5.8 mph9.3 kmh 30.50 in1032.8 mb 0.02 in0.5 mm 0.00 in0.0 mm 0.40 in10.2 mm
04:11 PM 43.5°F6.4°C 39.0°F3.9°C 84% 2.7 mph NNW4.3 kmh NNW 5.8 mph9.3 kmh 30.50 in1032.8 mb 0.02 in0.5 mm 0.00 in0.0 mm 0.40 in10.2 mm
04:12 PM 43.5°F6.4°C 39.0°F3.9°C 84% 4.2 mph E6.8 kmh E 5.8 mph9.3 kmh 30.50 in1032.8 mb 0.02 in0.5 mm 0.00 in0.0 mm 0.40 in10.2 mm
04:13 PM 43.5°F6.4°C 39.0°F3.9°C 84% 5.3 mph NNE8.5 kmh NNE 5.8 mph9.3 kmh 30.50 in1032.8 mb 0.02 in0.5 mm 0.00 in0.0 mm 0.40 in10.2 mm
04:14 PM 43.5°F6.4°C 39.0°F3.9°C 84% 3.7 mph WNW6.0 kmh WNW 5.3 mph8.5 kmh 30.50 in1032.8 mb 0.02 in0.5 mm 0.00 in0.0 mm 0.40 in10.2 mm
04:15 PM 43.5°F6.4°C 39.0°F3.9°C 84% 3.7 mph ESE6.0 kmh ESE 5.3 mph8.5 kmh 30.50 in1032.8 mb 0.02 in0.5 mm 0.00 in0.0 mm 0.40 in10.2 mm
04:16 PM 43.5°F6.4°C 39.0°F3.9°C 84% 2.2 mph NE3.5 kmh NE 5.3 mph8.5 kmh 30.50 in1032.8 mb 0.02 in0.5 mm 0.00 in0.0 mm 0.40 in10.2 mm
04:17 PM 43.5°F6.4°C 39.0°F3.9°C 84% 3.7 mph NNE6.0 kmh NNE 5.3 mph8.5 kmh 30.50 in1032.8 mb 0.02 in0.5 mm 0.00 in0.0 mm 0.40 in10.2 mm
04:18 PM 43.5°F6.4°C 39.0°F3.9°C 84% 4.7 mph NNE7.6 kmh NNE 5.3 mph8.5 kmh 30.50 in1032.8 mb 0.02 in0.5 mm 0.00 in0.0 mm 0.40 in10.2 mm
04:19 PM 43.5°F6.4°C 39.0°F3.9°C 84% 4.2 mph N6.8 kmh N 5.3 mph8.5 kmh 30.50 in1032.8 mb 0.02 in0.5 mm 0.00 in0.0 mm 0.40 in10.2 mm
04:20 PM 43.5°F6.4°C 38.7°F3.7°C 83% 2.7 mph NE4.3 kmh NE 5.3 mph8.5 kmh 30.50 in1032.8 mb 0.02 in0.5 mm 0.00 in0.0 mm 0.40 in10.2 mm
04:21 PM 43.5°F6.4°C 38.7°F3.7°C 83% 2.2 mph NE3.5 kmh NE 5.3 mph8.5 kmh 30.50 in1032.8 mb 0.02 in0.5 mm 0.00 in0.0 mm 0.40 in10.2 mm
04:22 PM 43.5°F6.4°C 38.7°F3.7°C 83% 3.2 mph ENE5.1 kmh ENE 5.3 mph8.5 kmh 30.50 in1032.8 mb 0.02 in0.5 mm 0.00 in0.0 mm 0.40 in10.2 mm
04:23 PM 43.5°F6.4°C 38.7°F3.7°C 83% Calm Calm 5.3 mph8.5 kmh 30.50 in1032.8 mb 0.02 in0.5 mm 0.00 in0.0 mm 0.40 in10.2 mm
04:24 PM 43.5°F6.4°C 39.0°F3.9°C 84% 3.2 mph E5.1 kmh E 5.3 mph8.5 kmh 30.50 in1032.8 mb 0.02 in0.5 mm 0.00 in0.0 mm 0.40 in10.2 mm
04:25 PM 43.5°F6.4°C 39.0°F3.9°C 84% 3.2 mph WNW5.1 kmh WNW 5.3 mph8.5 kmh 30.50 in1032.8 mb 0.01 in0.3 mm 0.00 in0.0 mm 0.40 in10.2 mm
04:26 PM 43.5°F6.4°C 39.0°F3.9°C 84% 5.3 mph NE8.5 kmh NE 6.3 mph10.1 kmh 30.50 in1032.8 mb 0.01 in0.3 mm 0.00 in0.0 mm 0.40 in10.2 mm
04:27 PM 43.7°F6.5°C 39.2°F4.0°C 84% 2.7 mph NNE4.3 kmh NNE 6.3 mph10.1 kmh 30.50 in1032.8 mb 0.00 in0.0 mm 0.00 in0.0 mm 0.40 in10.2 mm
04:28 PM 43.7°F6.5°C 39.2°F4.0°C 84% 7.3 mph N11.7 kmh N 7.3 mph11.7 kmh 30.50 in1032.8 mb 0.00 in0.0 mm 0.00 in0.0 mm 0.40 in10.2 mm
04:29 PM 43.7°F6.5°C 38.9°F3.8°C 83% 6.3 mph NNE10.1 kmh NNE 7.3 mph11.7 kmh 30.50 in1032.8 mb 0.00 in0.0 mm 0.00 in0.0 mm 0.40 in10.2 mm
04:30 PM 43.7°F6.5°C 38.9°F3.8°C 83% 3.7 mph NNE6.0 kmh NNE 7.3 mph11.7 kmh 30.50 in1032.8 mb 0.00 in0.0 mm 0.00 in0.0 mm 0.40 in10.2 mm
04:31 PM 43.7°F6.5°C 38.6°F3.7°C 82% 5.8 mph NNE9.3 kmh NNE 7.3 mph11.7 kmh 30.50 in1032.8 mb 0.00 in0.0 mm 0.00 in0.0 mm 0.40 in10.2 mm
04:32 PM 43.7°F6.5°C 38.6°F3.7°C 82% 2.7 mph ENE4.3 kmh ENE 7.3 mph11.7 kmh 30.50 in1032.8 mb 0.00 in0.0 mm 0.00 in0.0 mm 0.40 in10.2 mm
04:33 PM 43.7°F6.5°C 38.6°F3.7°C 82% 3.7 mph NNE6.0 kmh NNE 7.3 mph11.7 kmh 30.50 in1032.8 mb 0.00 in0.0 mm 0.00 in0.0 mm 0.40 in10.2 mm
04:34 PM 43.7°F6.5°C 38.9°F3.8°C 83% 3.2 mph NNE5.1 kmh NNE 7.3 mph11.7 kmh 30.50 in1032.8 mb 0.00 in0.0 mm 0.00 in0.0 mm 0.40 in10.2 mm
04:35 PM 43.7°F6.5°C 38.9°F3.8°C 83% 1.1 mph W1.8 kmh W 7.3 mph11.7 kmh 30.50 in1032.8 mb 0.00 in0.0 mm 0.00 in0.0 mm 0.40 in10.2 mm
04:36 PM 43.7°F6.5°C 38.9°F3.8°C 83% 6.8 mph N10.9 kmh N 7.3 mph11.7 kmh 30.50 in1032.8 mb 0.00 in0.0 mm 0.00 in0.0 mm 0.40 in10.2 mm
04:37 PM 43.7°F6.5°C 38.3°F3.5°C 81% 7.3 mph NNE11.7 kmh NNE 7.3 mph11.7 kmh 30.50 in1032.8 mb 0.00 in0.0 mm 0.00 in0.0 mm 0.40 in10.2 mm
04:38 PM 43.7°F6.5°C 38.3°F3.5°C 81% 4.7 mph NNE7.6 kmh NNE 7.3 mph11.7 kmh 30.50 in1032.8 mb 0.00 in0.0 mm 0.00 in0.0 mm 0.40 in10.2 mm
04:39 PM 43.7°F6.5°C 38.3°F3.5°C 81% 6.3 mph NNE10.1 kmh NNE 7.3 mph11.7 kmh 30.50 in1032.8 mb 0.00 in0.0 mm 0.00 in0.0 mm 0.40 in10.2 mm
04:40 PM 43.7°F6.5°C 38.3°F3.5°C 81% 3.2 mph NNW5.1 kmh NNW 7.3 mph11.7 kmh 30.50 in1032.8 mb 0.00 in0.0 mm 0.00 in0.0 mm 0.40 in10.2 mm
04:41 PM 43.7°F6.5°C 38.3°F3.5°C 81% 3.7 mph NNE6.0 kmh NNE 7.3 mph11.7 kmh 30.50 in1032.8 mb 0.00 in0.0 mm 0.00 in0.0 mm 0.40 in10.2 mm
04:42 PM 43.7°F6.5°C 38.3°F3.5°C 81% 3.7 mph NE6.0 kmh NE 7.3 mph11.7 kmh 30.51 in1033.2 mb 0.00 in0.0 mm 0.00 in0.0 mm 0.40 in10.2 mm
04:43 PM 43.7°F6.5°C 38.3°F3.5°C 81% 3.7 mph N6.0 kmh N 7.3 mph11.7 kmh 30.51 in1033.2 mb 0.00 in0.0 mm 0.00 in0.0 mm 0.40 in10.2 mm
04:44 PM 43.7°F6.5°C 37.9°F3.3°C 80% 4.7 mph N7.6 kmh N 7.3 mph11.7 kmh 30.51 in1033.2 mb 0.00 in0.0 mm 0.00 in0.0 mm 0.40 in10.2 mm
04:45 PM 43.7°F6.5°C 37.6°F3.1°C 79% 4.2 mph NNE6.8 kmh NNE 7.3 mph11.7 kmh 30.51 in1033.2 mb 0.00 in0.0 mm 0.00 in0.0 mm 0.40 in10.2 mm
04:46 PM 43.7°F6.5°C 37.6°F3.1°C 79% 4.7 mph NW7.6 kmh NW 7.3 mph11.7 kmh 30.51 in1033.2 mb 0.00 in0.0 mm 0.00 in0.0 mm 0.40 in10.2 mm
04:47 PM 43.7°F6.5°C 37.9°F3.3°C 80% 4.7 mph NNE7.6 kmh NNE 7.3 mph11.7 kmh 30.51 in1033.2 mb 0.00 in0.0 mm 0.00 in0.0 mm 0.40 in10.2 mm
04:48 PM 43.7°F6.5°C 37.6°F3.1°C 79% 5.3 mph NE8.5 kmh NE 6.8 mph10.9 kmh 30.51 in1033.2 mb 0.00 in0.0 mm 0.00 in0.0 mm 0.40 in10.2 mm
04:49 PM 43.7°F6.5°C 37.9°F3.3°C 80% 3.2 mph NNE5.1 kmh NNE 6.8 mph10.9 kmh 30.51 in1033.2 mb 0.00 in0.0 mm 0.00 in0.0 mm 0.40 in10.2 mm
04:50 PM 43.5°F6.4°C 37.4°F3.0°C 79% 3.2 mph NNE5.1 kmh NNE 6.8 mph10.9 kmh 30.51 in1033.2 mb 0.00 in0.0 mm 0.00 in0.0 mm 0.40 in10.2 mm
04:51 PM 43.5°F6.4°C 37.4°F3.0°C 79% 3.7 mph NNE6.0 kmh NNE 6.8 mph10.9 kmh 30.51 in1033.2 mb 0.00 in0.0 mm 0.00 in0.0 mm 0.40 in10.2 mm
04:52 PM 43.5°F6.4°C 37.4°F3.0°C 79% 6.8 mph NE10.9 kmh NE 6.8 mph10.9 kmh 30.51 in1033.2 mb 0.00 in0.0 mm 0.00 in0.0 mm 0.40 in10.2 mm
04:53 PM 43.5°F6.4°C 37.4°F3.0°C 79% 2.7 mph NE4.3 kmh NE 6.8 mph10.9 kmh 30.51 in1033.2 mb 0.00 in0.0 mm 0.00 in0.0 mm 0.40 in10.2 mm
04:54 PM 43.5°F6.4°C 37.4°F3.0°C 79% 5.8 mph NE9.3 kmh NE 6.8 mph10.9 kmh 30.52 in1033.5 mb 0.00 in0.0 mm 0.00 in0.0 mm 0.40 in10.2 mm
04:55 PM 43.5°F6.4°C 37.4°F3.0°C 79% 3.2 mph E5.1 kmh E 6.8 mph10.9 kmh 30.52 in1033.5 mb 0.00 in0.0 mm 0.00 in0.0 mm 0.40 in10.2 mm
04:56 PM 43.5°F6.4°C 37.4°F3.0°C 79% 2.7 mph NE4.3 kmh NE 6.8 mph10.9 kmh 30.52 in1033.5 mb 0.00 in0.0 mm 0.00 in0.0 mm 0.40 in10.2 mm
04:57 PM 43.5°F6.4°C 37.4°F3.0°C 79% 4.7 mph NNE7.6 kmh NNE 6.8 mph10.9 kmh 30.52 in1033.5 mb 0.00 in0.0 mm 0.00 in0.0 mm 0.40 in10.2 mm
04:58 PM 43.5°F6.4°C 37.4°F3.0°C 79% 3.7 mph NNE6.0 kmh NNE 6.8 mph10.9 kmh 30.52 in1033.5 mb 0.00 in0.0 mm 0.00 in0.0 mm 0.40 in10.2 mm
04:59 PM 43.5°F6.4°C 37.4°F3.0°C 79% 6.3 mph NNE10.1 kmh NNE 6.8 mph10.9 kmh 30.52 in1033.5 mb 0.00 in0.0 mm 0.00 in0.0 mm 0.40 in10.2 mm
05:00 PM 43.5°F6.4°C 37.1°F2.8°C 78% 3.7 mph NNE6.0 kmh NNE 6.8 mph10.9 kmh 30.52 in1033.5 mb 0.00 in0.0 mm 0.00 in0.0 mm 0.40 in10.2 mm
05:01 PM 43.5°F6.4°C 37.1°F2.8°C 78% 3.7 mph NNE6.0 kmh NNE 6.8 mph10.9 kmh 30.52 in1033.5 mb 0.00 in0.0 mm 0.00 in0.0 mm 0.40 in10.2 mm
05:02 PM 43.5°F6.4°C 37.1°F2.8°C 78% 4.2 mph NE6.8 kmh NE 6.8 mph10.9 kmh 30.52 in1033.5 mb 0.00 in0.0 mm 0.00 in0.0 mm 0.40 in10.2 mm
05:03 PM 43.5°F6.4°C 37.1°F2.8°C 78% 3.2 mph NNE5.1 kmh NNE 6.3 mph10.1 kmh 30.52 in1033.5 mb 0.00 in0.0 mm 0.00 in0.0 mm 0.40 in10.2 mm
05:04 PM 43.5°F6.4°C 37.1°F2.8°C 78% 2.7 mph ESE4.3 kmh ESE 6.3 mph10.1 kmh 30.52 in1033.5 mb 0.00 in0.0 mm 0.00 in0.0 mm 0.40 in10.2 mm
05:05 PM 43.5°F6.4°C 37.1°F2.8°C 78% 3.2 mph NE5.1 kmh NE 6.3 mph10.1 kmh 30.52 in1033.5 mb 0.00 in0.0 mm 0.00 in0.0 mm 0.40 in10.2 mm
05:06 PM 43.5°F6.4°C 37.4°F3.0°C 79% 3.7 mph NNE6.0 kmh NNE 6.3 mph10.1 kmh 30.52 in1033.5 mb 0.00 in0.0 mm 0.00 in0.0 mm 0.40 in10.2 mm
05:07 PM 43.5°F6.4°C 37.7°F3.2°C 80% 1.7 mph NNE2.7 kmh NNE 6.3 mph10.1 kmh 30.52 in1033.5 mb 0.00 in0.0 mm 0.00 in0.0 mm 0.40 in10.2 mm
05:08 PM 43.5°F6.4°C 37.7°F3.2°C 80% 2.7 mph NE4.3 kmh NE 6.3 mph10.1 kmh 30.52 in1033.5 mb 0.00 in0.0 mm 0.00 in0.0 mm 0.40 in10.2 mm
05:09 PM 43.5°F6.4°C 37.4°F3.0°C 79% 3.7 mph N6.0 kmh N 6.3 mph10.1 kmh 30.52 in1033.5 mb 0.00 in0.0 mm 0.00 in0.0 mm 0.40 in10.2 mm
05:10 PM 43.5°F6.4°C 37.4°F3.0°C 79% 3.2 mph SSW5.1 kmh SSW 6.3 mph10.1 kmh 30.52 in1033.5 mb 0.00 in0.0 mm 0.00 in0.0 mm 0.40 in10.2 mm
05:11 PM 43.5°F6.4°C 37.4°F3.0°C 79% 4.7 mph SSW7.6 kmh SSW 6.3 mph10.1 kmh 30.52 in1033.5 mb 0.00 in0.0 mm 0.00 in0.0 mm 0.40 in10.2 mm
05:12 PM 43.5°F6.4°C 37.4°F3.0°C 79% 6.3 mph NNE10.1 kmh NNE 6.3 mph10.1 kmh 30.52 in1033.5 mb 0.00 in0.0 mm 0.00 in0.0 mm 0.40 in10.2 mm
05:13 PM 43.5°F6.4°C 37.4°F3.0°C 79% 4.7 mph NNE7.6 kmh NNE 6.3 mph10.1 kmh 30.52 in1033.5 mb 0.00 in0.0 mm 0.00 in0.0 mm 0.40 in10.2 mm
05:14 PM 43.5°F6.4°C 37.4°F3.0°C 79% 4.2 mph NE6.8 kmh NE 6.3 mph10.1 kmh 30.52 in1033.5 mb 0.00 in0.0 mm 0.00 in0.0 mm 0.40 in10.2 mm
05:15 PM 43.5°F6.4°C 37.4°F3.0°C 79% 5.3 mph N8.5 kmh N 6.3 mph10.1 kmh 30.52 in1033.5 mb 0.00 in0.0 mm 0.00 in0.0 mm 0.40 in10.2 mm
05:16 PM 43.5°F6.4°C 37.4°F3.0°C 79% 6.3 mph NNE10.1 kmh NNE 6.3 mph10.1 kmh 30.52 in1033.5 mb 0.00 in0.0 mm 0.00 in0.0 mm 0.40 in10.2 mm
05:17 PM 43.5°F6.4°C 37.4°F3.0°C 79% 4.2 mph NNE6.8 kmh NNE 6.3 mph10.1 kmh 30.52 in1033.5 mb 0.00 in0.0 mm 0.00 in0.0 mm 0.40 in10.2 mm
05:18 PM 43.5°F6.4°C 37.4°F3.0°C 79% 4.2 mph ESE6.8 kmh ESE 6.3 mph10.1 kmh 30.53 in1033.9 mb 0.00 in0.0 mm 0.00 in0.0 mm 0.40 in10.2 mm
05:19 PM 43.5°F6.4°C 37.7°F3.2°C 80% 3.2 mph NNE5.1 kmh NNE 6.3 mph10.1 kmh 30.53 in1033.9 mb 0.00 in0.0 mm 0.00 in0.0 mm 0.40 in10.2 mm
05:20 PM 43.5°F6.4°C 37.7°F3.2°C 80% 3.2 mph NNE5.1 kmh NNE 6.3 mph10.1 kmh 30.53 in1033.9 mb 0.00 in0.0 mm 0.00 in0.0 mm 0.40 in10.2 mm
05:25 PM 43.2°F6.2°C 37.1°F2.8°C 79% 2.7 mph NNE4.3 kmh NNE 6.3 mph10.1 kmh 30.53 in1033.9 mb 0.00 in0.0 mm 0.00 in0.0 mm 0.40 in10.2 mm
05:26 PM 43.2°F6.2°C 37.1°F2.8°C 79% 2.7 mph ESE4.3 kmh ESE 6.3 mph10.1 kmh 30.53 in1033.9 mb 0.00 in0.0 mm 0.00 in0.0 mm 0.40 in10.2 mm
05:27 PM 43.2°F6.2°C 37.1°F2.8°C 79% 3.7 mph NNE6.0 kmh NNE 4.7 mph7.6 kmh 30.53 in1033.9 mb 0.00 in0.0 mm 0.00 in0.0 mm 0.40 in10.2 mm
05:28 PM 43.2°F6.2°C 37.1°F2.8°C 79% 2.7 mph NE4.3 kmh NE 4.2 mph6.8 kmh 30.53 in1033.9 mb 0.00 in0.0 mm 0.00 in0.0 mm 0.40 in10.2 mm
05:29 PM 43.2°F6.2°C 37.1°F2.8°C 79% 3.7 mph N6.0 kmh N 5.8 mph9.3 kmh 30.53 in1033.9 mb 0.00 in0.0 mm 0.00 in0.0 mm 0.40 in10.2 mm
05:30 PM 43.2°F6.2°C 37.1°F2.8°C 79% 4.2 mph NNE6.8 kmh NNE 5.8 mph9.3 kmh 30.54 in1034.2 mb 0.00 in0.0 mm 0.00 in0.0 mm 0.40 in10.2 mm
05:31 PM 43.2°F6.2°C 37.1°F2.8°C 79% 4.7 mph NNW7.6 kmh NNW 5.8 mph9.3 kmh 30.54 in1034.2 mb 0.00 in0.0 mm 0.00 in0.0 mm 0.40 in10.2 mm
05:32 PM 43.2°F6.2°C 37.1°F2.8°C 79% 3.7 mph NNE6.0 kmh NNE 5.8 mph9.3 kmh 30.54 in1034.2 mb 0.00 in0.0 mm 0.00 in0.0 mm 0.40 in10.2 mm
05:33 PM 43.2°F6.2°C 37.1°F2.8°C 79% 5.3 mph NE8.5 kmh NE 5.8 mph9.3 kmh 30.54 in1034.2 mb 0.00 in0.0 mm 0.00 in0.0 mm 0.40 in10.2 mm
05:34 PM 43.2°F6.2°C 37.1°F2.8°C 79% 5.3 mph NNE8.5 kmh NNE 5.8 mph9.3 kmh 30.54 in1034.2 mb 0.00 in0.0 mm 0.00 in0.0 mm 0.40 in10.2 mm
05:35 PM 43.2°F6.2°C 37.1°F2.8°C 79% 4.7 mph NNE7.6 kmh NNE 5.8 mph9.3 kmh 30.54 in1034.2 mb 0.00 in0.0 mm 0.00 in0.0 mm 0.40 in10.2 mm
05:36 PM 43.2°F6.2°C 37.1°F2.8°C 79% 5.3 mph NNW8.5 kmh NNW 5.8 mph9.3 kmh 30.54 in1034.2 mb 0.00 in0.0 mm 0.00 in0.0 mm 0.40 in10.2 mm
05:37 PM 43.2°F6.2°C 37.1°F2.8°C 79% 3.7 mph NE6.0 kmh NE 5.8 mph9.3 kmh 30.54 in1034.2 mb 0.00 in0.0 mm 0.00 in0.0 mm 0.40 in10.2 mm
05:38 PM 43.2°F6.2°C 37.1°F2.8°C 79% 4.2 mph NNE6.8 kmh NNE 5.8 mph9.3 kmh 30.54 in1034.2 mb 0.00 in0.0 mm 0.00 in0.0 mm 0.40 in10.2 mm
05:39 PM 43.2°F6.2°C 37.1°F2.8°C 79% 3.7 mph NNE6.0 kmh NNE 5.3 mph8.5 kmh 30.54 in1034.2 mb 0.00 in0.0 mm 0.00 in0.0 mm 0.40 in10.2 mm
05:40 PM 43.2°F6.2°C 37.1°F2.8°C 79% 4.2 mph NNE6.8 kmh NNE 5.3 mph8.5 kmh 30.54 in1034.2 mb 0.00 in0.0 mm 0.00 in0.0 mm 0.40 in10.2 mm
05:41 PM 43.2°F6.2°C 37.1°F2.8°C 79% 2.2 mph E3.5 kmh E 5.3 mph8.5 kmh 30.54 in1034.2 mb 0.00 in0.0 mm 0.00 in0.0 mm 0.40 in10.2 mm
05:42 PM 43.2°F6.2°C 37.1°F2.8°C 79% 4.7 mph NE7.6 kmh NE 5.3 mph8.5 kmh 30.55 in1034.5 mb 0.00 in0.0 mm 0.00 in0.0 mm 0.40 in10.2 mm
05:43 PM 43.2°F6.2°C 37.1°F2.8°C 79% 2.7 mph NE4.3 kmh NE 5.3 mph8.5 kmh 30.55 in1034.5 mb 0.00 in0.0 mm 0.00 in0.0 mm 0.40 in10.2 mm
05:44 PM 43.2°F6.2°C 37.1°F2.8°C 79% 2.7 mph ENE4.3 kmh ENE 5.3 mph8.5 kmh 30.55 in1034.5 mb 0.00 in0.0 mm 0.00 in0.0 mm 0.40 in10.2 mm
05:45 PM 43.2°F6.2°C 37.5°F3.1°C 80% 5.3 mph N8.5 kmh N 5.3 mph8.5 kmh 30.55 in1034.5 mb 0.00 in0.0 mm 0.00 in0.0 mm 0.40 in10.2 mm
05:46 PM 43.2°F6.2°C 37.5°F3.1°C 80% 3.7 mph NNE6.0 kmh NNE 5.8 mph9.3 kmh 30.55 in1034.5 mb 0.00 in0.0 mm 0.00 in0.0 mm 0.40 in10.2 mm
05:47 PM 43.2°F6.2°C 37.1°F2.8°C 79% 4.2 mph NNE6.8 kmh NNE 5.8 mph9.3 kmh 30.55 in1034.5 mb 0.00 in0.0 mm 0.00 in0.0 mm 0.40 in10.2 mm
05:48 PM 43.2°F6.2°C 37.5°F3.1°C 80% 4.7 mph NE7.6 kmh NE 5.8 mph9.3 kmh 30.55 in1034.5 mb 0.00 in0.0 mm 0.00 in0.0 mm 0.40 in10.2 mm
05:49 PM 43.2°F6.2°C 37.1°F2.8°C 79% 3.7 mph NNE6.0 kmh NNE 5.8 mph9.3 kmh 30.55 in1034.5 mb 0.00 in0.0 mm 0.00 in0.0 mm 0.40 in10.2 mm
05:50 PM 43.2°F6.2°C 37.1°F2.8°C 79% 3.2 mph WNW5.1 kmh WNW 5.8 mph9.3 kmh 30.55 in1034.5 mb 0.00 in0.0 mm 0.00 in0.0 mm 0.40 in10.2 mm
05:51 PM 43.2°F6.2°C 37.5°F3.1°C 80% 2.2 mph NNE3.5 kmh NNE 5.8 mph9.3 kmh 30.55 in1034.5 mb 0.00 in0.0 mm 0.00 in0.0 mm 0.40 in10.2 mm
05:52 PM 43.2°F6.2°C 37.5°F3.1°C 80% 2.2 mph NNW3.5 kmh NNW 5.8 mph9.3 kmh 30.55 in1034.5 mb 0.00 in0.0 mm 0.00 in0.0 mm 0.40 in10.2 mm
05:53 PM 43.2°F6.2°C 37.5°F3.1°C 80% 4.2 mph NNE6.8 kmh NNE 5.8 mph9.3 kmh 30.54 in1034.2 mb 0.00 in0.0 mm 0.00 in0.0 mm 0.40 in10.2 mm
05:54 PM 43.0°F6.1°C 36.9°F2.7°C 79% 4.7 mph NE7.6 kmh NE 6.3 mph10.1 kmh 30.54 in1034.2 mb 0.00 in0.0 mm 0.00 in0.0 mm 0.40 in10.2 mm
05:55 PM 43.0°F6.1°C 36.9°F2.7°C 79% 2.7 mph NNW4.3 kmh NNW 6.3 mph10.1 kmh 30.54 in1034.2 mb 0.00 in0.0 mm 0.00 in0.0 mm 0.40 in10.2 mm
05:56 PM 43.0°F6.1°C 36.9°F2.7°C 79% 4.7 mph NE7.6 kmh NE 6.3 mph10.1 kmh 30.54 in1034.2 mb 0.00 in0.0 mm 0.00 in0.0 mm 0.40 in10.2 mm
05:57 PM 43.0°F6.1°C 36.9°F2.7°C 79% 4.2 mph NNE6.8 kmh NNE 6.3 mph10.1 kmh 30.54 in1034.2 mb 0.00 in0.0 mm 0.00 in0.0 mm 0.40 in10.2 mm
05:58 PM 43.0°F6.1°C 36.9°F2.7°C 79% 1.7 mph NNW2.7 kmh NNW 6.3 mph10.1 kmh 30.54 in1034.2 mb 0.00 in0.0 mm 0.00 in0.0 mm 0.40 in10.2 mm
05:59 PM 43.0°F6.1°C 36.9°F2.7°C 79% 6.3 mph NE10.1 kmh NE 6.3 mph10.1 kmh 30.54 in1034.2 mb 0.00 in0.0 mm 0.00 in0.0 mm 0.40 in10.2 mm
06:00 PM 43.0°F6.1°C 36.9°F2.7°C 79% 4.2 mph NE6.8 kmh NE 6.3 mph10.1 kmh 30.54 in1034.2 mb 0.00 in0.0 mm 0.00 in0.0 mm 0.40 in10.2 mm
06:01 PM 43.0°F6.1°C 36.9°F2.7°C 79% 4.2 mph NNE6.8 kmh NNE 6.3 mph10.1 kmh 30.54 in1034.2 mb 0.00 in0.0 mm 0.00 in0.0 mm 0.40 in10.2 mm
06:02 PM 43.0°F6.1°C 37.3°F2.9°C 80% 2.2 mph ENE3.5 kmh ENE 6.3 mph10.1 kmh 30.54 in1034.2 mb 0.00 in0.0 mm 0.00 in0.0 mm 0.40 in10.2 mm
06:03 PM 42.8°F6.0°C 37.1°F2.8°C 80% 2.2 mph N3.5 kmh N 6.3 mph10.1 kmh 30.54 in1034.2 mb 0.00 in0.0 mm 0.00 in0.0 mm 0.40 in10.2 mm
06:04 PM 42.8°F6.0°C 37.1°F2.8°C 80% 1.7 mph NE2.7 kmh NE 6.3 mph10.1 kmh 30.54 in1034.2 mb 0.00 in0.0 mm 0.00 in0.0 mm 0.40 in10.2 mm
06:05 PM 42.8°F6.0°C 37.4°F3.0°C 81% 2.7 mph NNE4.3 kmh NNE 6.3 mph10.1 kmh 30.55 in1034.5 mb 0.00 in0.0 mm 0.00 in0.0 mm 0.40 in10.2 mm
06:06 PM 42.6°F5.9°C 37.2°F2.9°C 81% 3.2 mph NNE5.1 kmh NNE 6.3 mph10.1 kmh 30.55 in1034.5 mb 0.00 in0.0 mm 0.00 in0.0 mm 0.40 in10.2 mm
06:07 PM 42.6°F5.9°C 37.2°F2.9°C 81% 2.2 mph NNW3.5 kmh NNW 6.3 mph10.1 kmh 30.55 in1034.5 mb 0.00 in0.0 mm 0.00 in0.0 mm 0.40 in10.2 mm
06:08 PM 42.6°F5.9°C 37.2°F2.9°C 81% 2.2 mph E3.5 kmh E 6.3 mph10.1 kmh 30.55 in1034.5 mb 0.00 in0.0 mm 0.00 in0.0 mm 0.40 in10.2 mm
06:09 PM 42.6°F5.9°C 37.2°F2.9°C 81% 1.1 mph ESE1.8 kmh ESE 6.3 mph10.1 kmh 30.55 in1034.5 mb 0.00 in0.0 mm 0.00 in0.0 mm 0.40 in10.2 mm
06:10 PM 42.6°F5.9°C 37.2°F2.9°C 81% 1.7 mph E2.7 kmh E 4.7 mph7.6 kmh 30.55 in1034.5 mb 0.00 in0.0 mm 0.00 in0.0 mm 0.40 in10.2 mm
06:11 PM 42.6°F5.9°C 37.2°F2.9°C 81% 2.2 mph NE3.5 kmh NE 4.7 mph7.6 kmh 30.55 in1034.5 mb 0.00 in0.0 mm 0.00 in0.0 mm 0.40 in10.2 mm
06:12 PM 42.4°F5.8°C 37.0°F2.8°C 81% 3.2 mph NNE5.1 kmh NNE 4.7 mph7.6 kmh 30.55 in1034.5 mb 0.00 in0.0 mm 0.00 in0.0 mm 0.40 in10.2 mm
06:13 PM 42.3°F5.7°C 36.9°F2.7°C 81% 2.7 mph NW4.3 kmh NW 4.7 mph7.6 kmh 30.55 in1034.5 mb 0.00 in0.0 mm 0.00 in0.0 mm 0.40 in10.2 mm
06:14 PM 42.3°F5.7°C 36.9°F2.7°C 81% 4.7 mph NNE7.6 kmh NNE 4.7 mph7.6 kmh 30.55 in1034.5 mb 0.00 in0.0 mm 0.00 in0.0 mm 0.40 in10.2 mm
06:15 PM 42.3°F5.7°C 36.9°F2.7°C 81% 3.2 mph S5.1 kmh S 4.7 mph7.6 kmh 30.55 in1034.5 mb 0.00 in0.0 mm 0.00 in0.0 mm 0.40 in10.2 mm
06:16 PM 42.3°F5.7°C 36.9°F2.7°C 81% 2.2 mph S3.5 kmh S 4.7 mph7.6 kmh 30.55 in1034.5 mb 0.00 in0.0 mm 0.00 in0.0 mm 0.40 in10.2 mm
06:17 PM 42.3°F5.7°C 36.9°F2.7°C 81% 2.7 mph NE4.3 kmh NE 4.7 mph7.6 kmh 30.56 in1034.9 mb 0.00 in0.0 mm 0.00 in0.0 mm 0.40 in10.2 mm
06:18 PM 42.1°F5.6°C 36.7°F2.6°C 81% 2.7 mph ESE4.3 kmh ESE 4.7 mph7.6 kmh 30.56 in1034.9 mb 0.00 in0.0 mm 0.00 in0.0 mm 0.40 in10.2 mm
06:19 PM 42.1°F5.6°C 36.7°F2.6°C 81% 1.7 mph NNE2.7 kmh NNE 4.7 mph7.6 kmh 30.56 in1034.9 mb 0.00 in0.0 mm 0.00 in0.0 mm 0.40 in10.2 mm
06:20 PM 42.1°F5.6°C 37.0°F2.8°C 82% 1.7 mph NE2.7 kmh NE 4.7 mph7.6 kmh 30.56 in1034.9 mb 0.00 in0.0 mm 0.00 in0.0 mm 0.40 in10.2 mm
06:21 PM 42.1°F5.6°C 37.0°F2.8°C 82% 1.7 mph ESE2.7 kmh ESE 4.7 mph7.6 kmh 30.56 in1034.9 mb 0.00 in0.0 mm 0.00 in0.0 mm 0.40 in10.2 mm
06:22 PM 42.1°F5.6°C 37.0°F2.8°C 82% 1.1 mph ESE1.8 kmh ESE 4.7 mph7.6 kmh 30.56 in1034.9 mb 0.00 in0.0 mm 0.00 in0.0 mm 0.40 in10.2 mm
06:23 PM 41.9°F5.5°C 36.8°F2.7°C 82% 2.2 mph ESE3.5 kmh ESE 4.7 mph7.6 kmh 30.56 in1034.9 mb 0.00 in0.0 mm 0.00 in0.0 mm 0.40 in10.2 mm
06:24 PM 41.9°F5.5°C 36.8°F2.7°C 82% 1.1 mph W1.8 kmh W 4.7 mph7.6 kmh 30.56 in1034.9 mb 0.00 in0.0 mm 0.00 in0.0 mm 0.40 in10.2 mm
06:25 PM 41.7°F5.4°C 36.6°F2.6°C 82% 1.1 mph W1.8 kmh W 3.2 mph5.1 kmh 30.56 in1034.9 mb 0.00 in0.0 mm 0.00 in0.0 mm 0.40 in10.2 mm
06:26 PM 41.7°F5.4°C 36.6°F2.6°C 82% 1.1 mph WNW1.8 kmh WNW 2.7 mph4.3 kmh 30.56 in1034.9 mb 0.00 in0.0 mm 0.00 in0.0 mm 0.40 in10.2 mm
06:27 PM 41.7°F5.4°C 36.9°F2.7°C 83% 1.1 mph ESE1.8 kmh ESE 2.7 mph4.3 kmh 30.56 in1034.9 mb 0.00 in0.0 mm 0.00 in0.0 mm 0.40 in10.2 mm
06:28 PM 41.7°F5.4°C 36.9°F2.7°C 83% 1.1 mph NNE1.8 kmh NNE 2.2 mph3.5 kmh 30.56 in1034.9 mb 0.00 in0.0 mm 0.00 in0.0 mm 0.40 in10.2 mm
06:29 PM 41.7°F5.4°C 36.9°F2.7°C 83% 2.7 mph NNE4.3 kmh NNE 4.2 mph6.8 kmh 30.57 in1035.2 mb 0.00 in0.0 mm 0.00 in0.0 mm 0.40 in10.2 mm
06:30 PM 41.5°F5.3°C 36.7°F2.6°C 83% 3.2 mph NNE5.1 kmh NNE 4.2 mph6.8 kmh 30.57 in1035.2 mb 0.00 in0.0 mm 0.00 in0.0 mm 0.40 in10.2 mm
06:31 PM 41.5°F5.3°C 36.7°F2.6°C 83% 2.7 mph N4.3 kmh N 4.2 mph6.8 kmh 30.57 in1035.2 mb 0.00 in0.0 mm 0.00 in0.0 mm 0.40 in10.2 mm
06:32 PM 41.5°F5.3°C 36.7°F2.6°C 83% 2.7 mph NNE4.3 kmh NNE 4.2 mph6.8 kmh 30.57 in1035.2 mb 0.00 in0.0 mm 0.00 in0.0 mm 0.40 in10.2 mm
06:33 PM 41.5°F5.3°C 36.7°F2.6°C 83% 1.7 mph N2.7 kmh N 4.2 mph6.8 kmh 30.57 in1035.2 mb 0.00 in0.0 mm 0.00 in0.0 mm 0.40 in10.2 mm
06:34 PM 41.5°F5.3°C 36.7°F2.6°C 83% 2.7 mph NE4.3 kmh NE 4.2 mph6.8 kmh 30.57 in1035.2 mb 0.00 in0.0 mm 0.00 in0.0 mm 0.40 in10.2 mm
06:35 PM 41.5°F5.3°C 36.7°F2.6°C 83% 1.7 mph NNE2.7 kmh NNE 4.2 mph6.8 kmh 30.57 in1035.2 mb 0.00 in0.0 mm 0.00 in0.0 mm 0.40 in10.2 mm
06:36 PM 41.5°F5.3°C 36.7°F2.6°C 83% Calm Calm 4.2 mph6.8 kmh 30.57 in1035.2 mb 0.00 in0.0 mm 0.00 in0.0 mm 0.40 in10.2 mm
06:37 PM 41.5°F5.3°C 36.7°F2.6°C 83% 1.7 mph NE2.7 kmh NE 4.2 mph6.8 kmh 30.57 in1035.2 mb 0.00 in0.0 mm 0.00 in0.0 mm 0.40 in10.2 mm
06:38 PM 41.5°F5.3°C 36.7°F2.6°C 83% 1.7 mph NNE2.7 kmh NNE 4.2 mph6.8 kmh 30.57 in1035.2 mb 0.00 in0.0 mm 0.00 in0.0 mm 0.40 in10.2 mm
06:39 PM 41.4°F5.2°C 36.9°F2.7°C 84% 1.7 mph NNE2.7 kmh NNE 3.7 mph6.0 kmh 30.57 in1035.2 mb 0.00 in0.0 mm 0.00 in0.0 mm 0.40 in10.2 mm
06:40 PM 41.4°F5.2°C 36.9°F2.7°C 84% 1.7 mph WNW2.7 kmh WNW 3.7 mph6.0 kmh 30.57 in1035.2 mb 0.00 in0.0 mm 0.00 in0.0 mm 0.40 in10.2 mm
06:41 PM 41.4°F5.2°C 36.9°F2.7°C 84% 1.1 mph NNE1.8 kmh NNE 3.7 mph6.0 kmh 30.57 in1035.2 mb 0.00 in0.0 mm 0.00 in0.0 mm 0.40 in10.2 mm
06:42 PM 41.4°F5.2°C 36.9°F2.7°C 84% 1.7 mph N2.7 kmh N 3.7 mph6.0 kmh 30.57 in1035.2 mb 0.00 in0.0 mm 0.00 in0.0 mm 0.40 in10.2 mm
06:43 PM 41.4°F5.2°C 36.9°F2.7°C 84% Calm Calm 3.7 mph6.0 kmh 30.57 in1035.2 mb 0.00 in0.0 mm 0.00 in0.0 mm 0.40 in10.2 mm
06:44 PM 41.4°F5.2°C 36.9°F2.7°C 84% 3.2 mph NNE5.1 kmh NNE 3.7 mph6.0 kmh 30.57 in1035.2 mb 0.00 in0.0 mm 0.00 in0.0 mm 0.40 in10.2 mm
06:45 PM 41.4°F5.2°C 36.9°F2.7°C 84% 1.1 mph S1.8 kmh S 3.7 mph6.0 kmh 30.57 in1035.2 mb 0.00 in0.0 mm 0.00 in0.0 mm 0.40 in10.2 mm
06:46 PM 41.4°F5.2°C 36.9°F2.7°C 84% 3.2 mph NNE5.1 kmh NNE 3.7 mph6.0 kmh 30.57 in1035.2 mb 0.00 in0.0 mm 0.00 in0.0 mm 0.40 in10.2 mm
06:47 PM 41.2°F5.1°C 36.7°F2.6°C 84% 2.2 mph NNE3.5 kmh NNE 3.7 mph6.0 kmh 30.57 in1035.2 mb 0.00 in0.0 mm 0.00 in0.0 mm 0.40 in10.2 mm
06:48 PM 41.2°F5.1°C 36.7°F2.6°C 84% 2.7 mph NE4.3 kmh NE 3.7 mph6.0 kmh 30.57 in1035.2 mb 0.00 in0.0 mm 0.00 in0.0 mm 0.40 in10.2 mm
06:49 PM 41.2°F5.1°C 36.7°F2.6°C 84% 2.2 mph ENE3.5 kmh ENE 3.7 mph6.0 kmh 30.57 in1035.2 mb 0.00 in0.0 mm 0.00 in0.0 mm 0.40 in10.2 mm
06:50 PM 41.2°F5.1°C 36.7°F2.6°C 84% 1.7 mph E2.7 kmh E 3.7 mph6.0 kmh 30.57 in1035.2 mb 0.00 in0.0 mm 0.00 in0.0 mm 0.40 in10.2 mm
06:51 PM 41.2°F5.1°C 36.7°F2.6°C 84% Calm Calm 3.7 mph6.0 kmh 30.57 in1035.2 mb 0.00 in0.0 mm 0.00 in0.0 mm 0.40 in10.2 mm
06:52 PM 41.2°F5.1°C 36.7°F2.6°C 84% Calm Calm 3.7 mph6.0 kmh 30.57 in1035.2 mb 0.00 in0.0 mm 0.00 in0.0 mm 0.40 in10.2 mm
06:53 PM 41.2°F5.1°C 36.7°F2.6°C 84% 2.2 mph NE3.5 kmh NE 3.7 mph6.0 kmh 30.58 in1035.6 mb 0.00 in0.0 mm 0.00 in0.0 mm 0.40 in10.2 mm
06:54 PM 41.2°F5.1°C 36.7°F2.6°C 84% 1.7 mph NNE2.7 kmh NNE 3.2 mph5.1 kmh 30.58 in1035.6 mb 0.00 in0.0 mm 0.00 in0.0 mm 0.40 in10.2 mm
06:55 PM 41.2°F5.1°C 36.7°F2.6°C 84% 1.1 mph NNE1.8 kmh NNE 3.2 mph5.1 kmh 30.58 in1035.6 mb 0.00 in0.0 mm 0.00 in0.0 mm 0.40 in10.2 mm
06:56 PM 41.2°F5.1°C 36.7°F2.6°C 84% Calm Calm 3.2 mph5.1 kmh 30.58 in1035.6 mb 0.00 in0.0 mm 0.00 in0.0 mm 0.40 in10.2 mm
06:57 PM 41.2°F5.1°C 36.7°F2.6°C 84% Calm Calm 3.2 mph5.1 kmh 30.58 in1035.6 mb 0.00 in0.0 mm 0.00 in0.0 mm 0.40 in10.2 mm
06:58 PM 41.2°F5.1°C 37.0°F2.8°C 85% Calm Calm 3.2 mph5.1 kmh 30.58 in1035.6 mb 0.00 in0.0 mm 0.00 in0.0 mm 0.40 in10.2 mm
06:59 PM 41.2°F5.1°C 37.0°F2.8°C 85% Calm Calm 2.2 mph3.5 kmh 30.58 in1035.6 mb 0.00 in0.0 mm 0.00 in0.0 mm 0.40 in10.2 mm
07:00 PM 41.0°F5.0°C 36.8°F2.7°C 85% Calm Calm 2.2 mph3.5 kmh 30.58 in1035.6 mb 0.00 in0.0 mm 0.00 in0.0 mm 0.40 in10.2 mm
07:01 PM 41.0°F5.0°C 37.1°F2.8°C 86% Calm Calm 2.2 mph3.5 kmh 30.58 in1035.6 mb 0.00 in0.0 mm 0.00 in0.0 mm 0.40 in10.2 mm
07:02 PM 41.0°F5.0°C 37.4°F3.0°C 87% Calm Calm 2.2 mph3.5 kmh 30.58 in1035.6 mb 0.00 in0.0 mm 0.00 in0.0 mm 0.40 in10.2 mm
07:03 PM 41.0°F5.0°C 37.4°F3.0°C 87% Calm Calm 2.2 mph3.5 kmh 30.58 in1035.6 mb 0.00 in0.0 mm 0.00 in0.0 mm 0.40 in10.2 mm
07:04 PM 41.0°F5.0°C 37.4°F3.0°C 87% Calm Calm 1.7 mph2.7 kmh 30.58 in1035.6 mb 0.00 in0.0 mm 0.00 in0.0 mm 0.40 in10.2 mm
07:05 PM 40.8°F4.9°C 37.2°F2.9°C 87% Calm Calm 1.1 mph1.8 kmh 30.58 in1035.6 mb 0.00 in0.0 mm 0.00 in0.0 mm 0.40 in10.2 mm
07:06 PM 40.8°F4.9°C 37.2°F2.9°C 87% Calm Calm -- 30.58 in1035.6 mb 0.00 in0.0 mm 0.00 in0.0 mm 0.40 in10.2 mm
07:07 PM 40.6°F4.8°C 37.0°F2.8°C 87% Calm Calm -- 30.58 in1035.6 mb 0.00 in0.0 mm 0.00 in0.0 mm 0.40 in10.2 mm
07:08 PM 40.6°F4.8°C 37.0°F2.8°C 87% Calm Calm -- 30.58 in1035.6 mb 0.00 in0.0 mm 0.00 in0.0 mm 0.40 in10.2 mm
07:09 PM 40.6°F4.8°C 37.3°F2.9°C 88% Calm Calm -- 30.58 in1035.6 mb 0.00 in0.0 mm 0.00 in0.0 mm 0.40 in10.2 mm
07:10 PM 40.5°F4.7°C 37.2°F2.9°C 88% Calm Calm -- 30.58 in1035.6 mb 0.00 in0.0 mm 0.00 in0.0 mm 0.40 in10.2 mm
07:11 PM 40.3°F4.6°C 37.0°F2.8°C 88% Calm Calm -- 30.58 in1035.6 mb 0.00 in0.0 mm 0.00 in0.0 mm 0.40 in10.2 mm
07:12 PM 40.1°F4.5°C 37.1°F2.8°C 89% Calm Calm -- 30.58 in1035.6 mb 0.00 in0.0 mm 0.00 in0.0 mm 0.40 in10.2 mm
07:13 PM 40.1°F4.5°C 37.1°F2.8°C 89% Calm Calm -- 30.58 in1035.6 mb 0.00 in0.0 mm 0.00 in0.0 mm 0.40 in10.2 mm
07:14 PM 39.9°F4.4°C 36.9°F2.7°C 89% Calm Calm -- 30.58 in1035.6 mb 0.00 in0.0 mm 0.00 in0.0 mm 0.40 in10.2 mm
07:15 PM 39.9°F4.4°C 36.9°F2.7°C 89% Calm Calm -- 30.58 in1035.6 mb 0.00 in0.0 mm 0.00 in0.0 mm 0.40 in10.2 mm
07:16 PM 39.9°F4.4°C 36.9°F2.7°C 89% Calm Calm -- 30.58 in1035.6 mb 0.00 in0.0 mm 0.00 in0.0 mm 0.40 in10.2 mm
07:17 PM 39.9°F4.4°C 36.9°F2.7°C 89% Calm Calm -- 30.58 in1035.6 mb 0.00 in0.0 mm 0.00 in0.0 mm 0.40 in10.2 mm
07:18 PM 39.7°F4.3°C 36.7°F2.6°C 89% Calm Calm -- 30.58 in1035.6 mb 0.00 in0.0 mm 0.00 in0.0 mm 0.40 in10.2 mm
07:19 PM 39.7°F4.3°C 36.7°F2.6°C 89% Calm Calm -- 30.58 in1035.6 mb 0.00 in0.0 mm 0.00 in0.0 mm 0.40 in10.2 mm
07:20 PM 39.7°F4.3°C 36.7°F2.6°C 89% Calm Calm -- 30.58 in1035.6 mb 0.00 in0.0 mm 0.00 in0.0 mm 0.40 in10.2 mm
07:21 PM 39.6°F4.2°C 36.6°F2.6°C 89% Calm Calm -- 30.58 in1035.6 mb 0.00 in0.0 mm 0.00 in0.0 mm 0.40 in10.2 mm
07:22 PM 39.6°F4.2°C 36.6°F2.6°C 89% Calm Calm -- 30.58 in1035.6 mb 0.00 in0.0 mm 0.00 in0.0 mm 0.40 in10.2 mm
07:23 PM 39.4°F4.1°C 36.4°F2.4°C 89% Calm Calm -- 30.58 in1035.6 mb 0.00 in0.0 mm 0.00 in0.0 mm 0.40 in10.2 mm
07:24 PM 39.2°F4.0°C 36.2°F2.3°C 89% Calm Calm -- 30.58 in1035.6 mb 0.00 in0.0 mm 0.00 in0.0 mm 0.40 in10.2 mm
07:25 PM 39.2°F4.0°C 36.5°F2.5°C 90% Calm Calm -- 30.58 in1035.6 mb 0.00 in0.0 mm 0.00 in0.0 mm 0.40 in10.2 mm
07:26 PM 39.2°F4.0°C 36.5°F2.5°C 90% 1.7 mph W2.7 kmh W 1.7 mph2.7 kmh 30.58 in1035.6 mb 0.00 in0.0 mm 0.00 in0.0 mm 0.40 in10.2 mm
07:27 PM 39.2°F4.0°C 36.5°F2.5°C 90% 1.7 mph W2.7 kmh W 1.7 mph2.7 kmh 30.58 in1035.6 mb 0.00 in0.0 mm 0.00 in0.0 mm 0.40 in10.2 mm
07:28 PM 39.2°F4.0°C 36.8°F2.7°C 91% 1.7 mph W2.7 kmh W 1.7 mph2.7 kmh 30.58 in1035.6 mb 0.00 in0.0 mm 0.00 in0.0 mm 0.40 in10.2 mm
07:29 PM 39.2°F4.0°C 36.8°F2.7°C 91% 1.1 mph WSW1.8 kmh WSW 1.7 mph2.7 kmh 30.59 in1035.9 mb 0.00 in0.0 mm 0.00 in0.0 mm 0.40 in10.2 mm
07:30 PM 39.2°F4.0°C 36.8°F2.7°C 91% 1.7 mph W2.7 kmh W 1.7 mph2.7 kmh 30.59 in1035.9 mb 0.00 in0.0 mm 0.00 in0.0 mm 0.40 in10.2 mm
07:31 PM 39.2°F4.0°C 36.8°F2.7°C 91% 1.1 mph W1.8 kmh W 1.7 mph2.7 kmh 30.59 in1035.9 mb 0.00 in0.0 mm 0.00 in0.0 mm 0.40 in10.2 mm
07:32 PM 39.2°F4.0°C 36.8°F2.7°C 91% 1.7 mph W2.7 kmh W 1.7 mph2.7 kmh 30.59 in1035.9 mb 0.00 in0.0 mm 0.00 in0.0 mm 0.40 in10.2 mm
07:33 PM 39.0°F3.9°C 36.6°F2.6°C 91% 1.7 mph W2.7 kmh W 1.7 mph2.7 kmh 30.59 in1035.9 mb 0.00 in0.0 mm 0.00 in0.0 mm 0.40 in10.2 mm
07:34 PM 39.0°F3.9°C 36.9°F2.7°C 92% 1.7 mph W2.7 kmh W 2.2 mph3.5 kmh 30.59 in1035.9 mb 0.00 in0.0 mm 0.00 in0.0 mm 0.40 in10.2 mm
07:35 PM 39.0°F3.9°C 36.9°F2.7°C 92% 1.7 mph W2.7 kmh W 2.2 mph3.5 kmh 30.59 in1035.9 mb 0.00 in0.0 mm 0.00 in0.0 mm 0.40 in10.2 mm
07:36 PM 38.8°F3.8°C 36.7°F2.6°C 92% 1.1 mph W1.8 kmh W 2.2 mph3.5 kmh 30.59 in1035.9 mb 0.00 in0.0 mm 0.00 in0.0 mm 0.40 in10.2 mm
07:37 PM 38.8°F3.8°C 36.7°F2.6°C 92% 1.7 mph SW2.7 kmh SW 2.2 mph3.5 kmh 30.59 in1035.9 mb 0.00 in0.0 mm 0.00 in0.0 mm 0.40 in10.2 mm
07:38 PM 38.8°F3.8°C 36.7°F2.6°C 92% 1.1 mph SSW1.8 kmh SSW 2.2 mph3.5 kmh 30.59 in1035.9 mb 0.00 in0.0 mm 0.00 in0.0 mm 0.40 in10.2 mm
07:39 PM 38.7°F3.7°C 36.6°F2.6°C 92% Calm Calm 2.2 mph3.5 kmh 30.59 in1035.9 mb 0.00 in0.0 mm 0.00 in0.0 mm 0.40 in10.2 mm
07:40 PM 38.7°F3.7°C 36.6°F2.6°C 92% Calm Calm 2.2 mph3.5 kmh 30.59 in1035.9 mb 0.00 in0.0 mm 0.00 in0.0 mm 0.40 in10.2 mm
07:41 PM 38.7°F3.7°C 36.6°F2.6°C 92% Calm Calm 2.2 mph3.5 kmh 30.59 in1035.9 mb 0.00 in0.0 mm 0.00 in0.0 mm 0.40 in10.2 mm
07:42 PM 38.7°F3.7°C 36.6°F2.6°C 92% Calm Calm 2.2 mph3.5 kmh 30.59 in1035.9 mb 0.00 in0.0 mm 0.00 in0.0 mm 0.40 in10.2 mm
07:43 PM 38.5°F3.6°C 36.4°F2.4°C 92% Calm Calm 2.2 mph3.5 kmh 30.59 in1035.9 mb 0.00 in0.0 mm 0.00 in0.0 mm 0.40 in10.2 mm
07:44 PM 38.5°F3.6°C 36.4°F2.4°C 92% 1.7 mph W2.7 kmh W 1.7 mph2.7 kmh 30.59 in1035.9 mb 0.00 in0.0 mm 0.00 in0.0 mm 0.40 in10.2 mm
07:45 PM 38.5°F3.6°C 36.4°F2.4°C 92% 1.1 mph WSW1.8 kmh WSW 1.7 mph2.7 kmh 30.59 in1035.9 mb 0.00 in0.0 mm 0.00 in0.0 mm 0.40 in10.2 mm
07:46 PM 38.3°F3.5°C 36.2°F2.3°C 92% 1.7 mph WSW2.7 kmh WSW 1.7 mph2.7 kmh 30.59 in1035.9 mb 0.00 in0.0 mm 0.00 in0.0 mm 0.40 in10.2 mm
07:47 PM 38.3°F3.5°C 36.2°F2.3°C 92% 1.7 mph WSW2.7 kmh WSW 2.2 mph3.5 kmh 30.59 in1035.9 mb 0.00 in0.0 mm 0.00 in0.0 mm 0.40 in10.2 mm
07:48 PM 38.3°F3.5°C 36.2°F2.3°C 92% Calm Calm 2.2 mph3.5 kmh 30.59 in1035.9 mb 0.00 in0.0 mm 0.00 in0.0 mm 0.40 in10.2 mm
07:49 PM 38.3°F3.5°C 36.2°F2.3°C 92% Calm Calm 2.2 mph3.5 kmh 30.59 in1035.9 mb 0.00 in0.0 mm 0.00 in0.0 mm 0.40 in10.2 mm
07:50 PM 38.3°F3.5°C 36.2°F2.3°C 92% Calm Calm 2.2 mph3.5 kmh 30.59 in1035.9 mb 0.00 in0.0 mm 0.00 in0.0 mm 0.40 in10.2 mm
07:51 PM 38.3°F3.5°C 36.2°F2.3°C 92% Calm Calm 2.2 mph3.5 kmh 30.59 in1035.9 mb 0.00 in0.0 mm 0.00 in0.0 mm 0.40 in10.2 mm
07:52 PM 38.3°F3.5°C 36.2°F2.3°C 92% Calm Calm 2.2 mph3.5 kmh 30.59 in1035.9 mb 0.00 in0.0 mm 0.00 in0.0 mm 0.40 in10.2 mm
07:53 PM 38.1°F3.4°C 36.0°F2.2°C 92% Calm Calm 2.2 mph3.5 kmh 30.60 in1036.2 mb 0.00 in0.0 mm 0.00 in0.0 mm 0.40 in10.2 mm
07:54 PM 38.1°F3.4°C 36.0°F2.2°C 92% Calm Calm 2.2 mph3.5 kmh 30.60 in1036.2 mb 0.00 in0.0 mm 0.00 in0.0 mm 0.40 in10.2 mm
07:55 PM 38.1°F3.4°C 36.0°F2.2°C 92% Calm Calm 2.2 mph3.5 kmh 30.60 in1036.2 mb 0.00 in0.0 mm 0.00 in0.0 mm 0.40 in10.2 mm
07:56 PM 37.9°F3.3°C 35.8°F2.1°C 92% Calm Calm 2.2 mph3.5 kmh 30.60 in1036.2 mb 0.00 in0.0 mm 0.00 in0.0 mm 0.40 in10.2 mm
07:57 PM 37.9°F3.3°C 35.8°F2.1°C 92% Calm Calm 1.7 mph2.7 kmh 30.60 in1036.2 mb 0.00 in0.0 mm 0.00 in0.0 mm 0.40 in10.2 mm
07:58 PM 37.9°F3.3°C 35.8°F2.1°C 92% Calm Calm 1.1 mph1.8 kmh 30.60 in1036.2 mb 0.00 in0.0 mm 0.00 in0.0 mm 0.40 in10.2 mm
07:59 PM 37.8°F3.2°C 35.7°F2.1°C 92% Calm Calm -- 30.60 in1036.2 mb 0.00 in0.0 mm 0.00 in0.0 mm 0.40 in10.2 mm
08:00 PM 37.8°F3.2°C 35.7°F2.1°C 92% Calm Calm -- 30.60 in1036.2 mb 0.00 in0.0 mm 0.00 in0.0 mm 0.40 in10.2 mm
08:01 PM 37.6°F3.1°C 35.5°F1.9°C 92% Calm Calm -- 30.60 in1036.2 mb 0.00 in0.0 mm 0.00 in0.0 mm 0.40 in10.2 mm
08:02 PM 37.6°F3.1°C 35.8°F2.1°C 93% 1.7 mph WNW2.7 kmh WNW 1.7 mph2.7 kmh 30.60 in1036.2 mb 0.00 in0.0 mm 0.00 in0.0 mm 0.40 in10.2 mm
08:03 PM 37.6°F3.1°C 36.0°F2.2°C 94% 1.7 mph W2.7 kmh W 1.7 mph2.7 kmh 30.60 in1036.2 mb 0.00 in0.0 mm 0.00 in0.0 mm 0.40 in10.2 mm
08:04 PM 37.6°F3.1°C 36.0°F2.2°C 94% 1.7 mph W2.7 kmh W 1.7 mph2.7 kmh 30.60 in1036.2 mb 0.00 in0.0 mm 0.00 in0.0 mm 0.40 in10.2 mm
08:05 PM 37.6°F3.1°C 36.0°F2.2°C 94% 1.1 mph W1.8 kmh W 1.7 mph2.7 kmh 30.60 in1036.2 mb 0.00 in0.0 mm 0.00 in0.0 mm 0.40 in10.2 mm
08:06 PM 37.6°F3.1°C 36.0°F2.2°C 94% 1.1 mph W1.8 kmh W 1.7 mph2.7 kmh 30.60 in1036.2 mb 0.00 in0.0 mm 0.00 in0.0 mm 0.40 in10.2 mm
08:07 PM 37.6°F3.1°C 36.0°F2.2°C 94% Calm Calm 1.7 mph2.7 kmh 30.60 in1036.2 mb 0.00 in0.0 mm 0.00 in0.0 mm 0.40 in10.2 mm
08:08 PM 37.6°F3.1°C